<?xml version="1.0" encoding="UTF-8" standalone="no" ?>
<gpx xmlns="http://www.topografix.com/GPX/1/1" xmlns:xsi="http://www.w3.org/2001/XMLSchema-instance" xsi:schemaLocation="http://www.topografix.com/GPX/1/1 http://www.topografix.com/GPX/1/1/gpx.xsd" version="1.1" creator="VisuGPX - https://www.visugpx.com">
  <metadata>
    <name>Mezens 37 km</name>
  </metadata>
  <trk>
    <name><![CDATA[Mezens 37 km]]></name>
    <extensions>
      <line xmlns="http://www.topografix.com/GPX/gpx_style/0/2">
        <color>FF0000</color>
        <width>4</width>
      </line>
    </extensions>
    <trkseg>
      <trkpt lat="43.79025" lon="1.6716">
        <ele>112</ele>
        <time>2017-04-16T07:43:24Z</time>
      </trkpt>
      <trkpt lat="43.79026" lon="1.67159">
        <ele>112</ele>
        <time>2017-04-16T07:43:43Z</time>
      </trkpt>
      <trkpt lat="43.79027" lon="1.67159">
        <ele>112</ele>
        <time>2017-04-16T07:43:50Z</time>
      </trkpt>
      <trkpt lat="43.79028" lon="1.67159">
        <ele>112</ele>
        <time>2017-04-16T07:43:54Z</time>
      </trkpt>
      <trkpt lat="43.79029" lon="1.67161">
        <ele>112</ele>
        <time>2017-04-16T07:44:22Z</time>
      </trkpt>
      <trkpt lat="43.79026" lon="1.67159">
        <ele>112</ele>
        <time>2017-04-16T07:44:49Z</time>
      </trkpt>
      <trkpt lat="43.79027" lon="1.67159">
        <ele>112</ele>
        <time>2017-04-16T07:45:20Z</time>
      </trkpt>
      <trkpt lat="43.79041" lon="1.67168">
        <ele>108</ele>
        <time>2017-04-16T07:45:24Z</time>
      </trkpt>
      <trkpt lat="43.79046" lon="1.67177">
        <ele>108</ele>
        <time>2017-04-16T07:45:39Z</time>
      </trkpt>
      <trkpt lat="43.79036" lon="1.67203">
        <ele>107</ele>
        <time>2017-04-16T07:45:51Z</time>
      </trkpt>
      <trkpt lat="43.79027" lon="1.67231">
        <ele>106</ele>
        <time>2017-04-16T07:46:09Z</time>
      </trkpt>
      <trkpt lat="43.79016" lon="1.67258">
        <ele>107</ele>
        <time>2017-04-16T07:46:24Z</time>
      </trkpt>
      <trkpt lat="43.79011" lon="1.67304">
        <ele>109</ele>
        <time>2017-04-16T07:46:40Z</time>
      </trkpt>
      <trkpt lat="43.79008" lon="1.67352">
        <ele>116</ele>
        <time>2017-04-16T07:46:58Z</time>
      </trkpt>
      <trkpt lat="43.7901" lon="1.67402">
        <ele>121</ele>
        <time>2017-04-16T07:47:01Z</time>
      </trkpt>
      <trkpt lat="43.79028" lon="1.67472">
        <ele>129</ele>
        <time>2017-04-16T07:47:06Z</time>
      </trkpt>
      <trkpt lat="43.78949" lon="1.67644">
        <ele>142</ele>
        <time>2017-04-16T07:47:23Z</time>
      </trkpt>
      <trkpt lat="43.78924" lon="1.67696">
        <ele>147</ele>
        <time>2017-04-16T07:47:42Z</time>
      </trkpt>
      <trkpt lat="43.78896" lon="1.67736">
        <ele>152</ele>
        <time>2017-04-16T07:47:58Z</time>
      </trkpt>
      <trkpt lat="43.78899" lon="1.6766">
        <ele>149</ele>
        <time>2017-04-16T07:48:17Z</time>
      </trkpt>
      <trkpt lat="43.78899" lon="1.6759">
        <ele>148</ele>
        <time>2017-04-16T07:48:18Z</time>
      </trkpt>
      <trkpt lat="43.78863" lon="1.675">
        <ele>137</ele>
        <time>2017-04-16T07:48:19Z</time>
      </trkpt>
      <trkpt lat="43.78834" lon="1.67466">
        <ele>135</ele>
        <time>2017-04-16T07:48:20Z</time>
      </trkpt>
      <trkpt lat="43.7877" lon="1.67461">
        <ele>127</ele>
        <time>2017-04-16T07:48:21Z</time>
      </trkpt>
      <trkpt lat="43.7876" lon="1.67426">
        <ele>121</ele>
        <time>2017-04-16T07:48:37Z</time>
      </trkpt>
      <trkpt lat="43.78735" lon="1.6732">
        <ele>109</ele>
        <time>2017-04-16T07:48:42Z</time>
      </trkpt>
      <trkpt lat="43.78715" lon="1.67306">
        <ele>108</ele>
        <time>2017-04-16T07:48:43Z</time>
      </trkpt>
      <trkpt lat="43.78678" lon="1.6731">
        <ele>108</ele>
        <time>2017-04-16T07:48:44Z</time>
      </trkpt>
      <trkpt lat="43.78675" lon="1.67289">
        <ele>107</ele>
        <time>2017-04-16T07:48:45Z</time>
      </trkpt>
      <trkpt lat="43.78646" lon="1.67244">
        <ele>107</ele>
        <time>2017-04-16T07:48:46Z</time>
      </trkpt>
      <trkpt lat="43.78663" lon="1.67206">
        <ele>108</ele>
        <time>2017-04-16T07:48:47Z</time>
      </trkpt>
      <trkpt lat="43.78725" lon="1.67035">
        <ele>116</ele>
        <time>2017-04-16T07:49:02Z</time>
      </trkpt>
      <trkpt lat="43.78715" lon="1.67027">
        <ele>116</ele>
        <time>2017-04-16T07:49:19Z</time>
      </trkpt>
      <trkpt lat="43.78712" lon="1.67007">
        <ele>116</ele>
        <time>2017-04-16T07:49:29Z</time>
      </trkpt>
      <trkpt lat="43.78712" lon="1.6699">
        <ele>117</ele>
        <time>2017-04-16T07:49:30Z</time>
      </trkpt>
      <trkpt lat="43.7871" lon="1.66969">
        <ele>117</ele>
        <time>2017-04-16T07:49:31Z</time>
      </trkpt>
      <trkpt lat="43.78723" lon="1.66968">
        <ele>118</ele>
        <time>2017-04-16T07:49:33Z</time>
      </trkpt>
      <trkpt lat="43.78722" lon="1.66965">
        <ele>118</ele>
        <time>2017-04-16T07:49:34Z</time>
      </trkpt>
      <trkpt lat="43.78719" lon="1.66957">
        <ele>118</ele>
        <time>2017-04-16T07:49:35Z</time>
      </trkpt>
      <trkpt lat="43.78718" lon="1.66949">
        <ele>118</ele>
        <time>2017-04-16T07:49:36Z</time>
      </trkpt>
      <trkpt lat="43.78717" lon="1.66942">
        <ele>118</ele>
        <time>2017-04-16T07:49:37Z</time>
      </trkpt>
      <trkpt lat="43.78717" lon="1.66934">
        <ele>118</ele>
        <time>2017-04-16T07:49:38Z</time>
      </trkpt>
      <trkpt lat="43.78715" lon="1.66913">
        <ele>118</ele>
        <time>2017-04-16T07:49:41Z</time>
      </trkpt>
      <trkpt lat="43.78703" lon="1.66786">
        <ele>117</ele>
        <time>2017-04-16T07:49:59Z</time>
      </trkpt>
      <trkpt lat="43.78685" lon="1.66688">
        <ele>118</ele>
        <time>2017-04-16T07:50:14Z</time>
      </trkpt>
      <trkpt lat="43.78665" lon="1.66588">
        <ele>118</ele>
        <time>2017-04-16T07:50:29Z</time>
      </trkpt>
      <trkpt lat="43.78648" lon="1.66458">
        <ele>119</ele>
        <time>2017-04-16T07:50:52Z</time>
      </trkpt>
      <trkpt lat="43.78619" lon="1.66341">
        <ele>119</ele>
        <time>2017-04-16T07:51:14Z</time>
      </trkpt>
      <trkpt lat="43.78596" lon="1.66236">
        <ele>122</ele>
        <time>2017-04-16T07:51:34Z</time>
      </trkpt>
      <trkpt lat="43.78582" lon="1.66153">
        <ele>121</ele>
        <time>2017-04-16T07:51:54Z</time>
      </trkpt>
      <trkpt lat="43.78552" lon="1.66072">
        <ele>123</ele>
        <time>2017-04-16T07:52:16Z</time>
      </trkpt>
      <trkpt lat="43.78535" lon="1.65995">
        <ele>124</ele>
        <time>2017-04-16T07:52:34Z</time>
      </trkpt>
      <trkpt lat="43.78526" lon="1.65926">
        <ele>124</ele>
        <time>2017-04-16T07:52:49Z</time>
      </trkpt>
      <trkpt lat="43.78508" lon="1.65852">
        <ele>126</ele>
        <time>2017-04-16T07:53:05Z</time>
      </trkpt>
      <trkpt lat="43.78493" lon="1.65772">
        <ele>122</ele>
        <time>2017-04-16T07:53:23Z</time>
      </trkpt>
      <trkpt lat="43.78491" lon="1.65694">
        <ele>122</ele>
        <time>2017-04-16T07:53:40Z</time>
      </trkpt>
      <trkpt lat="43.78488" lon="1.65626">
        <ele>122</ele>
        <time>2017-04-16T07:53:52Z</time>
      </trkpt>
      <trkpt lat="43.7849" lon="1.65584">
        <ele>125</ele>
        <time>2017-04-16T07:53:58Z</time>
      </trkpt>
      <trkpt lat="43.78495" lon="1.6553">
        <ele>123</ele>
        <time>2017-04-16T07:54:06Z</time>
      </trkpt>
      <trkpt lat="43.78496" lon="1.65524">
        <ele>123</ele>
        <time>2017-04-16T07:54:07Z</time>
      </trkpt>
      <trkpt lat="43.78497" lon="1.65512">
        <ele>124</ele>
        <time>2017-04-16T07:54:09Z</time>
      </trkpt>
      <trkpt lat="43.78497" lon="1.65506">
        <ele>125</ele>
        <time>2017-04-16T07:54:10Z</time>
      </trkpt>
      <trkpt lat="43.78497" lon="1.65492">
        <ele>125</ele>
        <time>2017-04-16T07:54:12Z</time>
      </trkpt>
      <trkpt lat="43.78496" lon="1.65483">
        <ele>123</ele>
        <time>2017-04-16T07:54:13Z</time>
      </trkpt>
      <trkpt lat="43.78495" lon="1.65455">
        <ele>121</ele>
        <time>2017-04-16T07:54:16Z</time>
      </trkpt>
      <trkpt lat="43.78498" lon="1.65378">
        <ele>120</ele>
        <time>2017-04-16T07:54:25Z</time>
      </trkpt>
      <trkpt lat="43.78499" lon="1.65349">
        <ele>121</ele>
        <time>2017-04-16T07:54:30Z</time>
      </trkpt>
      <trkpt lat="43.78498" lon="1.65298">
        <ele>120</ele>
        <time>2017-04-16T07:54:40Z</time>
      </trkpt>
      <trkpt lat="43.78496" lon="1.6528">
        <ele>121</ele>
        <time>2017-04-16T07:54:43Z</time>
      </trkpt>
      <trkpt lat="43.78489" lon="1.65219">
        <ele>121</ele>
        <time>2017-04-16T07:54:55Z</time>
      </trkpt>
      <trkpt lat="43.78485" lon="1.65203">
        <ele>121</ele>
        <time>2017-04-16T07:54:58Z</time>
      </trkpt>
      <trkpt lat="43.78476" lon="1.65132">
        <ele>123</ele>
        <time>2017-04-16T07:55:09Z</time>
      </trkpt>
      <trkpt lat="43.78475" lon="1.65114">
        <ele>123</ele>
        <time>2017-04-16T07:55:12Z</time>
      </trkpt>
      <trkpt lat="43.78471" lon="1.65084">
        <ele>124</ele>
        <time>2017-04-16T07:55:17Z</time>
      </trkpt>
      <trkpt lat="43.7847" lon="1.65079">
        <ele>125</ele>
        <time>2017-04-16T07:55:18Z</time>
      </trkpt>
      <trkpt lat="43.78455" lon="1.65005">
        <ele>123</ele>
        <time>2017-04-16T07:55:32Z</time>
      </trkpt>
      <trkpt lat="43.78452" lon="1.64992">
        <ele>125</ele>
        <time>2017-04-16T07:55:34Z</time>
      </trkpt>
      <trkpt lat="43.78436" lon="1.64901">
        <ele>125</ele>
        <time>2017-04-16T07:55:49Z</time>
      </trkpt>
      <trkpt lat="43.78435" lon="1.64894">
        <ele>126</ele>
        <time>2017-04-16T07:55:50Z</time>
      </trkpt>
      <trkpt lat="43.78434" lon="1.64887">
        <ele>126</ele>
        <time>2017-04-16T07:55:51Z</time>
      </trkpt>
      <trkpt lat="43.7843" lon="1.64825">
        <ele>124</ele>
        <time>2017-04-16T07:56:04Z</time>
      </trkpt>
      <trkpt lat="43.78434" lon="1.64772">
        <ele>128</ele>
        <time>2017-04-16T07:56:20Z</time>
      </trkpt>
      <trkpt lat="43.78439" lon="1.64732">
        <ele>131</ele>
        <time>2017-04-16T07:56:35Z</time>
      </trkpt>
      <trkpt lat="43.78437" lon="1.64682">
        <ele>130</ele>
        <time>2017-04-16T07:56:47Z</time>
      </trkpt>
      <trkpt lat="43.78436" lon="1.64612">
        <ele>132</ele>
        <time>2017-04-16T07:57:01Z</time>
      </trkpt>
      <trkpt lat="43.78432" lon="1.64567">
        <ele>130</ele>
        <time>2017-04-16T07:57:10Z</time>
      </trkpt>
      <trkpt lat="43.78424" lon="1.64514">
        <ele>129</ele>
        <time>2017-04-16T07:57:21Z</time>
      </trkpt>
      <trkpt lat="43.78424" lon="1.64461">
        <ele>135</ele>
        <time>2017-04-16T07:57:36Z</time>
      </trkpt>
      <trkpt lat="43.7842" lon="1.64403">
        <ele>132</ele>
        <time>2017-04-16T07:57:50Z</time>
      </trkpt>
      <trkpt lat="43.78417" lon="1.64362">
        <ele>134</ele>
        <time>2017-04-16T07:58:01Z</time>
      </trkpt>
      <trkpt lat="43.78426" lon="1.64299">
        <ele>130</ele>
        <time>2017-04-16T07:58:17Z</time>
      </trkpt>
      <trkpt lat="43.78443" lon="1.6425">
        <ele>126</ele>
        <time>2017-04-16T07:58:28Z</time>
      </trkpt>
      <trkpt lat="43.78443" lon="1.64244">
        <ele>126</ele>
        <time>2017-04-16T07:58:29Z</time>
      </trkpt>
      <trkpt lat="43.78444" lon="1.64237">
        <ele>126</ele>
        <time>2017-04-16T07:58:30Z</time>
      </trkpt>
      <trkpt lat="43.78443" lon="1.6423">
        <ele>127</ele>
        <time>2017-04-16T07:58:31Z</time>
      </trkpt>
      <trkpt lat="43.78443" lon="1.64222">
        <ele>127</ele>
        <time>2017-04-16T07:58:32Z</time>
      </trkpt>
      <trkpt lat="43.78442" lon="1.64217">
        <ele>127</ele>
        <time>2017-04-16T07:58:33Z</time>
      </trkpt>
      <trkpt lat="43.78441" lon="1.64213">
        <ele>127</ele>
        <time>2017-04-16T07:58:34Z</time>
      </trkpt>
      <trkpt lat="43.78441" lon="1.64209">
        <ele>127</ele>
        <time>2017-04-16T07:58:35Z</time>
      </trkpt>
      <trkpt lat="43.78442" lon="1.64207">
        <ele>127</ele>
        <time>2017-04-16T07:58:36Z</time>
      </trkpt>
      <trkpt lat="43.78443" lon="1.64205">
        <ele>127</ele>
        <time>2017-04-16T07:58:37Z</time>
      </trkpt>
      <trkpt lat="43.78445" lon="1.64204">
        <ele>127</ele>
        <time>2017-04-16T07:58:38Z</time>
      </trkpt>
      <trkpt lat="43.78447" lon="1.64203">
        <ele>127</ele>
        <time>2017-04-16T07:58:39Z</time>
      </trkpt>
      <trkpt lat="43.78458" lon="1.64197">
        <ele>128</ele>
        <time>2017-04-16T07:58:44Z</time>
      </trkpt>
      <trkpt lat="43.78484" lon="1.64181">
        <ele>130</ele>
        <time>2017-04-16T07:58:57Z</time>
      </trkpt>
      <trkpt lat="43.78533" lon="1.64166">
        <ele>137</ele>
        <time>2017-04-16T07:59:17Z</time>
      </trkpt>
      <trkpt lat="43.78572" lon="1.64156">
        <ele>138</ele>
        <time>2017-04-16T07:59:32Z</time>
      </trkpt>
      <trkpt lat="43.7862" lon="1.64164">
        <ele>143</ele>
        <time>2017-04-16T07:59:52Z</time>
      </trkpt>
      <trkpt lat="43.78668" lon="1.6418">
        <ele>144</ele>
        <time>2017-04-16T08:00:12Z</time>
      </trkpt>
      <trkpt lat="43.78676" lon="1.64175">
        <ele>143</ele>
        <time>2017-04-16T08:00:16Z</time>
      </trkpt>
      <trkpt lat="43.78676" lon="1.64173">
        <ele>143</ele>
        <time>2017-04-16T08:00:17Z</time>
      </trkpt>
      <trkpt lat="43.78676" lon="1.6417">
        <ele>143</ele>
        <time>2017-04-16T08:00:18Z</time>
      </trkpt>
      <trkpt lat="43.78675" lon="1.64168">
        <ele>143</ele>
        <time>2017-04-16T08:00:19Z</time>
      </trkpt>
      <trkpt lat="43.78674" lon="1.64166">
        <ele>145</ele>
        <time>2017-04-16T08:00:20Z</time>
      </trkpt>
      <trkpt lat="43.78674" lon="1.64164">
        <ele>145</ele>
        <time>2017-04-16T08:00:21Z</time>
      </trkpt>
      <trkpt lat="43.78657" lon="1.64139">
        <ele>145</ele>
        <time>2017-04-16T08:00:38Z</time>
      </trkpt>
      <trkpt lat="43.78644" lon="1.64116">
        <ele>148</ele>
        <time>2017-04-16T08:00:55Z</time>
      </trkpt>
      <trkpt lat="43.78628" lon="1.64098">
        <ele>148</ele>
        <time>2017-04-16T08:01:11Z</time>
      </trkpt>
      <trkpt lat="43.78609" lon="1.64069">
        <ele>156</ele>
        <time>2017-04-16T08:01:29Z</time>
      </trkpt>
      <trkpt lat="43.78585" lon="1.64049">
        <ele>157</ele>
        <time>2017-04-16T08:01:47Z</time>
      </trkpt>
      <trkpt lat="43.78567" lon="1.6404">
        <ele>152</ele>
        <time>2017-04-16T08:02:01Z</time>
      </trkpt>
      <trkpt lat="43.78547" lon="1.64035">
        <ele>151</ele>
        <time>2017-04-16T08:02:16Z</time>
      </trkpt>
      <trkpt lat="43.78526" lon="1.64021">
        <ele>150</ele>
        <time>2017-04-16T08:02:35Z</time>
      </trkpt>
      <trkpt lat="43.78516" lon="1.63994">
        <ele>150</ele>
        <time>2017-04-16T08:02:50Z</time>
      </trkpt>
      <trkpt lat="43.7852" lon="1.63984">
        <ele>151</ele>
        <time>2017-04-16T08:02:56Z</time>
      </trkpt>
      <trkpt lat="43.78539" lon="1.63965">
        <ele>154</ele>
        <time>2017-04-16T08:03:15Z</time>
      </trkpt>
      <trkpt lat="43.78559" lon="1.63954">
        <ele>156</ele>
        <time>2017-04-16T08:03:32Z</time>
      </trkpt>
      <trkpt lat="43.78567" lon="1.63951">
        <ele>157</ele>
        <time>2017-04-16T08:03:39Z</time>
      </trkpt>
      <trkpt lat="43.78568" lon="1.6395">
        <ele>157</ele>
        <time>2017-04-16T08:03:40Z</time>
      </trkpt>
      <trkpt lat="43.78581" lon="1.63944">
        <ele>159</ele>
        <time>2017-04-16T08:03:51Z</time>
      </trkpt>
      <trkpt lat="43.78599" lon="1.63926">
        <ele>170</ele>
        <time>2017-04-16T08:04:08Z</time>
      </trkpt>
      <trkpt lat="43.78602" lon="1.63923">
        <ele>170</ele>
        <time>2017-04-16T08:04:11Z</time>
      </trkpt>
      <trkpt lat="43.78603" lon="1.63921">
        <ele>170</ele>
        <time>2017-04-16T08:04:12Z</time>
      </trkpt>
      <trkpt lat="43.78604" lon="1.63919">
        <ele>170</ele>
        <time>2017-04-16T08:04:13Z</time>
      </trkpt>
      <trkpt lat="43.78623" lon="1.63903">
        <ele>174</ele>
        <time>2017-04-16T08:04:30Z</time>
      </trkpt>
      <trkpt lat="43.7864" lon="1.63896">
        <ele>176</ele>
        <time>2017-04-16T08:04:45Z</time>
      </trkpt>
      <trkpt lat="43.78641" lon="1.63895">
        <ele>177</ele>
        <time>2017-04-16T08:04:46Z</time>
      </trkpt>
      <trkpt lat="43.78643" lon="1.63894">
        <ele>177</ele>
        <time>2017-04-16T08:04:47Z</time>
      </trkpt>
      <trkpt lat="43.78644" lon="1.63893">
        <ele>177</ele>
        <time>2017-04-16T08:04:48Z</time>
      </trkpt>
      <trkpt lat="43.78645" lon="1.63892">
        <ele>177</ele>
        <time>2017-04-16T08:04:49Z</time>
      </trkpt>
      <trkpt lat="43.78646" lon="1.63891">
        <ele>177</ele>
        <time>2017-04-16T08:04:50Z</time>
      </trkpt>
      <trkpt lat="43.78648" lon="1.6389">
        <ele>177</ele>
        <time>2017-04-16T08:04:51Z</time>
      </trkpt>
      <trkpt lat="43.78649" lon="1.63889">
        <ele>177</ele>
        <time>2017-04-16T08:04:52Z</time>
      </trkpt>
      <trkpt lat="43.7865" lon="1.63888">
        <ele>177</ele>
        <time>2017-04-16T08:04:53Z</time>
      </trkpt>
      <trkpt lat="43.78672" lon="1.63873">
        <ele>189</ele>
        <time>2017-04-16T08:05:10Z</time>
      </trkpt>
      <trkpt lat="43.78688" lon="1.63871">
        <ele>190</ele>
        <time>2017-04-16T08:05:22Z</time>
      </trkpt>
      <trkpt lat="43.787" lon="1.63871">
        <ele>191</ele>
        <time>2017-04-16T08:05:31Z</time>
      </trkpt>
      <trkpt lat="43.78701" lon="1.6387">
        <ele>191</ele>
        <time>2017-04-16T08:05:32Z</time>
      </trkpt>
      <trkpt lat="43.78702" lon="1.63868">
        <ele>191</ele>
        <time>2017-04-16T08:05:33Z</time>
      </trkpt>
      <trkpt lat="43.78703" lon="1.63866">
        <ele>191</ele>
        <time>2017-04-16T08:05:34Z</time>
      </trkpt>
      <trkpt lat="43.78703" lon="1.63865">
        <ele>191</ele>
        <time>2017-04-16T08:05:35Z</time>
      </trkpt>
      <trkpt lat="43.78704" lon="1.63863">
        <ele>191</ele>
        <time>2017-04-16T08:05:36Z</time>
      </trkpt>
      <trkpt lat="43.78705" lon="1.63861">
        <ele>191</ele>
        <time>2017-04-16T08:05:37Z</time>
      </trkpt>
      <trkpt lat="43.78717" lon="1.63825">
        <ele>190</ele>
        <time>2017-04-16T08:05:55Z</time>
      </trkpt>
      <trkpt lat="43.78718" lon="1.63823">
        <ele>190</ele>
        <time>2017-04-16T08:05:56Z</time>
      </trkpt>
      <trkpt lat="43.78718" lon="1.63821">
        <ele>190</ele>
        <time>2017-04-16T08:05:57Z</time>
      </trkpt>
      <trkpt lat="43.78719" lon="1.63819">
        <ele>190</ele>
        <time>2017-04-16T08:05:58Z</time>
      </trkpt>
      <trkpt lat="43.7872" lon="1.63816">
        <ele>190</ele>
        <time>2017-04-16T08:05:59Z</time>
      </trkpt>
      <trkpt lat="43.78737" lon="1.63758">
        <ele>191</ele>
        <time>2017-04-16T08:06:17Z</time>
      </trkpt>
      <trkpt lat="43.78755" lon="1.63738">
        <ele>193</ele>
        <time>2017-04-16T08:06:28Z</time>
      </trkpt>
      <trkpt lat="43.7877" lon="1.63746">
        <ele>193</ele>
        <time>2017-04-16T08:06:36Z</time>
      </trkpt>
      <trkpt lat="43.78773" lon="1.63756">
        <ele>194</ele>
        <time>2017-04-16T08:06:40Z</time>
      </trkpt>
      <trkpt lat="43.78779" lon="1.63793">
        <ele>194</ele>
        <time>2017-04-16T08:06:55Z</time>
      </trkpt>
      <trkpt lat="43.78779" lon="1.63836">
        <ele>197</ele>
        <time>2017-04-16T08:07:08Z</time>
      </trkpt>
      <trkpt lat="43.78779" lon="1.63892">
        <ele>198</ele>
        <time>2017-04-16T08:07:20Z</time>
      </trkpt>
      <trkpt lat="43.78781" lon="1.63894">
        <ele>198</ele>
        <time>2017-04-16T08:07:21Z</time>
      </trkpt>
      <trkpt lat="43.78805" lon="1.63914">
        <ele>198</ele>
        <time>2017-04-16T08:07:34Z</time>
      </trkpt>
      <trkpt lat="43.78833" lon="1.63932">
        <ele>199</ele>
        <time>2017-04-16T08:07:48Z</time>
      </trkpt>
      <trkpt lat="43.78865" lon="1.63935">
        <ele>197</ele>
        <time>2017-04-16T08:08:01Z</time>
      </trkpt>
      <trkpt lat="43.78867" lon="1.63936">
        <ele>197</ele>
        <time>2017-04-16T08:08:02Z</time>
      </trkpt>
      <trkpt lat="43.78869" lon="1.63937">
        <ele>197</ele>
        <time>2017-04-16T08:08:11Z</time>
      </trkpt>
      <trkpt lat="43.7887" lon="1.63933">
        <ele>197</ele>
        <time>2017-04-16T08:08:19Z</time>
      </trkpt>
      <trkpt lat="43.78866" lon="1.63928">
        <ele>197</ele>
        <time>2017-04-16T08:08:22Z</time>
      </trkpt>
      <trkpt lat="43.78865" lon="1.63927">
        <ele>197</ele>
        <time>2017-04-16T08:08:23Z</time>
      </trkpt>
      <trkpt lat="43.78863" lon="1.63925">
        <ele>198</ele>
        <time>2017-04-16T08:08:24Z</time>
      </trkpt>
      <trkpt lat="43.7886" lon="1.63923">
        <ele>198</ele>
        <time>2017-04-16T08:08:25Z</time>
      </trkpt>
      <trkpt lat="43.78857" lon="1.63923">
        <ele>198</ele>
        <time>2017-04-16T08:08:26Z</time>
      </trkpt>
      <trkpt lat="43.78855" lon="1.63922">
        <ele>198</ele>
        <time>2017-04-16T08:08:27Z</time>
      </trkpt>
      <trkpt lat="43.78853" lon="1.6392">
        <ele>198</ele>
        <time>2017-04-16T08:08:28Z</time>
      </trkpt>
      <trkpt lat="43.7885" lon="1.63918">
        <ele>198</ele>
        <time>2017-04-16T08:08:29Z</time>
      </trkpt>
      <trkpt lat="43.78846" lon="1.63918">
        <ele>199</ele>
        <time>2017-04-16T08:08:30Z</time>
      </trkpt>
      <trkpt lat="43.78844" lon="1.63917">
        <ele>199</ele>
        <time>2017-04-16T08:08:31Z</time>
      </trkpt>
      <trkpt lat="43.78841" lon="1.63915">
        <ele>197</ele>
        <time>2017-04-16T08:08:32Z</time>
      </trkpt>
      <trkpt lat="43.78838" lon="1.63901">
        <ele>196</ele>
        <time>2017-04-16T08:08:36Z</time>
      </trkpt>
      <trkpt lat="43.78838" lon="1.63887">
        <ele>194</ele>
        <time>2017-04-16T08:08:39Z</time>
      </trkpt>
      <trkpt lat="43.78848" lon="1.63879">
        <ele>193</ele>
        <time>2017-04-16T08:08:43Z</time>
      </trkpt>
      <trkpt lat="43.78852" lon="1.63866">
        <ele>192</ele>
        <time>2017-04-16T08:08:48Z</time>
      </trkpt>
      <trkpt lat="43.78859" lon="1.63849">
        <ele>191</ele>
        <time>2017-04-16T08:08:52Z</time>
      </trkpt>
      <trkpt lat="43.78871" lon="1.63842">
        <ele>189</ele>
        <time>2017-04-16T08:08:55Z</time>
      </trkpt>
      <trkpt lat="43.78875" lon="1.63828">
        <ele>183</ele>
        <time>2017-04-16T08:08:58Z</time>
      </trkpt>
      <trkpt lat="43.78878" lon="1.63809">
        <ele>182</ele>
        <time>2017-04-16T08:09:02Z</time>
      </trkpt>
      <trkpt lat="43.78877" lon="1.63798">
        <ele>182</ele>
        <time>2017-04-16T08:09:04Z</time>
      </trkpt>
      <trkpt lat="43.78876" lon="1.63787">
        <ele>182</ele>
        <time>2017-04-16T08:09:06Z</time>
      </trkpt>
      <trkpt lat="43.78876" lon="1.63771">
        <ele>181</ele>
        <time>2017-04-16T08:09:10Z</time>
      </trkpt>
      <trkpt lat="43.78876" lon="1.6376">
        <ele>181</ele>
        <time>2017-04-16T08:09:13Z</time>
      </trkpt>
      <trkpt lat="43.78873" lon="1.63739">
        <ele>177</ele>
        <time>2017-04-16T08:09:20Z</time>
      </trkpt>
      <trkpt lat="43.78872" lon="1.63726">
        <ele>177</ele>
        <time>2017-04-16T08:09:25Z</time>
      </trkpt>
      <trkpt lat="43.78869" lon="1.63706">
        <ele>177</ele>
        <time>2017-04-16T08:09:31Z</time>
      </trkpt>
      <trkpt lat="43.78867" lon="1.63686">
        <ele>176</ele>
        <time>2017-04-16T08:09:36Z</time>
      </trkpt>
      <trkpt lat="43.78864" lon="1.63677">
        <ele>177</ele>
        <time>2017-04-16T08:09:38Z</time>
      </trkpt>
      <trkpt lat="43.78847" lon="1.63643">
        <ele>173</ele>
        <time>2017-04-16T08:09:47Z</time>
      </trkpt>
      <trkpt lat="43.78829" lon="1.63625">
        <ele>180</ele>
        <time>2017-04-16T08:09:58Z</time>
      </trkpt>
      <trkpt lat="43.78817" lon="1.63613">
        <ele>179</ele>
        <time>2017-04-16T08:10:07Z</time>
      </trkpt>
      <trkpt lat="43.78813" lon="1.63608">
        <ele>179</ele>
        <time>2017-04-16T08:10:11Z</time>
      </trkpt>
      <trkpt lat="43.78806" lon="1.63604">
        <ele>179</ele>
        <time>2017-04-16T08:10:15Z</time>
      </trkpt>
      <trkpt lat="43.78801" lon="1.63596">
        <ele>179</ele>
        <time>2017-04-16T08:10:20Z</time>
      </trkpt>
      <trkpt lat="43.78785" lon="1.63564">
        <ele>172</ele>
        <time>2017-04-16T08:10:35Z</time>
      </trkpt>
      <trkpt lat="43.78771" lon="1.63555">
        <ele>172</ele>
        <time>2017-04-16T08:10:45Z</time>
      </trkpt>
      <trkpt lat="43.78768" lon="1.6355">
        <ele>172</ele>
        <time>2017-04-16T08:10:48Z</time>
      </trkpt>
      <trkpt lat="43.78767" lon="1.63546">
        <ele>171</ele>
        <time>2017-04-16T08:10:49Z</time>
      </trkpt>
      <trkpt lat="43.78766" lon="1.63543">
        <ele>171</ele>
        <time>2017-04-16T08:10:50Z</time>
      </trkpt>
      <trkpt lat="43.78765" lon="1.63541">
        <ele>171</ele>
        <time>2017-04-16T08:10:51Z</time>
      </trkpt>
      <trkpt lat="43.78764" lon="1.63538">
        <ele>171</ele>
        <time>2017-04-16T08:10:52Z</time>
      </trkpt>
      <trkpt lat="43.78764" lon="1.63535">
        <ele>170</ele>
        <time>2017-04-16T08:10:53Z</time>
      </trkpt>
      <trkpt lat="43.78764" lon="1.63532">
        <ele>170</ele>
        <time>2017-04-16T08:10:54Z</time>
      </trkpt>
      <trkpt lat="43.78765" lon="1.63528">
        <ele>170</ele>
        <time>2017-04-16T08:10:55Z</time>
      </trkpt>
      <trkpt lat="43.78766" lon="1.63524">
        <ele>169</ele>
        <time>2017-04-16T08:10:56Z</time>
      </trkpt>
      <trkpt lat="43.78768" lon="1.63521">
        <ele>169</ele>
        <time>2017-04-16T08:10:57Z</time>
      </trkpt>
      <trkpt lat="43.78771" lon="1.63518">
        <ele>169</ele>
        <time>2017-04-16T08:10:58Z</time>
      </trkpt>
      <trkpt lat="43.78775" lon="1.63516">
        <ele>169</ele>
        <time>2017-04-16T08:10:59Z</time>
      </trkpt>
      <trkpt lat="43.78779" lon="1.63516">
        <ele>169</ele>
        <time>2017-04-16T08:11:00Z</time>
      </trkpt>
      <trkpt lat="43.78783" lon="1.63517">
        <ele>169</ele>
        <time>2017-04-16T08:11:01Z</time>
      </trkpt>
      <trkpt lat="43.78785" lon="1.63518">
        <ele>169</ele>
        <time>2017-04-16T08:11:02Z</time>
      </trkpt>
      <trkpt lat="43.78784" lon="1.63514">
        <ele>168</ele>
        <time>2017-04-16T08:11:11Z</time>
      </trkpt>
      <trkpt lat="43.78784" lon="1.63512">
        <ele>168</ele>
        <time>2017-04-16T08:11:13Z</time>
      </trkpt>
      <trkpt lat="43.78784" lon="1.63507">
        <ele>168</ele>
        <time>2017-04-16T08:11:15Z</time>
      </trkpt>
      <trkpt lat="43.78783" lon="1.63491">
        <ele>161</ele>
        <time>2017-04-16T08:11:19Z</time>
      </trkpt>
      <trkpt lat="43.78779" lon="1.63483">
        <ele>160</ele>
        <time>2017-04-16T08:11:22Z</time>
      </trkpt>
      <trkpt lat="43.78782" lon="1.63457">
        <ele>158</ele>
        <time>2017-04-16T08:11:30Z</time>
      </trkpt>
      <trkpt lat="43.78784" lon="1.63455">
        <ele>158</ele>
        <time>2017-04-16T08:11:31Z</time>
      </trkpt>
      <trkpt lat="43.7879" lon="1.63453">
        <ele>158</ele>
        <time>2017-04-16T08:11:34Z</time>
      </trkpt>
      <trkpt lat="43.78799" lon="1.63442">
        <ele>158</ele>
        <time>2017-04-16T08:11:40Z</time>
      </trkpt>
      <trkpt lat="43.78806" lon="1.63449">
        <ele>158</ele>
        <time>2017-04-16T08:11:45Z</time>
      </trkpt>
      <trkpt lat="43.78812" lon="1.63443">
        <ele>158</ele>
        <time>2017-04-16T08:11:49Z</time>
      </trkpt>
      <trkpt lat="43.78817" lon="1.63437">
        <ele>157</ele>
        <time>2017-04-16T08:11:52Z</time>
      </trkpt>
      <trkpt lat="43.78822" lon="1.63424">
        <ele>157</ele>
        <time>2017-04-16T08:11:56Z</time>
      </trkpt>
      <trkpt lat="43.78835" lon="1.634">
        <ele>151</ele>
        <time>2017-04-16T08:12:01Z</time>
      </trkpt>
      <trkpt lat="43.78837" lon="1.63396">
        <ele>151</ele>
        <time>2017-04-16T08:12:02Z</time>
      </trkpt>
      <trkpt lat="43.7884" lon="1.63384">
        <ele>149</ele>
        <time>2017-04-16T08:12:05Z</time>
      </trkpt>
      <trkpt lat="43.78841" lon="1.63379">
        <ele>148</ele>
        <time>2017-04-16T08:12:07Z</time>
      </trkpt>
      <trkpt lat="43.78838" lon="1.63328">
        <ele>143</ele>
        <time>2017-04-16T08:12:20Z</time>
      </trkpt>
      <trkpt lat="43.78839" lon="1.63322">
        <ele>142</ele>
        <time>2017-04-16T08:12:22Z</time>
      </trkpt>
      <trkpt lat="43.78841" lon="1.63323">
        <ele>142</ele>
        <time>2017-04-16T08:12:25Z</time>
      </trkpt>
      <trkpt lat="43.7885" lon="1.63323">
        <ele>141</ele>
        <time>2017-04-16T08:12:33Z</time>
      </trkpt>
      <trkpt lat="43.78859" lon="1.63322">
        <ele>140</ele>
        <time>2017-04-16T08:12:38Z</time>
      </trkpt>
      <trkpt lat="43.7886" lon="1.63322">
        <ele>140</ele>
        <time>2017-04-16T08:12:39Z</time>
      </trkpt>
      <trkpt lat="43.78861" lon="1.63321">
        <ele>140</ele>
        <time>2017-04-16T08:12:42Z</time>
      </trkpt>
      <trkpt lat="43.78867" lon="1.63313">
        <ele>139</ele>
        <time>2017-04-16T08:12:48Z</time>
      </trkpt>
      <trkpt lat="43.78869" lon="1.63315">
        <ele>139</ele>
        <time>2017-04-16T08:12:55Z</time>
      </trkpt>
      <trkpt lat="43.78871" lon="1.6332">
        <ele>139</ele>
        <time>2017-04-16T08:12:57Z</time>
      </trkpt>
      <trkpt lat="43.78877" lon="1.63341">
        <ele>145</ele>
        <time>2017-04-16T08:12:58Z</time>
      </trkpt>
      <trkpt lat="43.7888" lon="1.63365">
        <ele>146</ele>
      </trkpt>
      <trkpt lat="43.78882" lon="1.63401">
        <ele>147</ele>
      </trkpt>
      <trkpt lat="43.78883" lon="1.63442">
        <ele>153</ele>
      </trkpt>
      <trkpt lat="43.78887" lon="1.63479">
        <ele>154</ele>
      </trkpt>
      <trkpt lat="43.78901" lon="1.6354">
        <ele>159</ele>
      </trkpt>
      <trkpt lat="43.78917" lon="1.63588">
        <ele>158</ele>
      </trkpt>
      <trkpt lat="43.78933" lon="1.63636">
        <ele>164</ele>
      </trkpt>
      <trkpt lat="43.78936" lon="1.63685">
        <ele>167</ele>
      </trkpt>
      <trkpt lat="43.78941" lon="1.63713">
        <ele>168</ele>
      </trkpt>
      <trkpt lat="43.78941" lon="1.63744">
        <ele>168</ele>
      </trkpt>
      <trkpt lat="43.78935" lon="1.63752">
        <ele>170</ele>
      </trkpt>
      <trkpt lat="43.78945" lon="1.63774">
        <ele>172</ele>
      </trkpt>
      <trkpt lat="43.78961" lon="1.63809">
        <ele>173</ele>
      </trkpt>
      <trkpt lat="43.78987" lon="1.6383">
        <ele>173</ele>
      </trkpt>
      <trkpt lat="43.79015" lon="1.63848">
        <ele>180</ele>
      </trkpt>
      <trkpt lat="43.7905" lon="1.63857">
        <ele>184</ele>
      </trkpt>
      <trkpt lat="43.79096" lon="1.63859">
        <ele>193</ele>
      </trkpt>
      <trkpt lat="43.79134" lon="1.63863">
        <ele>196</ele>
      </trkpt>
      <trkpt lat="43.79177" lon="1.63875">
        <ele>205</ele>
      </trkpt>
      <trkpt lat="43.79206" lon="1.63888">
        <ele>206</ele>
      </trkpt>
      <trkpt lat="43.7925" lon="1.63929">
        <ele>209</ele>
      </trkpt>
      <trkpt lat="43.79295" lon="1.63951">
        <ele>213</ele>
      </trkpt>
      <trkpt lat="43.79324" lon="1.63964">
        <ele>213</ele>
      </trkpt>
      <trkpt lat="43.79375" lon="1.64022">
        <ele>221</ele>
      </trkpt>
      <trkpt lat="43.7941" lon="1.64093">
        <ele>228</ele>
      </trkpt>
      <trkpt lat="43.7944" lon="1.64163">
        <ele>237</ele>
      </trkpt>
      <trkpt lat="43.79467" lon="1.64207">
        <ele>242</ele>
      </trkpt>
      <trkpt lat="43.79471" lon="1.6422">
        <ele>242</ele>
      </trkpt>
      <trkpt lat="43.79475" lon="1.64236">
        <ele>243</ele>
      </trkpt>
      <trkpt lat="43.79475" lon="1.64239">
        <ele>243</ele>
        <time>2017-04-16T08:38:36Z</time>
      </trkpt>
      <trkpt lat="43.79476" lon="1.64249">
        <ele>243</ele>
        <time>2017-04-16T08:38:48Z</time>
      </trkpt>
      <trkpt lat="43.79471" lon="1.64264">
        <ele>245</ele>
        <time>2017-04-16T08:39:05Z</time>
      </trkpt>
      <trkpt lat="43.79469" lon="1.6427">
        <ele>245</ele>
        <time>2017-04-16T08:39:13Z</time>
      </trkpt>
      <trkpt lat="43.79454" lon="1.64277">
        <ele>245</ele>
        <time>2017-04-16T08:39:25Z</time>
      </trkpt>
      <trkpt lat="43.79454" lon="1.64279">
        <ele>245</ele>
        <time>2017-04-16T08:39:37Z</time>
      </trkpt>
      <trkpt lat="43.79445" lon="1.64281">
        <ele>244</ele>
        <time>2017-04-16T08:39:50Z</time>
      </trkpt>
      <trkpt lat="43.79435" lon="1.64284">
        <ele>244</ele>
        <time>2017-04-16T08:40:03Z</time>
      </trkpt>
      <trkpt lat="43.79433" lon="1.64288">
        <ele>244</ele>
        <time>2017-04-16T08:40:06Z</time>
      </trkpt>
      <trkpt lat="43.79424" lon="1.64298">
        <ele>244</ele>
        <time>2017-04-16T08:40:19Z</time>
      </trkpt>
      <trkpt lat="43.79421" lon="1.64301">
        <ele>244</ele>
        <time>2017-04-16T08:40:58Z</time>
      </trkpt>
      <trkpt lat="43.79421" lon="1.64302">
        <ele>244</ele>
        <time>2017-04-16T08:41:03Z</time>
      </trkpt>
      <trkpt lat="43.79405" lon="1.64283">
        <ele>243</ele>
        <time>2017-04-16T08:41:16Z</time>
      </trkpt>
      <trkpt lat="43.79404" lon="1.64282">
        <ele>243</ele>
        <time>2017-04-16T08:41:17Z</time>
      </trkpt>
      <trkpt lat="43.79402" lon="1.6428">
        <ele>243</ele>
        <time>2017-04-16T08:41:18Z</time>
      </trkpt>
      <trkpt lat="43.79382" lon="1.64255">
        <ele>243</ele>
        <time>2017-04-16T08:42:18Z</time>
      </trkpt>
      <trkpt lat="43.79381" lon="1.64253">
        <ele>243</ele>
        <time>2017-04-16T08:42:19Z</time>
      </trkpt>
      <trkpt lat="43.79381" lon="1.64251">
        <ele>243</ele>
        <time>2017-04-16T08:42:20Z</time>
      </trkpt>
      <trkpt lat="43.79381" lon="1.64241">
        <ele>242</ele>
        <time>2017-04-16T08:42:23Z</time>
      </trkpt>
      <trkpt lat="43.79377" lon="1.64224">
        <ele>241</ele>
        <time>2017-04-16T08:42:29Z</time>
      </trkpt>
      <trkpt lat="43.79371" lon="1.6421">
        <ele>241</ele>
        <time>2017-04-16T08:42:33Z</time>
      </trkpt>
      <trkpt lat="43.79365" lon="1.64204">
        <ele>240</ele>
        <time>2017-04-16T08:42:35Z</time>
      </trkpt>
      <trkpt lat="43.79353" lon="1.64192">
        <ele>240</ele>
        <time>2017-04-16T08:42:39Z</time>
      </trkpt>
      <trkpt lat="43.79343" lon="1.64187">
        <ele>240</ele>
        <time>2017-04-16T08:42:45Z</time>
      </trkpt>
      <trkpt lat="43.79328" lon="1.64182">
        <ele>239</ele>
        <time>2017-04-16T08:42:51Z</time>
      </trkpt>
      <trkpt lat="43.79314" lon="1.64177">
        <ele>239</ele>
        <time>2017-04-16T08:42:54Z</time>
      </trkpt>
      <trkpt lat="43.79293" lon="1.64168">
        <ele>239</ele>
        <time>2017-04-16T08:43:01Z</time>
      </trkpt>
      <trkpt lat="43.7929" lon="1.64165">
        <ele>233</ele>
        <time>2017-04-16T08:43:03Z</time>
      </trkpt>
      <trkpt lat="43.79287" lon="1.64144">
        <ele>232</ele>
        <time>2017-04-16T08:43:10Z</time>
      </trkpt>
      <trkpt lat="43.79289" lon="1.6414">
        <ele>232</ele>
        <time>2017-04-16T08:43:11Z</time>
      </trkpt>
      <trkpt lat="43.79289" lon="1.64108">
        <ele>230</ele>
        <time>2017-04-16T08:43:18Z</time>
      </trkpt>
      <trkpt lat="43.79292" lon="1.64088">
        <ele>228</ele>
        <time>2017-04-16T08:43:24Z</time>
      </trkpt>
      <trkpt lat="43.79293" lon="1.64077">
        <ele>221</ele>
        <time>2017-04-16T08:43:28Z</time>
      </trkpt>
      <trkpt lat="43.79294" lon="1.6407">
        <ele>221</ele>
        <time>2017-04-16T08:43:30Z</time>
      </trkpt>
      <trkpt lat="43.79287" lon="1.64063">
        <ele>221</ele>
        <time>2017-04-16T08:43:34Z</time>
      </trkpt>
      <trkpt lat="43.79247" lon="1.6405">
        <ele>223</ele>
        <time>2017-04-16T08:43:46Z</time>
      </trkpt>
      <trkpt lat="43.79219" lon="1.64032">
        <ele>221</ele>
        <time>2017-04-16T08:43:55Z</time>
      </trkpt>
      <trkpt lat="43.79191" lon="1.63998">
        <ele>215</ele>
        <time>2017-04-16T08:44:04Z</time>
      </trkpt>
      <trkpt lat="43.79187" lon="1.63995">
        <ele>215</ele>
        <time>2017-04-16T08:44:05Z</time>
      </trkpt>
      <trkpt lat="43.79173" lon="1.63992">
        <ele>216</ele>
        <time>2017-04-16T08:44:08Z</time>
      </trkpt>
      <trkpt lat="43.79159" lon="1.6399">
        <ele>214</ele>
        <time>2017-04-16T08:44:11Z</time>
      </trkpt>
      <trkpt lat="43.79146" lon="1.63991">
        <ele>212</ele>
        <time>2017-04-16T08:44:15Z</time>
      </trkpt>
      <trkpt lat="43.79106" lon="1.63979">
        <ele>208</ele>
        <time>2017-04-16T08:44:25Z</time>
      </trkpt>
      <trkpt lat="43.79103" lon="1.63977">
        <ele>208</ele>
        <time>2017-04-16T08:44:26Z</time>
      </trkpt>
      <trkpt lat="43.79087" lon="1.63979">
        <ele>209</ele>
        <time>2017-04-16T08:44:30Z</time>
      </trkpt>
      <trkpt lat="43.79056" lon="1.64005">
        <ele>209</ele>
        <time>2017-04-16T08:44:40Z</time>
      </trkpt>
      <trkpt lat="43.79052" lon="1.64008">
        <ele>208</ele>
        <time>2017-04-16T08:44:41Z</time>
      </trkpt>
      <trkpt lat="43.7903" lon="1.64007">
        <ele>206</ele>
        <time>2017-04-16T08:44:45Z</time>
      </trkpt>
      <trkpt lat="43.79024" lon="1.64006">
        <ele>205</ele>
        <time>2017-04-16T08:44:46Z</time>
      </trkpt>
      <trkpt lat="43.79008" lon="1.64007">
        <ele>203</ele>
        <time>2017-04-16T08:44:51Z</time>
      </trkpt>
      <trkpt lat="43.78993" lon="1.64014">
        <ele>199</ele>
        <time>2017-04-16T08:44:59Z</time>
      </trkpt>
      <trkpt lat="43.78994" lon="1.64015">
        <ele>199</ele>
        <time>2017-04-16T08:45:00Z</time>
      </trkpt>
      <trkpt lat="43.79014" lon="1.64033">
        <ele>206</ele>
        <time>2017-04-16T08:45:16Z</time>
      </trkpt>
      <trkpt lat="43.79034" lon="1.6405">
        <ele>207</ele>
        <time>2017-04-16T08:45:32Z</time>
      </trkpt>
      <trkpt lat="43.7905" lon="1.64059">
        <ele>209</ele>
        <time>2017-04-16T08:45:44Z</time>
      </trkpt>
      <trkpt lat="43.79055" lon="1.6406">
        <ele>210</ele>
        <time>2017-04-16T08:45:47Z</time>
      </trkpt>
      <trkpt lat="43.79056" lon="1.64061">
        <ele>210</ele>
        <time>2017-04-16T08:45:48Z</time>
      </trkpt>
      <trkpt lat="43.79057" lon="1.64061">
        <ele>210</ele>
        <time>2017-04-16T08:45:49Z</time>
      </trkpt>
      <trkpt lat="43.79072" lon="1.64068">
        <ele>213</ele>
        <time>2017-04-16T08:45:59Z</time>
      </trkpt>
      <trkpt lat="43.79094" lon="1.6408">
        <ele>218</ele>
        <time>2017-04-16T08:46:13Z</time>
      </trkpt>
      <trkpt lat="43.79106" lon="1.64083">
        <ele>219</ele>
        <time>2017-04-16T08:46:21Z</time>
      </trkpt>
      <trkpt lat="43.79108" lon="1.64084">
        <ele>220</ele>
        <time>2017-04-16T08:46:22Z</time>
      </trkpt>
      <trkpt lat="43.79114" lon="1.64086">
        <ele>220</ele>
        <time>2017-04-16T08:46:26Z</time>
      </trkpt>
      <trkpt lat="43.79116" lon="1.64087">
        <ele>220</ele>
        <time>2017-04-16T08:46:27Z</time>
      </trkpt>
      <trkpt lat="43.79117" lon="1.64087">
        <ele>220</ele>
        <time>2017-04-16T08:46:28Z</time>
      </trkpt>
      <trkpt lat="43.79143" lon="1.64101">
        <ele>222</ele>
        <time>2017-04-16T08:46:43Z</time>
      </trkpt>
      <trkpt lat="43.79167" lon="1.64123">
        <ele>227</ele>
        <time>2017-04-16T08:46:59Z</time>
      </trkpt>
      <trkpt lat="43.79183" lon="1.64142">
        <ele>227</ele>
        <time>2017-04-16T08:47:13Z</time>
      </trkpt>
      <trkpt lat="43.79199" lon="1.64165">
        <ele>228</ele>
        <time>2017-04-16T08:47:29Z</time>
      </trkpt>
      <trkpt lat="43.79207" lon="1.64175">
        <ele>231</ele>
        <time>2017-04-16T08:47:37Z</time>
      </trkpt>
      <trkpt lat="43.79208" lon="1.64177">
        <ele>231</ele>
        <time>2017-04-16T08:47:38Z</time>
      </trkpt>
      <trkpt lat="43.79209" lon="1.64178">
        <ele>231</ele>
        <time>2017-04-16T08:47:39Z</time>
      </trkpt>
      <trkpt lat="43.79225" lon="1.64193">
        <ele>233</ele>
        <time>2017-04-16T08:47:52Z</time>
      </trkpt>
      <trkpt lat="43.79235" lon="1.64204">
        <ele>233</ele>
        <time>2017-04-16T08:48:02Z</time>
      </trkpt>
      <trkpt lat="43.79236" lon="1.64205">
        <ele>233</ele>
        <time>2017-04-16T08:48:03Z</time>
      </trkpt>
      <trkpt lat="43.79239" lon="1.64208">
        <ele>234</ele>
        <time>2017-04-16T08:48:05Z</time>
      </trkpt>
      <trkpt lat="43.7924" lon="1.64209">
        <ele>234</ele>
        <time>2017-04-16T08:48:06Z</time>
      </trkpt>
      <trkpt lat="43.79241" lon="1.6421">
        <ele>234</ele>
        <time>2017-04-16T08:48:07Z</time>
      </trkpt>
      <trkpt lat="43.79242" lon="1.64211">
        <ele>234</ele>
        <time>2017-04-16T08:48:08Z</time>
      </trkpt>
      <trkpt lat="43.79244" lon="1.64212">
        <ele>234</ele>
        <time>2017-04-16T08:48:09Z</time>
      </trkpt>
      <trkpt lat="43.79245" lon="1.64213">
        <ele>234</ele>
        <time>2017-04-16T08:48:10Z</time>
      </trkpt>
      <trkpt lat="43.79247" lon="1.64214">
        <ele>234</ele>
        <time>2017-04-16T08:48:11Z</time>
      </trkpt>
      <trkpt lat="43.79266" lon="1.64226">
        <ele>240</ele>
        <time>2017-04-16T08:48:26Z</time>
      </trkpt>
      <trkpt lat="43.79268" lon="1.64227">
        <ele>240</ele>
        <time>2017-04-16T08:48:28Z</time>
      </trkpt>
      <trkpt lat="43.7929" lon="1.64233">
        <ele>240</ele>
        <time>2017-04-16T08:48:44Z</time>
      </trkpt>
      <trkpt lat="43.7931" lon="1.6424">
        <ele>242</ele>
        <time>2017-04-16T08:48:57Z</time>
      </trkpt>
      <trkpt lat="43.79312" lon="1.64241">
        <ele>242</ele>
        <time>2017-04-16T08:48:58Z</time>
      </trkpt>
      <trkpt lat="43.79333" lon="1.6425">
        <ele>245</ele>
        <time>2017-04-16T08:49:12Z</time>
      </trkpt>
      <trkpt lat="43.79334" lon="1.64252">
        <ele>245</ele>
        <time>2017-04-16T08:49:13Z</time>
      </trkpt>
      <trkpt lat="43.79326" lon="1.64269">
        <ele>242</ele>
        <time>2017-04-16T08:49:24Z</time>
      </trkpt>
      <trkpt lat="43.79324" lon="1.64289">
        <ele>241</ele>
        <time>2017-04-16T08:49:30Z</time>
      </trkpt>
      <trkpt lat="43.79323" lon="1.64293">
        <ele>241</ele>
        <time>2017-04-16T08:49:31Z</time>
      </trkpt>
      <trkpt lat="43.79314" lon="1.64308">
        <ele>240</ele>
        <time>2017-04-16T08:49:36Z</time>
      </trkpt>
      <trkpt lat="43.79303" lon="1.64333">
        <ele>240</ele>
        <time>2017-04-16T08:49:43Z</time>
      </trkpt>
      <trkpt lat="43.79299" lon="1.6434">
        <ele>234</ele>
        <time>2017-04-16T08:49:48Z</time>
      </trkpt>
      <trkpt lat="43.79289" lon="1.64358">
        <ele>233</ele>
        <time>2017-04-16T08:49:55Z</time>
      </trkpt>
      <trkpt lat="43.79284" lon="1.64371">
        <ele>232</ele>
        <time>2017-04-16T08:49:58Z</time>
      </trkpt>
      <trkpt lat="43.79271" lon="1.64393">
        <ele>230</ele>
        <time>2017-04-16T08:50:04Z</time>
      </trkpt>
      <trkpt lat="43.79262" lon="1.64406">
        <ele>228</ele>
        <time>2017-04-16T08:50:07Z</time>
      </trkpt>
      <trkpt lat="43.79257" lon="1.64415">
        <ele>227</ele>
        <time>2017-04-16T08:50:09Z</time>
      </trkpt>
      <trkpt lat="43.79237" lon="1.64434">
        <ele>214</ele>
        <time>2017-04-16T08:50:16Z</time>
      </trkpt>
      <trkpt lat="43.79234" lon="1.64434">
        <ele>213</ele>
        <time>2017-04-16T08:50:17Z</time>
      </trkpt>
      <trkpt lat="43.79221" lon="1.64442">
        <ele>209</ele>
        <time>2017-04-16T08:50:22Z</time>
      </trkpt>
      <trkpt lat="43.79207" lon="1.64449">
        <ele>206</ele>
        <time>2017-04-16T08:50:26Z</time>
      </trkpt>
      <trkpt lat="43.79199" lon="1.64446">
        <ele>206</ele>
        <time>2017-04-16T08:50:29Z</time>
      </trkpt>
      <trkpt lat="43.79192" lon="1.64441">
        <ele>206</ele>
        <time>2017-04-16T08:50:32Z</time>
      </trkpt>
      <trkpt lat="43.79183" lon="1.64442">
        <ele>205</ele>
        <time>2017-04-16T08:50:35Z</time>
      </trkpt>
      <trkpt lat="43.79175" lon="1.64452">
        <ele>203</ele>
        <time>2017-04-16T08:50:38Z</time>
      </trkpt>
      <trkpt lat="43.79168" lon="1.64474">
        <ele>199</ele>
        <time>2017-04-16T08:50:42Z</time>
      </trkpt>
      <trkpt lat="43.79159" lon="1.64477">
        <ele>188</ele>
        <time>2017-04-16T08:50:46Z</time>
      </trkpt>
      <trkpt lat="43.79154" lon="1.64469">
        <ele>188</ele>
        <time>2017-04-16T08:50:49Z</time>
      </trkpt>
      <trkpt lat="43.79148" lon="1.64463">
        <ele>189</ele>
        <time>2017-04-16T08:50:51Z</time>
      </trkpt>
      <trkpt lat="43.79139" lon="1.64457">
        <ele>189</ele>
        <time>2017-04-16T08:50:53Z</time>
      </trkpt>
      <trkpt lat="43.79126" lon="1.64461">
        <ele>187</ele>
        <time>2017-04-16T08:50:57Z</time>
      </trkpt>
      <trkpt lat="43.79121" lon="1.64468">
        <ele>185</ele>
        <time>2017-04-16T08:51:00Z</time>
      </trkpt>
      <trkpt lat="43.79119" lon="1.64469">
        <ele>185</ele>
        <time>2017-04-16T08:51:01Z</time>
      </trkpt>
      <trkpt lat="43.79102" lon="1.64467">
        <ele>183</ele>
        <time>2017-04-16T08:51:06Z</time>
      </trkpt>
      <trkpt lat="43.79099" lon="1.64465">
        <ele>183</ele>
        <time>2017-04-16T08:51:07Z</time>
      </trkpt>
      <trkpt lat="43.79086" lon="1.64458">
        <ele>183</ele>
        <time>2017-04-16T08:51:11Z</time>
      </trkpt>
      <trkpt lat="43.79074" lon="1.64452">
        <ele>174</ele>
        <time>2017-04-16T08:51:14Z</time>
      </trkpt>
      <trkpt lat="43.79053" lon="1.64436">
        <ele>174</ele>
        <time>2017-04-16T08:51:20Z</time>
      </trkpt>
      <trkpt lat="43.79044" lon="1.64421">
        <ele>173</ele>
        <time>2017-04-16T08:51:24Z</time>
      </trkpt>
      <trkpt lat="43.7902" lon="1.64397">
        <ele>177</ele>
        <time>2017-04-16T08:51:33Z</time>
      </trkpt>
      <trkpt lat="43.79012" lon="1.64391">
        <ele>177</ele>
        <time>2017-04-16T08:51:35Z</time>
      </trkpt>
      <trkpt lat="43.78995" lon="1.6438">
        <ele>168</ele>
        <time>2017-04-16T08:51:39Z</time>
      </trkpt>
      <trkpt lat="43.78991" lon="1.64376">
        <ele>169</ele>
        <time>2017-04-16T08:51:40Z</time>
      </trkpt>
      <trkpt lat="43.78975" lon="1.64364">
        <ele>169</ele>
        <time>2017-04-16T08:51:45Z</time>
      </trkpt>
      <trkpt lat="43.78954" lon="1.64353">
        <ele>168</ele>
        <time>2017-04-16T08:51:52Z</time>
      </trkpt>
      <trkpt lat="43.7895" lon="1.64349">
        <ele>167</ele>
        <time>2017-04-16T08:51:55Z</time>
      </trkpt>
      <trkpt lat="43.78928" lon="1.64328">
        <ele>169</ele>
        <time>2017-04-16T08:52:06Z</time>
      </trkpt>
      <trkpt lat="43.78914" lon="1.64321">
        <ele>163</ele>
        <time>2017-04-16T08:52:10Z</time>
      </trkpt>
      <trkpt lat="43.78911" lon="1.64321">
        <ele>163</ele>
        <time>2017-04-16T08:52:11Z</time>
      </trkpt>
      <trkpt lat="43.78893" lon="1.64308">
        <ele>162</ele>
        <time>2017-04-16T08:52:17Z</time>
      </trkpt>
      <trkpt lat="43.78883" lon="1.64299">
        <ele>162</ele>
        <time>2017-04-16T08:52:20Z</time>
      </trkpt>
      <trkpt lat="43.7888" lon="1.64295">
        <ele>162</ele>
        <time>2017-04-16T08:52:21Z</time>
      </trkpt>
      <trkpt lat="43.78863" lon="1.64289">
        <ele>161</ele>
        <time>2017-04-16T08:52:25Z</time>
      </trkpt>
      <trkpt lat="43.78857" lon="1.64289">
        <ele>160</ele>
        <time>2017-04-16T08:52:27Z</time>
      </trkpt>
      <trkpt lat="43.7885" lon="1.64289">
        <ele>160</ele>
        <time>2017-04-16T08:52:30Z</time>
      </trkpt>
      <trkpt lat="43.78846" lon="1.64291">
        <ele>160</ele>
        <time>2017-04-16T08:52:40Z</time>
      </trkpt>
      <trkpt lat="43.78851" lon="1.64297">
        <ele>160</ele>
        <time>2017-04-16T08:52:45Z</time>
      </trkpt>
      <trkpt lat="43.78859" lon="1.64308">
        <ele>160</ele>
        <time>2017-04-16T08:52:53Z</time>
      </trkpt>
      <trkpt lat="43.78881" lon="1.64339">
        <ele>163</ele>
        <time>2017-04-16T08:53:10Z</time>
      </trkpt>
      <trkpt lat="43.78898" lon="1.64365">
        <ele>163</ele>
        <time>2017-04-16T08:53:23Z</time>
      </trkpt>
      <trkpt lat="43.78916" lon="1.6439">
        <ele>163</ele>
        <time>2017-04-16T08:53:36Z</time>
      </trkpt>
      <trkpt lat="43.78935" lon="1.64413">
        <ele>163</ele>
        <time>2017-04-16T08:53:48Z</time>
      </trkpt>
      <trkpt lat="43.78962" lon="1.64429">
        <ele>165</ele>
        <time>2017-04-16T08:54:03Z</time>
      </trkpt>
      <trkpt lat="43.78991" lon="1.64447">
        <ele>166</ele>
        <time>2017-04-16T08:54:18Z</time>
      </trkpt>
      <trkpt lat="43.79017" lon="1.64476">
        <ele>169</ele>
        <time>2017-04-16T08:54:32Z</time>
      </trkpt>
      <trkpt lat="43.79043" lon="1.64501">
        <ele>170</ele>
        <time>2017-04-16T08:54:48Z</time>
      </trkpt>
      <trkpt lat="43.79072" lon="1.64528">
        <ele>170</ele>
        <time>2017-04-16T08:55:02Z</time>
      </trkpt>
      <trkpt lat="43.79107" lon="1.64565">
        <ele>173</ele>
        <time>2017-04-16T08:55:21Z</time>
      </trkpt>
      <trkpt lat="43.79127" lon="1.6459">
        <ele>176</ele>
        <time>2017-04-16T08:55:35Z</time>
      </trkpt>
      <trkpt lat="43.79152" lon="1.64604">
        <ele>176</ele>
        <time>2017-04-16T08:55:50Z</time>
      </trkpt>
      <trkpt lat="43.79187" lon="1.64624">
        <ele>179</ele>
        <time>2017-04-16T08:56:06Z</time>
      </trkpt>
      <trkpt lat="43.79189" lon="1.64625">
        <ele>179</ele>
        <time>2017-04-16T08:56:07Z</time>
      </trkpt>
      <trkpt lat="43.7919" lon="1.64627">
        <ele>179</ele>
        <time>2017-04-16T08:56:08Z</time>
      </trkpt>
      <trkpt lat="43.79192" lon="1.64629">
        <ele>179</ele>
        <time>2017-04-16T08:56:09Z</time>
      </trkpt>
      <trkpt lat="43.79217" lon="1.64657">
        <ele>180</ele>
        <time>2017-04-16T08:56:24Z</time>
      </trkpt>
      <trkpt lat="43.79234" lon="1.6468">
        <ele>183</ele>
        <time>2017-04-16T08:56:36Z</time>
      </trkpt>
      <trkpt lat="43.79256" lon="1.6471">
        <ele>188</ele>
        <time>2017-04-16T08:56:51Z</time>
      </trkpt>
      <trkpt lat="43.7928" lon="1.6474">
        <ele>189</ele>
        <time>2017-04-16T08:57:06Z</time>
      </trkpt>
      <trkpt lat="43.79304" lon="1.64771">
        <ele>192</ele>
        <time>2017-04-16T08:57:23Z</time>
      </trkpt>
      <trkpt lat="43.79323" lon="1.64804">
        <ele>192</ele>
        <time>2017-04-16T08:57:39Z</time>
      </trkpt>
      <trkpt lat="43.79344" lon="1.6483">
        <ele>195</ele>
        <time>2017-04-16T08:57:54Z</time>
      </trkpt>
      <trkpt lat="43.79363" lon="1.64845">
        <ele>200</ele>
        <time>2017-04-16T08:58:08Z</time>
      </trkpt>
      <trkpt lat="43.79368" lon="1.6485">
        <ele>201</ele>
        <time>2017-04-16T08:58:12Z</time>
      </trkpt>
      <trkpt lat="43.79369" lon="1.64851">
        <ele>201</ele>
        <time>2017-04-16T08:58:13Z</time>
      </trkpt>
      <trkpt lat="43.79387" lon="1.64865">
        <ele>202</ele>
        <time>2017-04-16T08:58:27Z</time>
      </trkpt>
      <trkpt lat="43.79394" lon="1.64871">
        <ele>203</ele>
        <time>2017-04-16T08:58:33Z</time>
      </trkpt>
      <trkpt lat="43.79403" lon="1.64882">
        <ele>203</ele>
        <time>2017-04-16T08:58:43Z</time>
      </trkpt>
      <trkpt lat="43.79404" lon="1.64884">
        <ele>204</ele>
        <time>2017-04-16T08:58:44Z</time>
      </trkpt>
      <trkpt lat="43.79406" lon="1.64887">
        <ele>204</ele>
        <time>2017-04-16T08:58:45Z</time>
      </trkpt>
      <trkpt lat="43.79407" lon="1.64889">
        <ele>204</ele>
        <time>2017-04-16T08:58:46Z</time>
      </trkpt>
      <trkpt lat="43.79408" lon="1.64891">
        <ele>204</ele>
        <time>2017-04-16T08:58:47Z</time>
      </trkpt>
      <trkpt lat="43.7941" lon="1.64893">
        <ele>204</ele>
        <time>2017-04-16T08:58:48Z</time>
      </trkpt>
      <trkpt lat="43.79411" lon="1.64894">
        <ele>204</ele>
        <time>2017-04-16T08:58:49Z</time>
      </trkpt>
      <trkpt lat="43.79412" lon="1.64895">
        <ele>204</ele>
        <time>2017-04-16T08:58:50Z</time>
      </trkpt>
      <trkpt lat="43.79412" lon="1.64897">
        <ele>204</ele>
        <time>2017-04-16T08:58:51Z</time>
      </trkpt>
      <trkpt lat="43.79414" lon="1.64899">
        <ele>204</ele>
        <time>2017-04-16T08:58:52Z</time>
      </trkpt>
      <trkpt lat="43.79422" lon="1.64922">
        <ele>209</ele>
        <time>2017-04-16T08:59:06Z</time>
      </trkpt>
      <trkpt lat="43.79427" lon="1.6495">
        <ele>213</ele>
        <time>2017-04-16T08:59:18Z</time>
      </trkpt>
      <trkpt lat="43.79434" lon="1.64985">
        <ele>214</ele>
        <time>2017-04-16T08:59:33Z</time>
      </trkpt>
      <trkpt lat="43.79441" lon="1.65005">
        <ele>216</ele>
        <time>2017-04-16T08:59:48Z</time>
      </trkpt>
      <trkpt lat="43.7944" lon="1.6502">
        <ele>217</ele>
        <time>2017-04-16T09:00:26Z</time>
      </trkpt>
      <trkpt lat="43.79436" lon="1.65034">
        <ele>218</ele>
        <time>2017-04-16T09:00:37Z</time>
      </trkpt>
      <trkpt lat="43.79427" lon="1.6508">
        <ele>221</ele>
        <time>2017-04-16T09:00:40Z</time>
      </trkpt>
      <trkpt lat="43.7942" lon="1.65121">
        <ele>225</ele>
        <time>2017-04-16T09:09:23Z</time>
      </trkpt>
      <trkpt lat="43.79408" lon="1.65136">
        <ele>229</ele>
        <time>2017-04-16T09:09:28Z</time>
      </trkpt>
      <trkpt lat="43.79393" lon="1.6515">
        <ele>230</ele>
        <time>2017-04-16T09:09:30Z</time>
      </trkpt>
      <trkpt lat="43.79384" lon="1.65157">
        <ele>230</ele>
        <time>2017-04-16T09:09:32Z</time>
      </trkpt>
      <trkpt lat="43.79376" lon="1.65163">
        <ele>231</ele>
        <time>2017-04-16T09:09:37Z</time>
      </trkpt>
      <trkpt lat="43.7937" lon="1.65167">
        <ele>235</ele>
        <time>2017-04-16T09:09:40Z</time>
      </trkpt>
      <trkpt lat="43.79364" lon="1.6517">
        <ele>235</ele>
        <time>2017-04-16T09:09:42Z</time>
      </trkpt>
      <trkpt lat="43.79354" lon="1.6518">
        <ele>236</ele>
        <time>2017-04-16T09:09:53Z</time>
      </trkpt>
      <trkpt lat="43.7935" lon="1.6518">
        <ele>236</ele>
        <time>2017-04-16T09:09:58Z</time>
      </trkpt>
      <trkpt lat="43.79334" lon="1.65175">
        <ele>237</ele>
        <time>2017-04-16T09:10:14Z</time>
      </trkpt>
      <trkpt lat="43.7932" lon="1.65171">
        <ele>240</ele>
        <time>2017-04-16T09:10:29Z</time>
      </trkpt>
      <trkpt lat="43.79306" lon="1.65171">
        <ele>242</ele>
        <time>2017-04-16T09:10:44Z</time>
      </trkpt>
      <trkpt lat="43.79293" lon="1.65176">
        <ele>243</ele>
        <time>2017-04-16T09:10:59Z</time>
      </trkpt>
      <trkpt lat="43.79285" lon="1.65179">
        <ele>243</ele>
        <time>2017-04-16T09:11:12Z</time>
      </trkpt>
      <trkpt lat="43.79268" lon="1.65184">
        <ele>244</ele>
        <time>2017-04-16T09:11:26Z</time>
      </trkpt>
      <trkpt lat="43.79255" lon="1.65196">
        <ele>244</ele>
        <time>2017-04-16T09:11:40Z</time>
      </trkpt>
      <trkpt lat="43.79248" lon="1.65195">
        <ele>248</ele>
        <time>2017-04-16T09:11:48Z</time>
      </trkpt>
      <trkpt lat="43.79229" lon="1.65191">
        <ele>248</ele>
        <time>2017-04-16T09:12:05Z</time>
      </trkpt>
      <trkpt lat="43.79207" lon="1.65185">
        <ele>249</ele>
        <time>2017-04-16T09:12:19Z</time>
      </trkpt>
      <trkpt lat="43.79196" lon="1.65179">
        <ele>249</ele>
        <time>2017-04-16T09:12:27Z</time>
      </trkpt>
      <trkpt lat="43.79182" lon="1.65173">
        <ele>248</ele>
        <time>2017-04-16T09:12:33Z</time>
      </trkpt>
      <trkpt lat="43.79169" lon="1.65174">
        <ele>248</ele>
        <time>2017-04-16T09:12:36Z</time>
      </trkpt>
      <trkpt lat="43.7915" lon="1.65168">
        <ele>248</ele>
        <time>2017-04-16T09:12:41Z</time>
      </trkpt>
      <trkpt lat="43.79119" lon="1.65154">
        <ele>241</ele>
        <time>2017-04-16T09:12:53Z</time>
      </trkpt>
      <trkpt lat="43.79109" lon="1.6515">
        <ele>241</ele>
        <time>2017-04-16T09:12:57Z</time>
      </trkpt>
      <trkpt lat="43.791" lon="1.65136">
        <ele>240</ele>
        <time>2017-04-16T09:13:02Z</time>
      </trkpt>
      <trkpt lat="43.79097" lon="1.65132">
        <ele>240</ele>
        <time>2017-04-16T09:13:04Z</time>
      </trkpt>
      <trkpt lat="43.79093" lon="1.65118">
        <ele>239</ele>
        <time>2017-04-16T09:13:08Z</time>
      </trkpt>
      <trkpt lat="43.79087" lon="1.65105">
        <ele>237</ele>
        <time>2017-04-16T09:13:11Z</time>
      </trkpt>
      <trkpt lat="43.79084" lon="1.65085">
        <ele>235</ele>
        <time>2017-04-16T09:13:14Z</time>
      </trkpt>
      <trkpt lat="43.79083" lon="1.65079">
        <ele>234</ele>
        <time>2017-04-16T09:13:15Z</time>
      </trkpt>
      <trkpt lat="43.79083" lon="1.65067">
        <ele>231</ele>
        <time>2017-04-16T09:13:17Z</time>
      </trkpt>
      <trkpt lat="43.79081" lon="1.65044">
        <ele>229</ele>
        <time>2017-04-16T09:13:20Z</time>
      </trkpt>
      <trkpt lat="43.79066" lon="1.65027">
        <ele>227</ele>
        <time>2017-04-16T09:13:26Z</time>
      </trkpt>
      <trkpt lat="43.79043" lon="1.6501">
        <ele>227</ele>
        <time>2017-04-16T09:13:32Z</time>
      </trkpt>
      <trkpt lat="43.79034" lon="1.64991">
        <ele>223</ele>
        <time>2017-04-16T09:13:38Z</time>
      </trkpt>
      <trkpt lat="43.7903" lon="1.64976">
        <ele>222</ele>
        <time>2017-04-16T09:13:41Z</time>
      </trkpt>
      <trkpt lat="43.79018" lon="1.64966">
        <ele>222</ele>
        <time>2017-04-16T09:13:45Z</time>
      </trkpt>
      <trkpt lat="43.79007" lon="1.64947">
        <ele>221</ele>
        <time>2017-04-16T09:13:52Z</time>
      </trkpt>
      <trkpt lat="43.78995" lon="1.64939">
        <ele>219</ele>
        <time>2017-04-16T09:13:57Z</time>
      </trkpt>
      <trkpt lat="43.7899" lon="1.64939">
        <ele>219</ele>
        <time>2017-04-16T09:13:59Z</time>
      </trkpt>
      <trkpt lat="43.78985" lon="1.64936">
        <ele>219</ele>
        <time>2017-04-16T09:14:02Z</time>
      </trkpt>
      <trkpt lat="43.78981" lon="1.6493">
        <ele>219</ele>
        <time>2017-04-16T09:14:05Z</time>
      </trkpt>
      <trkpt lat="43.78974" lon="1.64924">
        <ele>219</ele>
        <time>2017-04-16T09:14:08Z</time>
      </trkpt>
      <trkpt lat="43.78957" lon="1.64915">
        <ele>218</ele>
        <time>2017-04-16T09:14:17Z</time>
      </trkpt>
      <trkpt lat="43.7895" lon="1.64909">
        <ele>218</ele>
        <time>2017-04-16T09:14:21Z</time>
      </trkpt>
      <trkpt lat="43.7894" lon="1.64898">
        <ele>218</ele>
        <time>2017-04-16T09:14:25Z</time>
      </trkpt>
      <trkpt lat="43.78929" lon="1.64878">
        <ele>218</ele>
        <time>2017-04-16T09:14:32Z</time>
      </trkpt>
      <trkpt lat="43.78926" lon="1.64869">
        <ele>218</ele>
        <time>2017-04-16T09:14:35Z</time>
      </trkpt>
      <trkpt lat="43.78919" lon="1.64858">
        <ele>218</ele>
        <time>2017-04-16T09:14:40Z</time>
      </trkpt>
      <trkpt lat="43.78916" lon="1.64849">
        <ele>219</ele>
        <time>2017-04-16T09:14:43Z</time>
      </trkpt>
      <trkpt lat="43.78909" lon="1.64826">
        <ele>218</ele>
        <time>2017-04-16T09:14:51Z</time>
      </trkpt>
      <trkpt lat="43.78903" lon="1.64819">
        <ele>217</ele>
        <time>2017-04-16T09:14:54Z</time>
      </trkpt>
      <trkpt lat="43.78885" lon="1.64824">
        <ele>217</ele>
        <time>2017-04-16T09:15:01Z</time>
      </trkpt>
      <trkpt lat="43.78878" lon="1.64826">
        <ele>217</ele>
        <time>2017-04-16T09:15:05Z</time>
      </trkpt>
      <trkpt lat="43.78873" lon="1.64825">
        <ele>218</ele>
        <time>2017-04-16T09:15:08Z</time>
      </trkpt>
      <trkpt lat="43.78859" lon="1.64823">
        <ele>218</ele>
        <time>2017-04-16T09:15:15Z</time>
      </trkpt>
      <trkpt lat="43.78859" lon="1.64824">
        <ele>218</ele>
        <time>2017-04-16T09:15:26Z</time>
      </trkpt>
      <trkpt lat="43.78845" lon="1.64827">
        <ele>219</ele>
        <time>2017-04-16T09:15:31Z</time>
      </trkpt>
      <trkpt lat="43.78815" lon="1.64817">
        <ele>215</ele>
        <time>2017-04-16T09:15:36Z</time>
      </trkpt>
      <trkpt lat="43.78803" lon="1.64802">
        <ele>214</ele>
        <time>2017-04-16T09:15:38Z</time>
      </trkpt>
      <trkpt lat="43.78793" lon="1.64786">
        <ele>213</ele>
        <time>2017-04-16T09:15:40Z</time>
      </trkpt>
      <trkpt lat="43.78783" lon="1.64771">
        <ele>212</ele>
        <time>2017-04-16T09:15:42Z</time>
      </trkpt>
      <trkpt lat="43.7877" lon="1.64755">
        <ele>211</ele>
        <time>2017-04-16T09:15:44Z</time>
      </trkpt>
      <trkpt lat="43.78758" lon="1.64738">
        <ele>209</ele>
        <time>2017-04-16T09:15:46Z</time>
      </trkpt>
      <trkpt lat="43.78752" lon="1.64732">
        <ele>209</ele>
        <time>2017-04-16T09:15:47Z</time>
      </trkpt>
      <trkpt lat="43.78746" lon="1.64729">
        <ele>206</ele>
        <time>2017-04-16T09:15:48Z</time>
      </trkpt>
      <trkpt lat="43.78741" lon="1.64728">
        <ele>206</ele>
        <time>2017-04-16T09:15:49Z</time>
      </trkpt>
      <trkpt lat="43.78735" lon="1.64729">
        <ele>206</ele>
        <time>2017-04-16T09:15:50Z</time>
      </trkpt>
      <trkpt lat="43.7873" lon="1.6473">
        <ele>206</ele>
        <time>2017-04-16T09:15:51Z</time>
      </trkpt>
      <trkpt lat="43.78724" lon="1.64734">
        <ele>206</ele>
        <time>2017-04-16T09:15:52Z</time>
      </trkpt>
      <trkpt lat="43.78718" lon="1.64738">
        <ele>205</ele>
        <time>2017-04-16T09:15:53Z</time>
      </trkpt>
      <trkpt lat="43.78713" lon="1.64742">
        <ele>205</ele>
        <time>2017-04-16T09:15:54Z</time>
      </trkpt>
      <trkpt lat="43.78705" lon="1.64743">
        <ele>205</ele>
        <time>2017-04-16T09:15:56Z</time>
      </trkpt>
      <trkpt lat="43.78703" lon="1.6474">
        <ele>205</ele>
        <time>2017-04-16T09:15:57Z</time>
      </trkpt>
      <trkpt lat="43.78701" lon="1.64736">
        <ele>204</ele>
        <time>2017-04-16T09:15:58Z</time>
      </trkpt>
      <trkpt lat="43.787" lon="1.64732">
        <ele>204</ele>
        <time>2017-04-16T09:15:59Z</time>
      </trkpt>
      <trkpt lat="43.78699" lon="1.64728">
        <ele>204</ele>
        <time>2017-04-16T09:16:00Z</time>
      </trkpt>
      <trkpt lat="43.7869" lon="1.64693">
        <ele>203</ele>
        <time>2017-04-16T09:16:06Z</time>
      </trkpt>
      <trkpt lat="43.78688" lon="1.64677">
        <ele>203</ele>
        <time>2017-04-16T09:16:08Z</time>
      </trkpt>
      <trkpt lat="43.78688" lon="1.64668">
        <ele>202</ele>
        <time>2017-04-16T09:16:09Z</time>
      </trkpt>
      <trkpt lat="43.78687" lon="1.64661">
        <ele>200</ele>
        <time>2017-04-16T09:16:10Z</time>
      </trkpt>
      <trkpt lat="43.78685" lon="1.64654">
        <ele>200</ele>
        <time>2017-04-16T09:16:11Z</time>
      </trkpt>
      <trkpt lat="43.78683" lon="1.64647">
        <ele>200</ele>
        <time>2017-04-16T09:16:12Z</time>
      </trkpt>
      <trkpt lat="43.78681" lon="1.6464">
        <ele>200</ele>
        <time>2017-04-16T09:16:13Z</time>
      </trkpt>
      <trkpt lat="43.78679" lon="1.64635">
        <ele>199</ele>
        <time>2017-04-16T09:16:14Z</time>
      </trkpt>
      <trkpt lat="43.78676" lon="1.64632">
        <ele>199</ele>
        <time>2017-04-16T09:16:15Z</time>
      </trkpt>
      <trkpt lat="43.78674" lon="1.64629">
        <ele>199</ele>
        <time>2017-04-16T09:16:16Z</time>
      </trkpt>
      <trkpt lat="43.78672" lon="1.64628">
        <ele>199</ele>
        <time>2017-04-16T09:16:17Z</time>
      </trkpt>
      <trkpt lat="43.78669" lon="1.64628">
        <ele>199</ele>
        <time>2017-04-16T09:16:18Z</time>
      </trkpt>
      <trkpt lat="43.78666" lon="1.64629">
        <ele>192</ele>
        <time>2017-04-16T09:16:19Z</time>
      </trkpt>
      <trkpt lat="43.78664" lon="1.64631">
        <ele>192</ele>
        <time>2017-04-16T09:16:20Z</time>
      </trkpt>
      <trkpt lat="43.7866" lon="1.64633">
        <ele>192</ele>
        <time>2017-04-16T09:16:21Z</time>
      </trkpt>
      <trkpt lat="43.78657" lon="1.64636">
        <ele>192</ele>
        <time>2017-04-16T09:16:22Z</time>
      </trkpt>
      <trkpt lat="43.78646" lon="1.64649">
        <ele>193</ele>
        <time>2017-04-16T09:16:25Z</time>
      </trkpt>
      <trkpt lat="43.78639" lon="1.64664">
        <ele>193</ele>
        <time>2017-04-16T09:16:29Z</time>
      </trkpt>
      <trkpt lat="43.78636" lon="1.64669">
        <ele>196</ele>
        <time>2017-04-16T09:16:31Z</time>
      </trkpt>
      <trkpt lat="43.78603" lon="1.64684">
        <ele>193</ele>
        <time>2017-04-16T09:16:42Z</time>
      </trkpt>
      <trkpt lat="43.78585" lon="1.64694">
        <ele>193</ele>
        <time>2017-04-16T09:16:48Z</time>
      </trkpt>
      <trkpt lat="43.78583" lon="1.64696">
        <ele>179</ele>
        <time>2017-04-16T09:16:49Z</time>
      </trkpt>
      <trkpt lat="43.78582" lon="1.64698">
        <ele>179</ele>
        <time>2017-04-16T09:16:50Z</time>
      </trkpt>
      <trkpt lat="43.78582" lon="1.647">
        <ele>179</ele>
        <time>2017-04-16T09:16:51Z</time>
      </trkpt>
      <trkpt lat="43.7858" lon="1.64703">
        <ele>179</ele>
        <time>2017-04-16T09:16:52Z</time>
      </trkpt>
      <trkpt lat="43.78579" lon="1.64705">
        <ele>179</ele>
        <time>2017-04-16T09:16:53Z</time>
      </trkpt>
      <trkpt lat="43.78578" lon="1.64708">
        <ele>178</ele>
        <time>2017-04-16T09:16:54Z</time>
      </trkpt>
      <trkpt lat="43.78576" lon="1.64711">
        <ele>178</ele>
        <time>2017-04-16T09:16:55Z</time>
      </trkpt>
      <trkpt lat="43.78573" lon="1.64718">
        <ele>178</ele>
        <time>2017-04-16T09:16:58Z</time>
      </trkpt>
      <trkpt lat="43.7857" lon="1.64719">
        <ele>178</ele>
        <time>2017-04-16T09:17:12Z</time>
      </trkpt>
      <trkpt lat="43.7857" lon="1.6472">
        <ele>178</ele>
        <time>2017-04-16T09:17:13Z</time>
      </trkpt>
      <trkpt lat="43.7857" lon="1.64721">
        <ele>178</ele>
        <time>2017-04-16T09:17:14Z</time>
      </trkpt>
      <trkpt lat="43.78575" lon="1.64729">
        <ele>180</ele>
        <time>2017-04-16T09:17:19Z</time>
      </trkpt>
      <trkpt lat="43.78583" lon="1.64748">
        <ele>190</ele>
        <time>2017-04-16T09:17:25Z</time>
      </trkpt>
      <trkpt lat="43.78583" lon="1.64761">
        <ele>184</ele>
        <time>2017-04-16T09:17:29Z</time>
      </trkpt>
      <trkpt lat="43.7859" lon="1.64774">
        <ele>194</ele>
        <time>2017-04-16T09:17:34Z</time>
      </trkpt>
      <trkpt lat="43.7861" lon="1.64801">
        <ele>195</ele>
        <time>2017-04-16T09:17:44Z</time>
      </trkpt>
      <trkpt lat="43.78619" lon="1.64804">
        <ele>195</ele>
        <time>2017-04-16T09:17:49Z</time>
      </trkpt>
      <trkpt lat="43.78631" lon="1.6482">
        <ele>196</ele>
        <time>2017-04-16T09:17:56Z</time>
      </trkpt>
      <trkpt lat="43.78631" lon="1.64828">
        <ele>197</ele>
        <time>2017-04-16T09:17:58Z</time>
      </trkpt>
      <trkpt lat="43.78643" lon="1.64832">
        <ele>198</ele>
        <time>2017-04-16T09:18:04Z</time>
      </trkpt>
      <trkpt lat="43.7865" lon="1.64822">
        <ele>199</ele>
        <time>2017-04-16T09:18:09Z</time>
      </trkpt>
      <trkpt lat="43.78654" lon="1.64817">
        <ele>199</ele>
        <time>2017-04-16T09:18:12Z</time>
      </trkpt>
      <trkpt lat="43.78672" lon="1.64804">
        <ele>204</ele>
        <time>2017-04-16T09:18:23Z</time>
      </trkpt>
      <trkpt lat="43.78679" lon="1.64799">
        <ele>205</ele>
        <time>2017-04-16T09:18:27Z</time>
      </trkpt>
      <trkpt lat="43.78701" lon="1.64792">
        <ele>205</ele>
        <time>2017-04-16T09:18:36Z</time>
      </trkpt>
      <trkpt lat="43.78712" lon="1.64786">
        <ele>205</ele>
        <time>2017-04-16T09:18:40Z</time>
      </trkpt>
      <trkpt lat="43.78732" lon="1.64791">
        <ele>206</ele>
        <time>2017-04-16T09:18:50Z</time>
      </trkpt>
      <trkpt lat="43.78734" lon="1.64792">
        <ele>206</ele>
        <time>2017-04-16T09:18:51Z</time>
      </trkpt>
      <trkpt lat="43.78743" lon="1.648">
        <ele>206</ele>
        <time>2017-04-16T09:18:56Z</time>
      </trkpt>
      <trkpt lat="43.78766" lon="1.64823">
        <ele>210</ele>
        <time>2017-04-16T09:19:10Z</time>
      </trkpt>
      <trkpt lat="43.78778" lon="1.64836">
        <ele>209</ele>
        <time>2017-04-16T09:19:19Z</time>
      </trkpt>
      <trkpt lat="43.78785" lon="1.64839">
        <ele>210</ele>
        <time>2017-04-16T09:19:24Z</time>
      </trkpt>
      <trkpt lat="43.78793" lon="1.6485">
        <ele>211</ele>
        <time>2017-04-16T09:19:33Z</time>
      </trkpt>
      <trkpt lat="43.78802" lon="1.64856">
        <ele>211</ele>
        <time>2017-04-16T09:19:44Z</time>
      </trkpt>
      <trkpt lat="43.78816" lon="1.64864">
        <ele>212</ele>
        <time>2017-04-16T09:19:55Z</time>
      </trkpt>
      <trkpt lat="43.7882" lon="1.64865">
        <ele>212</ele>
        <time>2017-04-16T09:19:58Z</time>
      </trkpt>
      <trkpt lat="43.78835" lon="1.6487">
        <ele>218</ele>
        <time>2017-04-16T09:20:10Z</time>
      </trkpt>
      <trkpt lat="43.78837" lon="1.6487">
        <ele>218</ele>
        <time>2017-04-16T09:20:12Z</time>
      </trkpt>
      <trkpt lat="43.78842" lon="1.64867">
        <ele>218</ele>
        <time>2017-04-16T09:20:17Z</time>
      </trkpt>
      <trkpt lat="43.78856" lon="1.64862">
        <ele>218</ele>
        <time>2017-04-16T09:20:30Z</time>
      </trkpt>
      <trkpt lat="43.78868" lon="1.64859">
        <ele>218</ele>
        <time>2017-04-16T09:20:40Z</time>
      </trkpt>
      <trkpt lat="43.78883" lon="1.64849">
        <ele>218</ele>
        <time>2017-04-16T09:20:53Z</time>
      </trkpt>
      <trkpt lat="43.78887" lon="1.64848">
        <ele>218</ele>
        <time>2017-04-16T09:20:56Z</time>
      </trkpt>
      <trkpt lat="43.78903" lon="1.64871">
        <ele>218</ele>
        <time>2017-04-16T09:21:08Z</time>
      </trkpt>
      <trkpt lat="43.78935" lon="1.64918">
        <ele>219</ele>
        <time>2017-04-16T09:21:18Z</time>
      </trkpt>
      <trkpt lat="43.78947" lon="1.64943">
        <ele>219</ele>
        <time>2017-04-16T09:21:24Z</time>
      </trkpt>
      <trkpt lat="43.7895" lon="1.64949">
        <ele>219</ele>
        <time>2017-04-16T09:21:26Z</time>
      </trkpt>
      <trkpt lat="43.78973" lon="1.64985">
        <ele>220</ele>
        <time>2017-04-16T09:21:43Z</time>
      </trkpt>
      <trkpt lat="43.78997" lon="1.65018">
        <ele>220</ele>
        <time>2017-04-16T09:21:56Z</time>
      </trkpt>
      <trkpt lat="43.79023" lon="1.65028">
        <ele>226</ele>
        <time>2017-04-16T09:22:08Z</time>
      </trkpt>
      <trkpt lat="43.79052" lon="1.65035">
        <ele>227</ele>
        <time>2017-04-16T09:22:23Z</time>
      </trkpt>
      <trkpt lat="43.79063" lon="1.65058">
        <ele>229</ele>
        <time>2017-04-16T09:22:37Z</time>
      </trkpt>
      <trkpt lat="43.79067" lon="1.65079">
        <ele>231</ele>
        <time>2017-04-16T09:22:49Z</time>
      </trkpt>
      <trkpt lat="43.79065" lon="1.6509">
        <ele>233</ele>
        <time>2017-04-16T09:22:55Z</time>
      </trkpt>
      <trkpt lat="43.79067" lon="1.65115">
        <ele>233</ele>
        <time>2017-04-16T09:23:09Z</time>
      </trkpt>
      <trkpt lat="43.79073" lon="1.65126">
        <ele>234</ele>
        <time>2017-04-16T09:23:16Z</time>
      </trkpt>
      <trkpt lat="43.79077" lon="1.65132">
        <ele>235</ele>
        <time>2017-04-16T09:23:21Z</time>
      </trkpt>
      <trkpt lat="43.79088" lon="1.65153">
        <ele>242</ele>
        <time>2017-04-16T09:23:34Z</time>
      </trkpt>
      <trkpt lat="43.79102" lon="1.65179">
        <ele>247</ele>
        <time>2017-04-16T09:23:48Z</time>
      </trkpt>
      <trkpt lat="43.79122" lon="1.65205">
        <ele>248</ele>
        <time>2017-04-16T09:24:00Z</time>
      </trkpt>
      <trkpt lat="43.7916" lon="1.65219">
        <ele>250</ele>
        <time>2017-04-16T09:24:13Z</time>
      </trkpt>
      <trkpt lat="43.79172" lon="1.65223">
        <ele>252</ele>
        <time>2017-04-16T09:24:17Z</time>
      </trkpt>
      <trkpt lat="43.79174" lon="1.65234">
        <ele>253</ele>
        <time>2017-04-16T09:24:22Z</time>
      </trkpt>
      <trkpt lat="43.7916" lon="1.65279">
        <ele>253</ele>
        <time>2017-04-16T09:24:35Z</time>
      </trkpt>
      <trkpt lat="43.79159" lon="1.653">
        <ele>253</ele>
        <time>2017-04-16T09:24:43Z</time>
      </trkpt>
      <trkpt lat="43.79164" lon="1.65312">
        <ele>253</ele>
        <time>2017-04-16T09:24:44Z</time>
      </trkpt>
      <trkpt lat="43.79186" lon="1.65335">
        <ele>252</ele>
        <time>2017-04-16T09:24:45Z</time>
      </trkpt>
      <trkpt lat="43.79186" lon="1.65354">
        <ele>251</ele>
        <time>2017-04-16T09:24:57Z</time>
      </trkpt>
      <trkpt lat="43.7918" lon="1.65378">
        <ele>248</ele>
        <time>2017-04-16T09:25:03Z</time>
      </trkpt>
      <trkpt lat="43.79187" lon="1.65414">
        <ele>244</ele>
        <time>2017-04-16T09:42:22Z</time>
      </trkpt>
      <trkpt lat="43.79188" lon="1.65416">
        <ele>245</ele>
        <time>2017-04-16T09:42:23Z</time>
      </trkpt>
      <trkpt lat="43.79205" lon="1.65441">
        <ele>242</ele>
        <time>2017-04-16T09:42:33Z</time>
      </trkpt>
      <trkpt lat="43.79214" lon="1.65495">
        <ele>241</ele>
        <time>2017-04-16T09:42:47Z</time>
      </trkpt>
      <trkpt lat="43.79221" lon="1.65514">
        <ele>237</ele>
        <time>2017-04-16T09:42:53Z</time>
      </trkpt>
      <trkpt lat="43.79225" lon="1.65523">
        <ele>237</ele>
        <time>2017-04-16T09:42:57Z</time>
      </trkpt>
      <trkpt lat="43.7923" lon="1.65538">
        <ele>236</ele>
        <time>2017-04-16T09:43:03Z</time>
      </trkpt>
      <trkpt lat="43.79243" lon="1.65558">
        <ele>236</ele>
        <time>2017-04-16T09:43:37Z</time>
      </trkpt>
      <trkpt lat="43.7925" lon="1.65571">
        <ele>237</ele>
        <time>2017-04-16T09:43:51Z</time>
      </trkpt>
      <trkpt lat="43.79254" lon="1.65579">
        <ele>241</ele>
        <time>2017-04-16T09:43:55Z</time>
      </trkpt>
      <trkpt lat="43.79262" lon="1.65597">
        <ele>239</ele>
        <time>2017-04-16T09:44:00Z</time>
      </trkpt>
      <trkpt lat="43.79277" lon="1.6562">
        <ele>239</ele>
        <time>2017-04-16T09:44:05Z</time>
      </trkpt>
      <trkpt lat="43.79293" lon="1.65649">
        <ele>239</ele>
        <time>2017-04-16T09:44:18Z</time>
      </trkpt>
      <trkpt lat="43.79303" lon="1.65672">
        <ele>236</ele>
        <time>2017-04-16T09:44:29Z</time>
      </trkpt>
      <trkpt lat="43.79304" lon="1.65679">
        <ele>236</ele>
        <time>2017-04-16T09:44:32Z</time>
      </trkpt>
      <trkpt lat="43.79305" lon="1.65684">
        <ele>236</ele>
        <time>2017-04-16T09:44:34Z</time>
      </trkpt>
      <trkpt lat="43.7931" lon="1.65703">
        <ele>236</ele>
        <time>2017-04-16T09:44:41Z</time>
      </trkpt>
      <trkpt lat="43.79313" lon="1.65713">
        <ele>236</ele>
        <time>2017-04-16T09:44:45Z</time>
      </trkpt>
      <trkpt lat="43.79322" lon="1.6573">
        <ele>237</ele>
        <time>2017-04-16T09:44:53Z</time>
      </trkpt>
      <trkpt lat="43.79329" lon="1.65764">
        <ele>237</ele>
        <time>2017-04-16T09:45:06Z</time>
      </trkpt>
      <trkpt lat="43.79333" lon="1.65792">
        <ele>235</ele>
        <time>2017-04-16T09:45:20Z</time>
      </trkpt>
      <trkpt lat="43.7933" lon="1.65795">
        <ele>235</ele>
        <time>2017-04-16T09:45:22Z</time>
      </trkpt>
      <trkpt lat="43.79328" lon="1.65799">
        <ele>235</ele>
        <time>2017-04-16T09:45:23Z</time>
      </trkpt>
      <trkpt lat="43.79373" lon="1.65781">
        <ele>244</ele>
        <time>2017-04-16T09:45:28Z</time>
      </trkpt>
      <trkpt lat="43.7941" lon="1.65795">
        <ele>244</ele>
        <time>2017-04-16T09:45:35Z</time>
      </trkpt>
      <trkpt lat="43.79418" lon="1.65857">
        <ele>235</ele>
        <time>2017-04-16T09:45:38Z</time>
      </trkpt>
      <trkpt lat="43.79435" lon="1.65888">
        <ele>233</ele>
        <time>2017-04-16T09:45:41Z</time>
      </trkpt>
      <trkpt lat="43.7948" lon="1.65918">
        <ele>221</ele>
        <time>2017-04-16T09:45:45Z</time>
      </trkpt>
      <trkpt lat="43.79478" lon="1.65948">
        <ele>223</ele>
        <time>2017-04-16T09:45:49Z</time>
      </trkpt>
      <trkpt lat="43.79486" lon="1.65962">
        <ele>222</ele>
      </trkpt>
      <trkpt lat="43.7949" lon="1.65984">
        <ele>220</ele>
      </trkpt>
      <trkpt lat="43.79477" lon="1.66005">
        <ele>219</ele>
        <time>2017-04-16T09:45:51Z</time>
      </trkpt>
      <trkpt lat="43.79491" lon="1.66034">
        <ele>218</ele>
        <time>2017-04-16T09:45:52Z</time>
      </trkpt>
      <trkpt lat="43.79499" lon="1.66038">
        <ele>217</ele>
      </trkpt>
      <trkpt lat="43.79509" lon="1.66076">
        <ele>208</ele>
        <time>2017-04-16T09:45:58Z</time>
      </trkpt>
      <trkpt lat="43.79529" lon="1.66079">
        <ele>205</ele>
        <time>2017-04-16T09:46:00Z</time>
      </trkpt>
      <trkpt lat="43.79551" lon="1.66087">
        <ele>199</ele>
      </trkpt>
      <trkpt lat="43.79562" lon="1.66099">
        <ele>198</ele>
      </trkpt>
      <trkpt lat="43.79564" lon="1.66135">
        <ele>197</ele>
        <time>2017-04-16T09:46:05Z</time>
      </trkpt>
      <trkpt lat="43.79573" lon="1.66154">
        <ele>195</ele>
        <time>2017-04-16T09:46:08Z</time>
      </trkpt>
      <trkpt lat="43.7959" lon="1.66159">
        <ele>189</ele>
        <time>2017-04-16T09:46:19Z</time>
      </trkpt>
      <trkpt lat="43.7961" lon="1.66179">
        <ele>188</ele>
        <time>2017-04-16T09:46:21Z</time>
      </trkpt>
      <trkpt lat="43.79627" lon="1.66203">
        <ele>188</ele>
        <time>2017-04-16T09:46:30Z</time>
      </trkpt>
      <trkpt lat="43.79623" lon="1.66233">
        <ele>188</ele>
        <time>2017-04-16T09:46:35Z</time>
      </trkpt>
      <trkpt lat="43.79612" lon="1.66254">
        <ele>189</ele>
        <time>2017-04-16T09:46:41Z</time>
      </trkpt>
      <trkpt lat="43.79595" lon="1.6626">
        <ele>190</ele>
        <time>2017-04-16T09:46:50Z</time>
      </trkpt>
      <trkpt lat="43.7958" lon="1.66279">
        <ele>193</ele>
        <time>2017-04-16T09:46:54Z</time>
      </trkpt>
      <trkpt lat="43.79572" lon="1.66305">
        <ele>192</ele>
        <time>2017-04-16T09:47:01Z</time>
      </trkpt>
      <trkpt lat="43.79553" lon="1.66352">
        <ele>188</ele>
        <time>2017-04-16T09:47:03Z</time>
      </trkpt>
      <trkpt lat="43.79558" lon="1.66397">
        <ele>186</ele>
        <time>2017-04-16T09:47:15Z</time>
      </trkpt>
      <trkpt lat="43.79543" lon="1.66453">
        <ele>180</ele>
        <time>2017-04-16T09:47:30Z</time>
      </trkpt>
      <trkpt lat="43.79545" lon="1.6646">
        <ele>179</ele>
      </trkpt>
      <trkpt lat="43.79541" lon="1.66504">
        <ele>174</ele>
        <time>2017-04-16T09:47:42Z</time>
      </trkpt>
      <trkpt lat="43.79531" lon="1.66515">
        <ele>173</ele>
        <time>2017-04-16T09:47:55Z</time>
      </trkpt>
      <trkpt lat="43.79533" lon="1.66554">
        <ele>172</ele>
        <time>2017-04-16T09:47:56Z</time>
      </trkpt>
      <trkpt lat="43.79524" lon="1.66579">
        <ele>172</ele>
      </trkpt>
      <trkpt lat="43.79515" lon="1.66589">
        <ele>170</ele>
      </trkpt>
      <trkpt lat="43.79498" lon="1.66592">
        <ele>170</ele>
      </trkpt>
      <trkpt lat="43.79484" lon="1.66624">
        <ele>168</ele>
      </trkpt>
      <trkpt lat="43.79481" lon="1.66637">
        <ele>168</ele>
      </trkpt>
      <trkpt lat="43.79466" lon="1.66665">
        <ele>167</ele>
      </trkpt>
      <trkpt lat="43.79403" lon="1.6678">
        <ele>152</ele>
      </trkpt>
      <trkpt lat="43.79365" lon="1.66801">
        <ele>149</ele>
      </trkpt>
      <trkpt lat="43.79346" lon="1.66799">
        <ele>148</ele>
      </trkpt>
      <trkpt lat="43.79326" lon="1.66806">
        <ele>142</ele>
      </trkpt>
      <trkpt lat="43.79322" lon="1.66818">
        <ele>141</ele>
      </trkpt>
      <trkpt lat="43.79336" lon="1.66834">
        <ele>139</ele>
      </trkpt>
      <trkpt lat="43.79408" lon="1.6681">
        <ele>150</ele>
      </trkpt>
      <trkpt lat="43.79418" lon="1.66819">
        <ele>150</ele>
      </trkpt>
      <trkpt lat="43.79431" lon="1.66819">
        <ele>151</ele>
      </trkpt>
      <trkpt lat="43.79447" lon="1.66766">
        <ele>155</ele>
      </trkpt>
      <trkpt lat="43.79463" lon="1.66756">
        <ele>155</ele>
      </trkpt>
      <trkpt lat="43.79503" lon="1.66766">
        <ele>156</ele>
      </trkpt>
      <trkpt lat="43.79541" lon="1.66762">
        <ele>156</ele>
      </trkpt>
      <trkpt lat="43.79554" lon="1.66743">
        <ele>161</ele>
      </trkpt>
      <trkpt lat="43.79565" lon="1.66733">
        <ele>161</ele>
      </trkpt>
      <trkpt lat="43.79572" lon="1.66702">
        <ele>163</ele>
      </trkpt>
      <trkpt lat="43.79576" lon="1.66677">
        <ele>164</ele>
      </trkpt>
      <trkpt lat="43.79567" lon="1.66567">
        <ele>172</ele>
      </trkpt>
      <trkpt lat="43.79584" lon="1.66454">
        <ele>176</ele>
        <time>2017-04-16T09:48:01Z</time>
      </trkpt>
      <trkpt lat="43.79576" lon="1.66405">
        <ele>185</ele>
      </trkpt>
      <trkpt lat="43.7957" lon="1.664">
        <ele>186</ele>
      </trkpt>
      <trkpt lat="43.79559" lon="1.6635">
        <ele>188</ele>
      </trkpt>
      <trkpt lat="43.79572" lon="1.66315">
        <ele>192</ele>
        <time>2017-04-16T09:48:15Z</time>
      </trkpt>
      <trkpt lat="43.79546" lon="1.66283">
        <ele>194</ele>
        <time>2017-04-16T09:48:27Z</time>
      </trkpt>
      <trkpt lat="43.79527" lon="1.66262">
        <ele>195</ele>
        <time>2017-04-16T09:48:32Z</time>
      </trkpt>
      <trkpt lat="43.7952" lon="1.66227">
        <ele>197</ele>
        <time>2017-04-16T09:48:43Z</time>
      </trkpt>
      <trkpt lat="43.79511" lon="1.66181">
        <ele>200</ele>
        <time>2017-04-16T09:48:57Z</time>
      </trkpt>
      <trkpt lat="43.79501" lon="1.66142">
        <ele>202</ele>
        <time>2017-04-16T09:49:05Z</time>
      </trkpt>
      <trkpt lat="43.79496" lon="1.6611">
        <ele>211</ele>
        <time>2017-04-16T09:49:16Z</time>
      </trkpt>
      <trkpt lat="43.79488" lon="1.66086">
        <ele>211</ele>
        <time>2017-04-16T09:49:30Z</time>
      </trkpt>
      <trkpt lat="43.79479" lon="1.66032">
        <ele>219</ele>
        <time>2017-04-16T09:49:32Z</time>
      </trkpt>
      <trkpt lat="43.79469" lon="1.66055">
        <ele>218</ele>
        <time>2017-04-16T09:49:48Z</time>
      </trkpt>
      <trkpt lat="43.79468" lon="1.66101">
        <ele>212</ele>
        <time>2017-04-16T09:49:55Z</time>
      </trkpt>
      <trkpt lat="43.79462" lon="1.66114">
        <ele>211</ele>
        <time>2017-04-16T09:50:09Z</time>
      </trkpt>
      <trkpt lat="43.79453" lon="1.66116">
        <ele>212</ele>
        <time>2017-04-16T09:50:21Z</time>
      </trkpt>
      <trkpt lat="43.79446" lon="1.66072">
        <ele>220</ele>
        <time>2017-04-16T09:50:31Z</time>
      </trkpt>
      <trkpt lat="43.79432" lon="1.66033">
        <ele>223</ele>
        <time>2017-04-16T09:50:37Z</time>
      </trkpt>
      <trkpt lat="43.79425" lon="1.66007">
        <ele>228</ele>
        <time>2017-04-16T09:50:48Z</time>
      </trkpt>
      <trkpt lat="43.79414" lon="1.65967">
        <ele>236</ele>
        <time>2017-04-16T09:51:01Z</time>
      </trkpt>
      <trkpt lat="43.79402" lon="1.65925">
        <ele>238</ele>
        <time>2017-04-16T09:51:05Z</time>
      </trkpt>
      <trkpt lat="43.7939" lon="1.65886">
        <ele>240</ele>
        <time>2017-04-16T09:51:10Z</time>
      </trkpt>
      <trkpt lat="43.79377" lon="1.65834">
        <ele>241</ele>
        <time>2017-04-16T09:51:20Z</time>
      </trkpt>
      <trkpt lat="43.7937" lon="1.65788">
        <ele>243</ele>
        <time>2017-04-16T09:51:32Z</time>
      </trkpt>
      <trkpt lat="43.79371" lon="1.65785">
        <ele>244</ele>
        <time>2017-04-16T09:51:44Z</time>
      </trkpt>
      <trkpt lat="43.79372" lon="1.65774">
        <ele>244</ele>
        <time>2017-04-16T09:51:58Z</time>
      </trkpt>
      <trkpt lat="43.79373" lon="1.65767">
        <ele>244</ele>
        <time>2017-04-16T09:52:02Z</time>
      </trkpt>
      <trkpt lat="43.79374" lon="1.65765">
        <ele>244</ele>
        <time>2017-04-16T09:52:03Z</time>
      </trkpt>
      <trkpt lat="43.79375" lon="1.65755">
        <ele>244</ele>
        <time>2017-04-16T09:52:10Z</time>
      </trkpt>
      <trkpt lat="43.79376" lon="1.65753">
        <ele>244</ele>
        <time>2017-04-16T09:52:11Z</time>
      </trkpt>
      <trkpt lat="43.79384" lon="1.65714">
        <ele>248</ele>
        <time>2017-04-16T09:52:26Z</time>
      </trkpt>
      <trkpt lat="43.79387" lon="1.65699">
        <ele>248</ele>
        <time>2017-04-16T09:52:32Z</time>
      </trkpt>
      <trkpt lat="43.79385" lon="1.65699">
        <ele>248</ele>
        <time>2017-04-16T09:52:43Z</time>
      </trkpt>
      <trkpt lat="43.79384" lon="1.65699">
        <ele>248</ele>
        <time>2017-04-16T09:52:44Z</time>
      </trkpt>
      <trkpt lat="43.79383" lon="1.65698">
        <ele>248</ele>
        <time>2017-04-16T09:52:45Z</time>
      </trkpt>
      <trkpt lat="43.79383" lon="1.65697">
        <ele>248</ele>
        <time>2017-04-16T09:52:46Z</time>
      </trkpt>
      <trkpt lat="43.79381" lon="1.65695">
        <ele>248</ele>
        <time>2017-04-16T09:52:47Z</time>
      </trkpt>
      <trkpt lat="43.79371" lon="1.65666">
        <ele>249</ele>
        <time>2017-04-16T09:52:58Z</time>
      </trkpt>
      <trkpt lat="43.79366" lon="1.6564">
        <ele>250</ele>
        <time>2017-04-16T09:53:05Z</time>
      </trkpt>
      <trkpt lat="43.79371" lon="1.65623">
        <ele>250</ele>
        <time>2017-04-16T09:53:12Z</time>
      </trkpt>
      <trkpt lat="43.79379" lon="1.65596">
        <ele>251</ele>
        <time>2017-04-16T09:53:25Z</time>
      </trkpt>
      <trkpt lat="43.79378" lon="1.65587">
        <ele>251</ele>
        <time>2017-04-16T09:53:34Z</time>
      </trkpt>
      <trkpt lat="43.79377" lon="1.65585">
        <ele>251</ele>
        <time>2017-04-16T09:53:35Z</time>
      </trkpt>
      <trkpt lat="43.79377" lon="1.65581">
        <ele>252</ele>
        <time>2017-04-16T09:53:37Z</time>
      </trkpt>
      <trkpt lat="43.79377" lon="1.65579">
        <ele>252</ele>
        <time>2017-04-16T09:53:38Z</time>
      </trkpt>
      <trkpt lat="43.79378" lon="1.65577">
        <ele>252</ele>
        <time>2017-04-16T09:53:39Z</time>
      </trkpt>
      <trkpt lat="43.7938" lon="1.65573">
        <ele>252</ele>
        <time>2017-04-16T09:53:41Z</time>
      </trkpt>
      <trkpt lat="43.7938" lon="1.65571">
        <ele>252</ele>
        <time>2017-04-16T09:53:42Z</time>
      </trkpt>
      <trkpt lat="43.7938" lon="1.65568">
        <ele>252</ele>
        <time>2017-04-16T09:53:43Z</time>
      </trkpt>
      <trkpt lat="43.79384" lon="1.65547">
        <ele>252</ele>
        <time>2017-04-16T09:53:51Z</time>
      </trkpt>
      <trkpt lat="43.79386" lon="1.65545">
        <ele>252</ele>
        <time>2017-04-16T09:53:52Z</time>
      </trkpt>
      <trkpt lat="43.79387" lon="1.65543">
        <ele>252</ele>
        <time>2017-04-16T09:53:53Z</time>
      </trkpt>
      <trkpt lat="43.79389" lon="1.65541">
        <ele>252</ele>
        <time>2017-04-16T09:53:54Z</time>
      </trkpt>
      <trkpt lat="43.79392" lon="1.65539">
        <ele>252</ele>
        <time>2017-04-16T09:53:55Z</time>
      </trkpt>
      <trkpt lat="43.79408" lon="1.65525">
        <ele>252</ele>
        <time>2017-04-16T09:54:01Z</time>
      </trkpt>
      <trkpt lat="43.7941" lon="1.65521">
        <ele>252</ele>
        <time>2017-04-16T09:54:02Z</time>
      </trkpt>
      <trkpt lat="43.79413" lon="1.65515">
        <ele>253</ele>
        <time>2017-04-16T09:54:03Z</time>
      </trkpt>
      <trkpt lat="43.79416" lon="1.65509">
        <ele>253</ele>
        <time>2017-04-16T09:54:04Z</time>
      </trkpt>
      <trkpt lat="43.79418" lon="1.65503">
        <ele>252</ele>
        <time>2017-04-16T09:54:05Z</time>
      </trkpt>
      <trkpt lat="43.7942" lon="1.65496">
        <ele>252</ele>
        <time>2017-04-16T09:54:06Z</time>
      </trkpt>
      <trkpt lat="43.79435" lon="1.65451">
        <ele>249</ele>
        <time>2017-04-16T09:54:13Z</time>
      </trkpt>
      <trkpt lat="43.79445" lon="1.65417">
        <ele>249</ele>
        <time>2017-04-16T09:54:18Z</time>
      </trkpt>
      <trkpt lat="43.79453" lon="1.65389">
        <ele>246</ele>
        <time>2017-04-16T09:54:23Z</time>
      </trkpt>
      <trkpt lat="43.79455" lon="1.65386">
        <ele>246</ele>
        <time>2017-04-16T09:54:24Z</time>
      </trkpt>
      <trkpt lat="43.79456" lon="1.65382">
        <ele>246</ele>
        <time>2017-04-16T09:54:25Z</time>
      </trkpt>
      <trkpt lat="43.79458" lon="1.65379">
        <ele>246</ele>
        <time>2017-04-16T09:54:26Z</time>
      </trkpt>
      <trkpt lat="43.7946" lon="1.65376">
        <ele>246</ele>
        <time>2017-04-16T09:54:27Z</time>
      </trkpt>
      <trkpt lat="43.79484" lon="1.65361">
        <ele>246</ele>
        <time>2017-04-16T09:54:36Z</time>
      </trkpt>
      <trkpt lat="43.79515" lon="1.65336">
        <ele>244</ele>
        <time>2017-04-16T09:54:47Z</time>
      </trkpt>
      <trkpt lat="43.79531" lon="1.65318">
        <ele>244</ele>
        <time>2017-04-16T09:54:53Z</time>
      </trkpt>
      <trkpt lat="43.79552" lon="1.6529">
        <ele>245</ele>
        <time>2017-04-16T09:55:05Z</time>
      </trkpt>
      <trkpt lat="43.79555" lon="1.65284">
        <ele>245</ele>
        <time>2017-04-16T09:55:08Z</time>
      </trkpt>
      <trkpt lat="43.79548" lon="1.65249">
        <ele>243</ele>
        <time>2017-04-16T09:55:23Z</time>
      </trkpt>
      <trkpt lat="43.79537" lon="1.65201">
        <ele>241</ele>
        <time>2017-04-16T09:55:37Z</time>
      </trkpt>
      <trkpt lat="43.79536" lon="1.65153">
        <ele>235</ele>
        <time>2017-04-16T09:55:48Z</time>
      </trkpt>
      <trkpt lat="43.79549" lon="1.65118">
        <ele>235</ele>
        <time>2017-04-16T09:55:50Z</time>
      </trkpt>
      <trkpt lat="43.79567" lon="1.65072">
        <ele>232</ele>
        <time>2017-04-16T09:56:01Z</time>
      </trkpt>
      <trkpt lat="43.79607" lon="1.65029">
        <ele>238</ele>
        <time>2017-04-16T09:56:13Z</time>
      </trkpt>
      <trkpt lat="43.79633" lon="1.64999">
        <ele>238</ele>
        <time>2017-04-16T09:56:25Z</time>
      </trkpt>
      <trkpt lat="43.79637" lon="1.64966">
        <ele>238</ele>
        <time>2017-04-16T10:06:08Z</time>
      </trkpt>
      <trkpt lat="43.7964" lon="1.6495">
        <ele>238</ele>
        <time>2017-04-16T10:06:10Z</time>
      </trkpt>
      <trkpt lat="43.79638" lon="1.64929">
        <ele>238</ele>
        <time>2017-04-16T10:06:11Z</time>
      </trkpt>
      <trkpt lat="43.79642" lon="1.64915">
        <ele>239</ele>
        <time>2017-04-16T10:06:12Z</time>
      </trkpt>
      <trkpt lat="43.79641" lon="1.64899">
        <ele>239</ele>
        <time>2017-04-16T10:06:13Z</time>
      </trkpt>
      <trkpt lat="43.79643" lon="1.64885">
        <ele>239</ele>
        <time>2017-04-16T10:06:14Z</time>
      </trkpt>
      <trkpt lat="43.79645" lon="1.64855">
        <ele>240</ele>
        <time>2017-04-16T10:06:15Z</time>
      </trkpt>
      <trkpt lat="43.79649" lon="1.64828">
        <ele>242</ele>
        <time>2017-04-16T10:06:23Z</time>
      </trkpt>
      <trkpt lat="43.79634" lon="1.64804">
        <ele>242</ele>
        <time>2017-04-16T10:06:34Z</time>
      </trkpt>
      <trkpt lat="43.79624" lon="1.64788">
        <ele>243</ele>
        <time>2017-04-16T10:06:46Z</time>
      </trkpt>
      <trkpt lat="43.79604" lon="1.64782">
        <ele>243</ele>
        <time>2017-04-16T10:06:58Z</time>
      </trkpt>
      <trkpt lat="43.79589" lon="1.64789">
        <ele>243</ele>
        <time>2017-04-16T10:06:59Z</time>
      </trkpt>
      <trkpt lat="43.79581" lon="1.64789">
        <ele>238</ele>
        <time>2017-04-16T10:07:05Z</time>
      </trkpt>
      <trkpt lat="43.79563" lon="1.64788">
        <ele>237</ele>
        <time>2017-04-16T10:07:06Z</time>
      </trkpt>
      <trkpt lat="43.79548" lon="1.64782">
        <ele>236</ele>
        <time>2017-04-16T10:07:07Z</time>
      </trkpt>
      <trkpt lat="43.79537" lon="1.64747">
        <ele>238</ele>
        <time>2017-04-16T10:07:21Z</time>
      </trkpt>
      <trkpt lat="43.79532" lon="1.64689">
        <ele>240</ele>
      </trkpt>
      <trkpt lat="43.79545" lon="1.64676">
        <ele>241</ele>
        <time>2017-04-16T10:07:34Z</time>
      </trkpt>
      <trkpt lat="43.79559" lon="1.64669">
        <ele>242</ele>
        <time>2017-04-16T10:07:41Z</time>
      </trkpt>
      <trkpt lat="43.79567" lon="1.64642">
        <ele>245</ele>
        <time>2017-04-16T10:08:17Z</time>
      </trkpt>
      <trkpt lat="43.79553" lon="1.64602">
        <ele>245</ele>
        <time>2017-04-16T10:08:29Z</time>
      </trkpt>
      <trkpt lat="43.7953" lon="1.64563">
        <ele>247</ele>
        <time>2017-04-16T10:08:40Z</time>
      </trkpt>
      <trkpt lat="43.79524" lon="1.64551">
        <ele>247</ele>
        <time>2017-04-16T10:08:43Z</time>
      </trkpt>
      <trkpt lat="43.79515" lon="1.64542">
        <ele>247</ele>
        <time>2017-04-16T10:08:47Z</time>
      </trkpt>
      <trkpt lat="43.79511" lon="1.64532">
        <ele>247</ele>
        <time>2017-04-16T10:08:50Z</time>
      </trkpt>
      <trkpt lat="43.79509" lon="1.64498">
        <ele>246</ele>
        <time>2017-04-16T10:08:57Z</time>
      </trkpt>
      <trkpt lat="43.79524" lon="1.64453">
        <ele>247</ele>
        <time>2017-04-16T10:09:09Z</time>
      </trkpt>
      <trkpt lat="43.79535" lon="1.64443">
        <ele>247</ele>
        <time>2017-04-16T10:09:14Z</time>
      </trkpt>
      <trkpt lat="43.79538" lon="1.64439">
        <ele>247</ele>
        <time>2017-04-16T10:09:16Z</time>
      </trkpt>
      <trkpt lat="43.79541" lon="1.64436">
        <ele>247</ele>
        <time>2017-04-16T10:09:17Z</time>
      </trkpt>
      <trkpt lat="43.79547" lon="1.64432">
        <ele>247</ele>
        <time>2017-04-16T10:09:21Z</time>
      </trkpt>
      <trkpt lat="43.79554" lon="1.64435">
        <ele>247</ele>
        <time>2017-04-16T10:09:22Z</time>
      </trkpt>
      <trkpt lat="43.79559" lon="1.64436">
        <ele>247</ele>
        <time>2017-04-16T10:09:26Z</time>
      </trkpt>
      <trkpt lat="43.79562" lon="1.64437">
        <ele>247</ele>
        <time>2017-04-16T10:09:27Z</time>
      </trkpt>
      <trkpt lat="43.79569" lon="1.6444">
        <ele>247</ele>
        <time>2017-04-16T10:09:30Z</time>
      </trkpt>
      <trkpt lat="43.79575" lon="1.64448">
        <ele>247</ele>
        <time>2017-04-16T10:09:34Z</time>
      </trkpt>
      <trkpt lat="43.79581" lon="1.64456">
        <ele>248</ele>
        <time>2017-04-16T10:09:38Z</time>
      </trkpt>
      <trkpt lat="43.79606" lon="1.64445">
        <ele>246</ele>
        <time>2017-04-16T10:09:49Z</time>
      </trkpt>
      <trkpt lat="43.79619" lon="1.6444">
        <ele>246</ele>
        <time>2017-04-16T10:09:55Z</time>
      </trkpt>
      <trkpt lat="43.79625" lon="1.64423">
        <ele>245</ele>
        <time>2017-04-16T10:10:01Z</time>
      </trkpt>
      <trkpt lat="43.79624" lon="1.6441">
        <ele>244</ele>
        <time>2017-04-16T10:10:03Z</time>
      </trkpt>
      <trkpt lat="43.79617" lon="1.64392">
        <ele>244</ele>
        <time>2017-04-16T10:10:11Z</time>
      </trkpt>
      <trkpt lat="43.79608" lon="1.64388">
        <ele>244</ele>
        <time>2017-04-16T10:10:20Z</time>
      </trkpt>
      <trkpt lat="43.79601" lon="1.64383">
        <ele>244</ele>
        <time>2017-04-16T10:10:26Z</time>
      </trkpt>
      <trkpt lat="43.79595" lon="1.6437">
        <ele>244</ele>
        <time>2017-04-16T10:10:35Z</time>
      </trkpt>
      <trkpt lat="43.79592" lon="1.64355">
        <ele>245</ele>
        <time>2017-04-16T10:10:44Z</time>
      </trkpt>
      <trkpt lat="43.79605" lon="1.64312">
        <ele>245</ele>
        <time>2017-04-16T10:10:56Z</time>
      </trkpt>
      <trkpt lat="43.79619" lon="1.64306">
        <ele>244</ele>
        <time>2017-04-16T10:11:07Z</time>
      </trkpt>
      <trkpt lat="43.79631" lon="1.64295">
        <ele>243</ele>
        <time>2017-04-16T10:11:10Z</time>
      </trkpt>
      <trkpt lat="43.79638" lon="1.64283">
        <ele>243</ele>
        <time>2017-04-16T10:11:14Z</time>
      </trkpt>
      <trkpt lat="43.79646" lon="1.64272">
        <ele>243</ele>
        <time>2017-04-16T10:11:18Z</time>
      </trkpt>
      <trkpt lat="43.79647" lon="1.64264">
        <ele>243</ele>
        <time>2017-04-16T10:11:23Z</time>
      </trkpt>
      <trkpt lat="43.79646" lon="1.64261">
        <ele>243</ele>
        <time>2017-04-16T10:11:38Z</time>
      </trkpt>
      <trkpt lat="43.79649" lon="1.64259">
        <ele>243</ele>
        <time>2017-04-16T10:11:40Z</time>
      </trkpt>
      <trkpt lat="43.79651" lon="1.64256">
        <ele>243</ele>
        <time>2017-04-16T10:11:50Z</time>
      </trkpt>
      <trkpt lat="43.79653" lon="1.64254">
        <ele>243</ele>
        <time>2017-04-16T10:12:04Z</time>
      </trkpt>
      <trkpt lat="43.79656" lon="1.64251">
        <ele>243</ele>
        <time>2017-04-16T10:12:14Z</time>
      </trkpt>
      <trkpt lat="43.7966" lon="1.64247">
        <ele>242</ele>
        <time>2017-04-16T10:12:15Z</time>
      </trkpt>
      <trkpt lat="43.79664" lon="1.64243">
        <ele>242</ele>
        <time>2017-04-16T10:12:18Z</time>
      </trkpt>
      <trkpt lat="43.79676" lon="1.64234">
        <ele>236</ele>
        <time>2017-04-16T10:12:28Z</time>
      </trkpt>
      <trkpt lat="43.7969" lon="1.6423">
        <ele>234</ele>
        <time>2017-04-16T10:12:36Z</time>
      </trkpt>
      <trkpt lat="43.79694" lon="1.64239">
        <ele>234</ele>
        <time>2017-04-16T10:12:39Z</time>
      </trkpt>
      <trkpt lat="43.79695" lon="1.64244">
        <ele>234</ele>
        <time>2017-04-16T10:12:41Z</time>
      </trkpt>
      <trkpt lat="43.79708" lon="1.64249">
        <ele>233</ele>
        <time>2017-04-16T10:12:46Z</time>
      </trkpt>
      <trkpt lat="43.79713" lon="1.64267">
        <ele>233</ele>
        <time>2017-04-16T10:12:50Z</time>
      </trkpt>
      <trkpt lat="43.79718" lon="1.64279">
        <ele>232</ele>
        <time>2017-04-16T10:12:53Z</time>
      </trkpt>
      <trkpt lat="43.79725" lon="1.64288">
        <ele>231</ele>
        <time>2017-04-16T10:12:56Z</time>
      </trkpt>
      <trkpt lat="43.79728" lon="1.64293">
        <ele>231</ele>
        <time>2017-04-16T10:12:58Z</time>
      </trkpt>
      <trkpt lat="43.79738" lon="1.64294">
        <ele>230</ele>
        <time>2017-04-16T10:13:02Z</time>
      </trkpt>
      <trkpt lat="43.79759" lon="1.64287">
        <ele>220</ele>
        <time>2017-04-16T10:13:12Z</time>
      </trkpt>
      <trkpt lat="43.79777" lon="1.64272">
        <ele>219</ele>
        <time>2017-04-16T10:13:20Z</time>
      </trkpt>
      <trkpt lat="43.79777" lon="1.6427">
        <ele>219</ele>
        <time>2017-04-16T10:13:21Z</time>
      </trkpt>
      <trkpt lat="43.79779" lon="1.64267">
        <ele>219</ele>
        <time>2017-04-16T10:13:23Z</time>
      </trkpt>
      <trkpt lat="43.79782" lon="1.64263">
        <ele>219</ele>
        <time>2017-04-16T10:13:25Z</time>
      </trkpt>
      <trkpt lat="43.79792" lon="1.64251">
        <ele>218</ele>
        <time>2017-04-16T10:13:31Z</time>
      </trkpt>
      <trkpt lat="43.79811" lon="1.64227">
        <ele>216</ele>
        <time>2017-04-16T10:13:38Z</time>
      </trkpt>
      <trkpt lat="43.79815" lon="1.64217">
        <ele>216</ele>
        <time>2017-04-16T10:13:40Z</time>
      </trkpt>
      <trkpt lat="43.79822" lon="1.6417">
        <ele>214</ele>
        <time>2017-04-16T10:13:50Z</time>
      </trkpt>
      <trkpt lat="43.79822" lon="1.64157">
        <ele>213</ele>
        <time>2017-04-16T10:13:53Z</time>
      </trkpt>
      <trkpt lat="43.79827" lon="1.64115">
        <ele>211</ele>
        <time>2017-04-16T10:14:05Z</time>
      </trkpt>
      <trkpt lat="43.79829" lon="1.64111">
        <ele>210</ele>
        <time>2017-04-16T10:14:06Z</time>
      </trkpt>
      <trkpt lat="43.79831" lon="1.64084">
        <ele>207</ele>
        <time>2017-04-16T10:14:11Z</time>
      </trkpt>
      <trkpt lat="43.7983" lon="1.64073">
        <ele>206</ele>
        <time>2017-04-16T10:14:15Z</time>
      </trkpt>
      <trkpt lat="43.79833" lon="1.64056">
        <ele>205</ele>
        <time>2017-04-16T10:14:19Z</time>
      </trkpt>
      <trkpt lat="43.79837" lon="1.64045">
        <ele>199</ele>
        <time>2017-04-16T10:14:21Z</time>
      </trkpt>
      <trkpt lat="43.79835" lon="1.64032">
        <ele>198</ele>
        <time>2017-04-16T10:14:25Z</time>
      </trkpt>
      <trkpt lat="43.79832" lon="1.64029">
        <ele>204</ele>
        <time>2017-04-16T10:14:27Z</time>
      </trkpt>
      <trkpt lat="43.79827" lon="1.64025">
        <ele>203</ele>
        <time>2017-04-16T10:14:36Z</time>
      </trkpt>
      <trkpt lat="43.79801" lon="1.64014">
        <ele>204</ele>
      </trkpt>
      <trkpt lat="43.79799" lon="1.63974">
        <ele>201</ele>
      </trkpt>
      <trkpt lat="43.79809" lon="1.63951">
        <ele>200</ele>
      </trkpt>
      <trkpt lat="43.79807" lon="1.63938">
        <ele>199</ele>
      </trkpt>
      <trkpt lat="43.79828" lon="1.63893">
        <ele>195</ele>
      </trkpt>
      <trkpt lat="43.79846" lon="1.63877">
        <ele>186</ele>
      </trkpt>
      <trkpt lat="43.79884" lon="1.63788">
        <ele>180</ele>
      </trkpt>
      <trkpt lat="43.79934" lon="1.6374">
        <ele>169</ele>
      </trkpt>
      <trkpt lat="43.79953" lon="1.63718">
        <ele>167</ele>
      </trkpt>
      <trkpt lat="43.79968" lon="1.63712">
        <ele>166</ele>
      </trkpt>
      <trkpt lat="43.79977" lon="1.63652">
        <ele>164</ele>
      </trkpt>
      <trkpt lat="43.79956" lon="1.63652">
        <ele>165</ele>
      </trkpt>
      <trkpt lat="43.79942" lon="1.63653">
        <ele>166</ele>
      </trkpt>
      <trkpt lat="43.79934" lon="1.63658">
        <ele>167</ele>
        <time>2017-04-16T10:26:18Z</time>
      </trkpt>
      <trkpt lat="43.79927" lon="1.63666">
        <ele>169</ele>
        <time>2017-04-16T10:26:28Z</time>
      </trkpt>
      <trkpt lat="43.79914" lon="1.63678">
        <ele>174</ele>
        <time>2017-04-16T10:26:41Z</time>
      </trkpt>
      <trkpt lat="43.79897" lon="1.63695">
        <ele>178</ele>
        <time>2017-04-16T10:26:56Z</time>
      </trkpt>
      <trkpt lat="43.79889" lon="1.63707">
        <ele>179</ele>
        <time>2017-04-16T10:27:07Z</time>
      </trkpt>
      <trkpt lat="43.79881" lon="1.63718">
        <ele>180</ele>
        <time>2017-04-16T10:27:18Z</time>
      </trkpt>
      <trkpt lat="43.79874" lon="1.63729">
        <ele>180</ele>
        <time>2017-04-16T10:27:34Z</time>
      </trkpt>
      <trkpt lat="43.79863" lon="1.63741">
        <ele>182</ele>
        <time>2017-04-16T10:27:49Z</time>
      </trkpt>
      <trkpt lat="43.79856" lon="1.63755">
        <ele>184</ele>
        <time>2017-04-16T10:28:05Z</time>
      </trkpt>
      <trkpt lat="43.79849" lon="1.63768">
        <ele>184</ele>
        <time>2017-04-16T10:28:20Z</time>
      </trkpt>
      <trkpt lat="43.79841" lon="1.63784">
        <ele>184</ele>
        <time>2017-04-16T10:28:35Z</time>
      </trkpt>
      <trkpt lat="43.79835" lon="1.63798">
        <ele>184</ele>
        <time>2017-04-16T10:28:49Z</time>
      </trkpt>
      <trkpt lat="43.79832" lon="1.6381">
        <ele>193</ele>
        <time>2017-04-16T10:29:01Z</time>
      </trkpt>
      <trkpt lat="43.79829" lon="1.63818">
        <ele>192</ele>
        <time>2017-04-16T10:29:16Z</time>
      </trkpt>
      <trkpt lat="43.79829" lon="1.63831">
        <ele>189</ele>
        <time>2017-04-16T10:29:35Z</time>
      </trkpt>
      <trkpt lat="43.79828" lon="1.63842">
        <ele>191</ele>
        <time>2017-04-16T10:29:50Z</time>
      </trkpt>
      <trkpt lat="43.79826" lon="1.63854">
        <ele>194</ele>
        <time>2017-04-16T10:30:02Z</time>
      </trkpt>
      <trkpt lat="43.79829" lon="1.63867">
        <ele>195</ele>
        <time>2017-04-16T10:30:15Z</time>
      </trkpt>
      <trkpt lat="43.79835" lon="1.63878">
        <ele>186</ele>
        <time>2017-04-16T10:30:16Z</time>
      </trkpt>
      <trkpt lat="43.79842" lon="1.63888">
        <ele>187</ele>
        <time>2017-04-16T10:30:19Z</time>
      </trkpt>
      <trkpt lat="43.7986" lon="1.63903">
        <ele>186</ele>
        <time>2017-04-16T10:30:21Z</time>
      </trkpt>
      <trkpt lat="43.79876" lon="1.63906">
        <ele>185</ele>
        <time>2017-04-16T10:30:25Z</time>
      </trkpt>
      <trkpt lat="43.79884" lon="1.63925">
        <ele>189</ele>
        <time>2017-04-16T10:30:30Z</time>
      </trkpt>
      <trkpt lat="43.79887" lon="1.63941">
        <ele>189</ele>
        <time>2017-04-16T10:30:34Z</time>
      </trkpt>
      <trkpt lat="43.7989" lon="1.63963">
        <ele>190</ele>
        <time>2017-04-16T10:31:15Z</time>
      </trkpt>
      <trkpt lat="43.79891" lon="1.63982">
        <ele>191</ele>
        <time>2017-04-16T10:32:35Z</time>
      </trkpt>
      <trkpt lat="43.79892" lon="1.64">
        <ele>194</ele>
        <time>2017-04-16T10:32:47Z</time>
      </trkpt>
      <trkpt lat="43.79896" lon="1.64022">
        <ele>194</ele>
        <time>2017-04-16T10:32:48Z</time>
      </trkpt>
      <trkpt lat="43.79896" lon="1.64039">
        <ele>195</ele>
        <time>2017-04-16T10:32:50Z</time>
      </trkpt>
      <trkpt lat="43.79899" lon="1.64059">
        <ele>195</ele>
        <time>2017-04-16T10:32:59Z</time>
      </trkpt>
      <trkpt lat="43.79902" lon="1.64089">
        <ele>196</ele>
        <time>2017-04-16T10:33:02Z</time>
      </trkpt>
      <trkpt lat="43.79906" lon="1.64122">
        <ele>198</ele>
        <time>2017-04-16T10:33:05Z</time>
      </trkpt>
      <trkpt lat="43.79905" lon="1.64144">
        <ele>198</ele>
        <time>2017-04-16T10:33:12Z</time>
      </trkpt>
      <trkpt lat="43.79898" lon="1.6418">
        <ele>200</ele>
      </trkpt>
      <trkpt lat="43.79884" lon="1.64205">
        <ele>203</ele>
      </trkpt>
      <trkpt lat="43.79875" lon="1.64213">
        <ele>203</ele>
      </trkpt>
      <trkpt lat="43.79858" lon="1.64235">
        <ele>205</ele>
      </trkpt>
      <trkpt lat="43.79842" lon="1.64267">
        <ele>208</ele>
      </trkpt>
      <trkpt lat="43.79829" lon="1.6429">
        <ele>214</ele>
      </trkpt>
      <trkpt lat="43.79811" lon="1.64319">
        <ele>214</ele>
      </trkpt>
      <trkpt lat="43.79806" lon="1.64341">
        <ele>216</ele>
      </trkpt>
      <trkpt lat="43.79798" lon="1.64345">
        <ele>217</ele>
      </trkpt>
      <trkpt lat="43.79787" lon="1.64345">
        <ele>219</ele>
      </trkpt>
      <trkpt lat="43.79775" lon="1.64345">
        <ele>220</ele>
      </trkpt>
      <trkpt lat="43.7976" lon="1.64346">
        <ele>221</ele>
      </trkpt>
      <trkpt lat="43.79745" lon="1.64349">
        <ele>227</ele>
      </trkpt>
      <trkpt lat="43.79756" lon="1.64372">
        <ele>221</ele>
      </trkpt>
      <trkpt lat="43.7979" lon="1.64395">
        <ele>221</ele>
      </trkpt>
      <trkpt lat="43.79811" lon="1.6442">
        <ele>225</ele>
      </trkpt>
      <trkpt lat="43.79808" lon="1.64479">
        <ele>228</ele>
      </trkpt>
      <trkpt lat="43.79782" lon="1.64515">
        <ele>235</ele>
      </trkpt>
      <trkpt lat="43.7977" lon="1.64554">
        <ele>236</ele>
      </trkpt>
      <trkpt lat="43.79754" lon="1.64596">
        <ele>239</ele>
      </trkpt>
      <trkpt lat="43.79724" lon="1.64678">
        <ele>245</ele>
      </trkpt>
      <trkpt lat="43.79707" lon="1.64717">
        <ele>244</ele>
      </trkpt>
      <trkpt lat="43.79673" lon="1.64755">
        <ele>244</ele>
      </trkpt>
      <trkpt lat="43.79635" lon="1.64718">
        <ele>246</ele>
      </trkpt>
      <trkpt lat="43.79606" lon="1.64683">
        <ele>246</ele>
      </trkpt>
      <trkpt lat="43.7959" lon="1.64639">
        <ele>248</ele>
      </trkpt>
      <trkpt lat="43.79578" lon="1.64594">
        <ele>247</ele>
      </trkpt>
      <trkpt lat="43.7957" lon="1.64508">
        <ele>249</ele>
      </trkpt>
      <trkpt lat="43.79549" lon="1.6446">
        <ele>247</ele>
      </trkpt>
      <trkpt lat="43.79559" lon="1.6443">
        <ele>247</ele>
      </trkpt>
      <trkpt lat="43.79571" lon="1.64435">
        <ele>247</ele>
      </trkpt>
      <trkpt lat="43.79581" lon="1.64448">
        <ele>247</ele>
      </trkpt>
      <trkpt lat="43.79605" lon="1.64439">
        <ele>246</ele>
      </trkpt>
      <trkpt lat="43.79619" lon="1.64425">
        <ele>246</ele>
      </trkpt>
      <trkpt lat="43.79617" lon="1.64404">
        <ele>244</ele>
      </trkpt>
      <trkpt lat="43.79602" lon="1.64395">
        <ele>245</ele>
      </trkpt>
      <trkpt lat="43.79595" lon="1.64387">
        <ele>245</ele>
      </trkpt>
      <trkpt lat="43.79587" lon="1.64357">
        <ele>245</ele>
      </trkpt>
      <trkpt lat="43.79597" lon="1.6432">
        <ele>245</ele>
      </trkpt>
      <trkpt lat="43.79588" lon="1.6428">
        <ele>245</ele>
      </trkpt>
      <trkpt lat="43.79595" lon="1.64272">
        <ele>245</ele>
      </trkpt>
      <trkpt lat="43.79615" lon="1.64275">
        <ele>244</ele>
      </trkpt>
      <trkpt lat="43.79632" lon="1.6427">
        <ele>244</ele>
      </trkpt>
      <trkpt lat="43.7964" lon="1.64261">
        <ele>243</ele>
      </trkpt>
      <trkpt lat="43.79642" lon="1.64244">
        <ele>242</ele>
      </trkpt>
      <trkpt lat="43.79634" lon="1.64233">
        <ele>242</ele>
      </trkpt>
      <trkpt lat="43.79624" lon="1.64225">
        <ele>242</ele>
      </trkpt>
      <trkpt lat="43.79618" lon="1.64221">
        <ele>242</ele>
        <time>2017-04-16T10:22:19Z</time>
      </trkpt>
      <trkpt lat="43.79613" lon="1.64219">
        <ele>242</ele>
        <time>2017-04-16T10:22:25Z</time>
      </trkpt>
      <trkpt lat="43.79602" lon="1.64216">
        <ele>243</ele>
        <time>2017-04-16T10:22:34Z</time>
      </trkpt>
      <trkpt lat="43.79595" lon="1.64213">
        <ele>243</ele>
        <time>2017-04-16T10:22:40Z</time>
      </trkpt>
      <trkpt lat="43.79589" lon="1.64208">
        <ele>243</ele>
        <time>2017-04-16T10:22:45Z</time>
      </trkpt>
      <trkpt lat="43.79587" lon="1.64202">
        <ele>243</ele>
        <time>2017-04-16T10:22:48Z</time>
      </trkpt>
      <trkpt lat="43.7958" lon="1.64192">
        <ele>245</ele>
        <time>2017-04-16T10:23:02Z</time>
      </trkpt>
      <trkpt lat="43.79578" lon="1.6419">
        <ele>245</ele>
        <time>2017-04-16T10:23:32Z</time>
      </trkpt>
      <trkpt lat="43.79577" lon="1.64186">
        <ele>245</ele>
        <time>2017-04-16T10:23:45Z</time>
      </trkpt>
      <trkpt lat="43.79578" lon="1.64181">
        <ele>245</ele>
        <time>2017-04-16T10:23:53Z</time>
      </trkpt>
      <trkpt lat="43.79578" lon="1.64174">
        <ele>244</ele>
        <time>2017-04-16T10:23:56Z</time>
      </trkpt>
      <trkpt lat="43.7958" lon="1.64158">
        <ele>244</ele>
        <time>2017-04-16T10:23:59Z</time>
      </trkpt>
      <trkpt lat="43.79581" lon="1.64143">
        <ele>244</ele>
        <time>2017-04-16T10:24:01Z</time>
      </trkpt>
      <trkpt lat="43.79581" lon="1.64136">
        <ele>244</ele>
        <time>2017-04-16T10:24:02Z</time>
      </trkpt>
      <trkpt lat="43.79581" lon="1.64131">
        <ele>244</ele>
        <time>2017-04-16T10:24:03Z</time>
      </trkpt>
      <trkpt lat="43.79582" lon="1.64127">
        <ele>243</ele>
        <time>2017-04-16T10:24:04Z</time>
      </trkpt>
      <trkpt lat="43.79584" lon="1.64111">
        <ele>238</ele>
        <time>2017-04-16T10:24:07Z</time>
      </trkpt>
      <trkpt lat="43.79583" lon="1.64097">
        <ele>243</ele>
        <time>2017-04-16T10:24:13Z</time>
      </trkpt>
      <trkpt lat="43.79592" lon="1.64058">
        <ele>238</ele>
        <time>2017-04-16T10:24:24Z</time>
      </trkpt>
      <trkpt lat="43.79593" lon="1.64054">
        <ele>237</ele>
        <time>2017-04-16T10:24:26Z</time>
      </trkpt>
      <trkpt lat="43.79605" lon="1.64011">
        <ele>238</ele>
        <time>2017-04-16T10:24:38Z</time>
      </trkpt>
      <trkpt lat="43.79622" lon="1.63987">
        <ele>236</ele>
        <time>2017-04-16T10:24:47Z</time>
      </trkpt>
      <trkpt lat="43.79632" lon="1.63981">
        <ele>235</ele>
        <time>2017-04-16T10:24:50Z</time>
      </trkpt>
      <trkpt lat="43.7965" lon="1.63982">
        <ele>233</ele>
        <time>2017-04-16T10:24:54Z</time>
      </trkpt>
      <trkpt lat="43.79669" lon="1.63959">
        <ele>222</ele>
        <time>2017-04-16T10:25:01Z</time>
      </trkpt>
      <trkpt lat="43.79671" lon="1.63954">
        <ele>222</ele>
        <time>2017-04-16T10:25:02Z</time>
      </trkpt>
      <trkpt lat="43.79675" lon="1.63932">
        <ele>224</ele>
        <time>2017-04-16T10:25:06Z</time>
      </trkpt>
      <trkpt lat="43.79676" lon="1.63919">
        <ele>226</ele>
        <time>2017-04-16T10:25:08Z</time>
      </trkpt>
      <trkpt lat="43.79682" lon="1.63889">
        <ele>222</ele>
        <time>2017-04-16T10:25:13Z</time>
      </trkpt>
      <trkpt lat="43.79684" lon="1.63883">
        <ele>221</ele>
        <time>2017-04-16T10:25:14Z</time>
      </trkpt>
      <trkpt lat="43.79694" lon="1.63869">
        <ele>220</ele>
        <time>2017-04-16T10:25:19Z</time>
      </trkpt>
      <trkpt lat="43.79696" lon="1.63864">
        <ele>220</ele>
        <time>2017-04-16T10:25:20Z</time>
      </trkpt>
      <trkpt lat="43.79705" lon="1.63849">
        <ele>219</ele>
        <time>2017-04-16T10:25:23Z</time>
      </trkpt>
      <trkpt lat="43.79707" lon="1.63842">
        <ele>218</ele>
        <time>2017-04-16T10:25:24Z</time>
      </trkpt>
      <trkpt lat="43.79711" lon="1.63829">
        <ele>216</ele>
        <time>2017-04-16T10:25:26Z</time>
      </trkpt>
      <trkpt lat="43.79729" lon="1.63771">
        <ele>213</ele>
        <time>2017-04-16T10:25:30Z</time>
      </trkpt>
      <trkpt lat="43.79759" lon="1.63752">
        <ele>203</ele>
        <time>2017-04-16T10:25:33Z</time>
      </trkpt>
      <trkpt lat="43.79781" lon="1.63704">
        <ele>198</ele>
        <time>2017-04-16T10:25:39Z</time>
      </trkpt>
      <trkpt lat="43.79805" lon="1.63678">
        <ele>194</ele>
        <time>2017-04-16T10:25:45Z</time>
      </trkpt>
      <trkpt lat="43.79837" lon="1.63654">
        <ele>183</ele>
        <time>2017-04-16T10:25:48Z</time>
      </trkpt>
      <trkpt lat="43.79846" lon="1.63644">
        <ele>181</ele>
        <time>2017-04-16T10:25:52Z</time>
      </trkpt>
      <trkpt lat="43.79856" lon="1.6364">
        <ele>179</ele>
        <time>2017-04-16T10:25:57Z</time>
      </trkpt>
      <trkpt lat="43.7987" lon="1.63638">
        <ele>178</ele>
        <time>2017-04-16T10:26:01Z</time>
      </trkpt>
      <trkpt lat="43.79923" lon="1.63652">
        <ele>168</ele>
        <time>2017-04-16T10:26:03Z</time>
      </trkpt>
      <trkpt lat="43.79936" lon="1.63645">
        <ele>166</ele>
        <time>2017-04-16T10:26:18Z</time>
      </trkpt>
      <trkpt lat="43.79982" lon="1.63644">
        <ele>163</ele>
      </trkpt>
      <trkpt lat="43.79974" lon="1.63727">
        <ele>166</ele>
      </trkpt>
      <trkpt lat="43.79982" lon="1.6379">
        <ele>168</ele>
      </trkpt>
      <trkpt lat="43.79963" lon="1.63929">
        <ele>177</ele>
      </trkpt>
      <trkpt lat="43.79965" lon="1.64082">
        <ele>183</ele>
      </trkpt>
      <trkpt lat="43.80002" lon="1.6413">
        <ele>181</ele>
      </trkpt>
      <trkpt lat="43.79968" lon="1.64235">
        <ele>195</ele>
      </trkpt>
      <trkpt lat="43.79949" lon="1.64339">
        <ele>203</ele>
      </trkpt>
      <trkpt lat="43.79941" lon="1.6443">
        <ele>206</ele>
      </trkpt>
      <trkpt lat="43.79934" lon="1.64507">
        <ele>207</ele>
      </trkpt>
      <trkpt lat="43.79915" lon="1.64552">
        <ele>217</ele>
      </trkpt>
      <trkpt lat="43.79909" lon="1.64646">
        <ele>217</ele>
      </trkpt>
      <trkpt lat="43.79878" lon="1.64659">
        <ele>220</ele>
      </trkpt>
      <trkpt lat="43.79854" lon="1.64659">
        <ele>224</ele>
      </trkpt>
      <trkpt lat="43.79846" lon="1.64624">
        <ele>224</ele>
      </trkpt>
      <trkpt lat="43.79827" lon="1.64581">
        <ele>231</ele>
      </trkpt>
      <trkpt lat="43.7981" lon="1.64545">
        <ele>233</ele>
      </trkpt>
      <trkpt lat="43.79784" lon="1.64548">
        <ele>235</ele>
      </trkpt>
      <trkpt lat="43.79749" lon="1.64521">
        <ele>241</ele>
      </trkpt>
      <trkpt lat="43.79741" lon="1.64506">
        <ele>241</ele>
      </trkpt>
      <trkpt lat="43.79733" lon="1.64501">
        <ele>241</ele>
      </trkpt>
      <trkpt lat="43.79722" lon="1.64498">
        <ele>240</ele>
      </trkpt>
      <trkpt lat="43.79715" lon="1.64488">
        <ele>240</ele>
      </trkpt>
      <trkpt lat="43.7971" lon="1.64485">
        <ele>240</ele>
      </trkpt>
      <trkpt lat="43.79683" lon="1.64528">
        <ele>245</ele>
      </trkpt>
      <trkpt lat="43.79643" lon="1.645">
        <ele>247</ele>
      </trkpt>
      <trkpt lat="43.79639" lon="1.64482">
        <ele>247</ele>
      </trkpt>
      <trkpt lat="43.79632" lon="1.64466">
        <ele>246</ele>
      </trkpt>
      <trkpt lat="43.79628" lon="1.64454">
        <ele>246</ele>
      </trkpt>
      <trkpt lat="43.7961" lon="1.64449">
        <ele>246</ele>
      </trkpt>
      <trkpt lat="43.79592" lon="1.64459">
        <ele>247</ele>
      </trkpt>
      <trkpt lat="43.79582" lon="1.64462">
        <ele>248</ele>
      </trkpt>
      <trkpt lat="43.79575" lon="1.64456">
        <ele>248</ele>
      </trkpt>
      <trkpt lat="43.79567" lon="1.64444">
        <ele>247</ele>
      </trkpt>
      <trkpt lat="43.7956" lon="1.64442">
        <ele>247</ele>
      </trkpt>
      <trkpt lat="43.79545" lon="1.64454">
        <ele>247</ele>
      </trkpt>
      <trkpt lat="43.79551" lon="1.64438">
        <ele>247</ele>
      </trkpt>
      <trkpt lat="43.79562" lon="1.64421">
        <ele>247</ele>
      </trkpt>
      <trkpt lat="43.79569" lon="1.64412">
        <ele>247</ele>
      </trkpt>
      <trkpt lat="43.79575" lon="1.64394">
        <ele>247</ele>
      </trkpt>
      <trkpt lat="43.79576" lon="1.64372">
        <ele>247</ele>
      </trkpt>
      <trkpt lat="43.79577" lon="1.64329">
        <ele>247</ele>
      </trkpt>
      <trkpt lat="43.79573" lon="1.64294">
        <ele>247</ele>
      </trkpt>
      <trkpt lat="43.79571" lon="1.64231">
        <ele>246</ele>
      </trkpt>
      <trkpt lat="43.79556" lon="1.64146">
        <ele>244</ele>
      </trkpt>
      <trkpt lat="43.79538" lon="1.6406">
        <ele>244</ele>
      </trkpt>
      <trkpt lat="43.79562" lon="1.6398">
        <ele>245</ele>
      </trkpt>
      <trkpt lat="43.7956" lon="1.63898">
        <ele>243</ele>
      </trkpt>
      <trkpt lat="43.79562" lon="1.63792">
        <ele>237</ele>
      </trkpt>
      <trkpt lat="43.79562" lon="1.6374">
        <ele>231</ele>
      </trkpt>
      <trkpt lat="43.79587" lon="1.63677">
        <ele>227</ele>
      </trkpt>
      <trkpt lat="43.79609" lon="1.63617">
        <ele>220</ele>
      </trkpt>
      <trkpt lat="43.79616" lon="1.63553">
        <ele>214</ele>
      </trkpt>
      <trkpt lat="43.79609" lon="1.63488">
        <ele>207</ele>
      </trkpt>
      <trkpt lat="43.79614" lon="1.63444">
        <ele>206</ele>
      </trkpt>
      <trkpt lat="43.79601" lon="1.63412">
        <ele>201</ele>
      </trkpt>
      <trkpt lat="43.79601" lon="1.6334">
        <ele>200</ele>
      </trkpt>
      <trkpt lat="43.7961" lon="1.63282">
        <ele>197</ele>
      </trkpt>
      <trkpt lat="43.79626" lon="1.63243">
        <ele>191</ele>
      </trkpt>
      <trkpt lat="43.79647" lon="1.63203">
        <ele>188</ele>
      </trkpt>
      <trkpt lat="43.79661" lon="1.63202">
        <ele>188</ele>
      </trkpt>
      <trkpt lat="43.79665" lon="1.63169">
        <ele>184</ele>
      </trkpt>
      <trkpt lat="43.79666" lon="1.63135">
        <ele>177</ele>
      </trkpt>
      <trkpt lat="43.79659" lon="1.63093">
        <ele>172</ele>
      </trkpt>
      <trkpt lat="43.79665" lon="1.63039">
        <ele>162</ele>
      </trkpt>
      <trkpt lat="43.79682" lon="1.63021">
        <ele>162</ele>
      </trkpt>
      <trkpt lat="43.79703" lon="1.63016">
        <ele>161</ele>
      </trkpt>
      <trkpt lat="43.79725" lon="1.62989">
        <ele>151</ele>
      </trkpt>
      <trkpt lat="43.79742" lon="1.62955">
        <ele>147</ele>
      </trkpt>
      <trkpt lat="43.79748" lon="1.62932">
        <ele>142</ele>
      </trkpt>
      <trkpt lat="43.79802" lon="1.62939">
        <ele>137</ele>
      </trkpt>
      <trkpt lat="43.79825" lon="1.62942">
        <ele>135</ele>
      </trkpt>
      <trkpt lat="43.79845" lon="1.62966">
        <ele>135</ele>
      </trkpt>
      <trkpt lat="43.79869" lon="1.63004">
        <ele>139</ele>
      </trkpt>
      <trkpt lat="43.79915" lon="1.63029">
        <ele>139</ele>
      </trkpt>
      <trkpt lat="43.79944" lon="1.63072">
        <ele>141</ele>
      </trkpt>
      <trkpt lat="43.79972" lon="1.6309">
        <ele>142</ele>
      </trkpt>
      <trkpt lat="43.80008" lon="1.63128">
        <ele>142</ele>
      </trkpt>
      <trkpt lat="43.80047" lon="1.63177">
        <ele>142</ele>
      </trkpt>
      <trkpt lat="43.80062" lon="1.63223">
        <ele>141</ele>
      </trkpt>
      <trkpt lat="43.80051" lon="1.63272">
        <ele>145</ele>
      </trkpt>
      <trkpt lat="43.80028" lon="1.6334">
        <ele>151</ele>
      </trkpt>
      <trkpt lat="43.80017" lon="1.63373">
        <ele>151</ele>
      </trkpt>
      <trkpt lat="43.8001" lon="1.63418">
        <ele>153</ele>
      </trkpt>
      <trkpt lat="43.8001" lon="1.63455">
        <ele>155</ele>
      </trkpt>
      <trkpt lat="43.80014" lon="1.63456">
        <ele>155</ele>
        <time>2017-04-16T10:40:41Z</time>
      </trkpt>
      <trkpt lat="43.80023" lon="1.63422">
        <ele>154</ele>
        <time>2017-04-16T10:40:53Z</time>
      </trkpt>
      <trkpt lat="43.80026" lon="1.63409">
        <ele>152</ele>
        <time>2017-04-16T10:40:58Z</time>
      </trkpt>
      <trkpt lat="43.80028" lon="1.63402">
        <ele>152</ele>
        <time>2017-04-16T10:41:01Z</time>
      </trkpt>
      <trkpt lat="43.8003" lon="1.6339">
        <ele>151</ele>
        <time>2017-04-16T10:41:06Z</time>
      </trkpt>
      <trkpt lat="43.80034" lon="1.63384">
        <ele>151</ele>
        <time>2017-04-16T10:41:10Z</time>
      </trkpt>
      <trkpt lat="43.80047" lon="1.63352">
        <ele>150</ele>
        <time>2017-04-16T10:41:19Z</time>
      </trkpt>
      <trkpt lat="43.8005" lon="1.63341">
        <ele>150</ele>
        <time>2017-04-16T10:41:22Z</time>
      </trkpt>
      <trkpt lat="43.80054" lon="1.63334">
        <ele>149</ele>
        <time>2017-04-16T10:41:25Z</time>
      </trkpt>
      <trkpt lat="43.80057" lon="1.63326">
        <ele>147</ele>
        <time>2017-04-16T10:41:29Z</time>
      </trkpt>
      <trkpt lat="43.80075" lon="1.63309">
        <ele>146</ele>
        <time>2017-04-16T10:41:40Z</time>
      </trkpt>
      <trkpt lat="43.80085" lon="1.63307">
        <ele>143</ele>
        <time>2017-04-16T10:41:46Z</time>
      </trkpt>
      <trkpt lat="43.8009" lon="1.63305">
        <ele>143</ele>
        <time>2017-04-16T10:41:49Z</time>
      </trkpt>
      <trkpt lat="43.801" lon="1.63295">
        <ele>142</ele>
        <time>2017-04-16T10:41:56Z</time>
      </trkpt>
      <trkpt lat="43.80104" lon="1.63294">
        <ele>142</ele>
        <time>2017-04-16T10:41:58Z</time>
      </trkpt>
      <trkpt lat="43.80108" lon="1.63294">
        <ele>142</ele>
        <time>2017-04-16T10:42:01Z</time>
      </trkpt>
      <trkpt lat="43.80111" lon="1.63294">
        <ele>142</ele>
        <time>2017-04-16T10:42:03Z</time>
      </trkpt>
      <trkpt lat="43.80118" lon="1.633">
        <ele>142</ele>
        <time>2017-04-16T10:42:08Z</time>
      </trkpt>
      <trkpt lat="43.80125" lon="1.63315">
        <ele>143</ele>
        <time>2017-04-16T10:42:19Z</time>
      </trkpt>
      <trkpt lat="43.80127" lon="1.6332">
        <ele>143</ele>
        <time>2017-04-16T10:42:22Z</time>
      </trkpt>
      <trkpt lat="43.80128" lon="1.63332">
        <ele>143</ele>
        <time>2017-04-16T10:42:31Z</time>
      </trkpt>
      <trkpt lat="43.80126" lon="1.63353">
        <ele>147</ele>
        <time>2017-04-16T10:42:42Z</time>
      </trkpt>
      <trkpt lat="43.80123" lon="1.63364">
        <ele>147</ele>
        <time>2017-04-16T10:42:47Z</time>
      </trkpt>
      <trkpt lat="43.80115" lon="1.63383">
        <ele>148</ele>
        <time>2017-04-16T10:42:59Z</time>
      </trkpt>
      <trkpt lat="43.80111" lon="1.6339">
        <ele>149</ele>
        <time>2017-04-16T10:43:03Z</time>
      </trkpt>
      <trkpt lat="43.801" lon="1.63399">
        <ele>150</ele>
        <time>2017-04-16T10:43:12Z</time>
      </trkpt>
      <trkpt lat="43.80098" lon="1.63428">
        <ele>154</ele>
        <time>2017-04-16T10:43:28Z</time>
      </trkpt>
      <trkpt lat="43.80086" lon="1.63457">
        <ele>155</ele>
        <time>2017-04-16T10:43:44Z</time>
      </trkpt>
      <trkpt lat="43.80074" lon="1.63484">
        <ele>158</ele>
        <time>2017-04-16T10:43:58Z</time>
      </trkpt>
      <trkpt lat="43.80073" lon="1.63486">
        <ele>158</ele>
        <time>2017-04-16T10:43:59Z</time>
      </trkpt>
      <trkpt lat="43.80075" lon="1.63509">
        <ele>161</ele>
        <time>2017-04-16T10:44:11Z</time>
      </trkpt>
      <trkpt lat="43.80075" lon="1.63534">
        <ele>161</ele>
        <time>2017-04-16T10:44:24Z</time>
      </trkpt>
      <trkpt lat="43.80068" lon="1.63548">
        <ele>161</ele>
        <time>2017-04-16T10:44:36Z</time>
      </trkpt>
      <trkpt lat="43.8006" lon="1.63561">
        <ele>161</ele>
        <time>2017-04-16T10:44:41Z</time>
      </trkpt>
      <trkpt lat="43.80061" lon="1.63597">
        <ele>162</ele>
        <time>2017-04-16T10:44:54Z</time>
      </trkpt>
      <trkpt lat="43.80066" lon="1.63616">
        <ele>162</ele>
        <time>2017-04-16T10:44:58Z</time>
      </trkpt>
      <trkpt lat="43.80066" lon="1.63621">
        <ele>162</ele>
        <time>2017-04-16T10:44:59Z</time>
      </trkpt>
      <trkpt lat="43.80065" lon="1.63633">
        <ele>162</ele>
        <time>2017-04-16T10:45:02Z</time>
      </trkpt>
      <trkpt lat="43.80066" lon="1.6366">
        <ele>162</ele>
        <time>2017-04-16T10:45:09Z</time>
      </trkpt>
      <trkpt lat="43.80069" lon="1.63683">
        <ele>163</ele>
        <time>2017-04-16T10:45:14Z</time>
      </trkpt>
      <trkpt lat="43.80068" lon="1.63686">
        <ele>163</ele>
        <time>2017-04-16T10:45:15Z</time>
      </trkpt>
      <trkpt lat="43.8007" lon="1.63704">
        <ele>162</ele>
        <time>2017-04-16T10:45:19Z</time>
      </trkpt>
      <trkpt lat="43.80071" lon="1.63714">
        <ele>162</ele>
        <time>2017-04-16T10:45:21Z</time>
      </trkpt>
      <trkpt lat="43.80077" lon="1.6374">
        <ele>163</ele>
        <time>2017-04-16T10:45:26Z</time>
      </trkpt>
      <trkpt lat="43.80074" lon="1.63754">
        <ele>164</ele>
        <time>2017-04-16T10:45:32Z</time>
      </trkpt>
      <trkpt lat="43.80073" lon="1.6376">
        <ele>164</ele>
        <time>2017-04-16T10:45:35Z</time>
      </trkpt>
      <trkpt lat="43.80073" lon="1.63768">
        <ele>164</ele>
        <time>2017-04-16T10:45:38Z</time>
      </trkpt>
      <trkpt lat="43.80071" lon="1.63775">
        <ele>164</ele>
        <time>2017-04-16T10:45:41Z</time>
      </trkpt>
      <trkpt lat="43.80074" lon="1.63802">
        <ele>165</ele>
        <time>2017-04-16T10:45:50Z</time>
      </trkpt>
      <trkpt lat="43.80077" lon="1.63819">
        <ele>165</ele>
        <time>2017-04-16T10:45:56Z</time>
      </trkpt>
      <trkpt lat="43.80078" lon="1.6384">
        <ele>166</ele>
        <time>2017-04-16T10:46:07Z</time>
      </trkpt>
      <trkpt lat="43.80079" lon="1.63844">
        <ele>167</ele>
        <time>2017-04-16T10:46:13Z</time>
      </trkpt>
      <trkpt lat="43.80081" lon="1.63852">
        <ele>167</ele>
        <time>2017-04-16T10:46:17Z</time>
      </trkpt>
      <trkpt lat="43.80078" lon="1.6386">
        <ele>167</ele>
        <time>2017-04-16T10:46:22Z</time>
      </trkpt>
      <trkpt lat="43.80077" lon="1.63882">
        <ele>167</ele>
        <time>2017-04-16T10:46:29Z</time>
      </trkpt>
      <trkpt lat="43.80076" lon="1.63911">
        <ele>167</ele>
        <time>2017-04-16T10:46:39Z</time>
      </trkpt>
      <trkpt lat="43.80076" lon="1.63942">
        <ele>169</ele>
        <time>2017-04-16T10:46:52Z</time>
      </trkpt>
      <trkpt lat="43.80075" lon="1.63959">
        <ele>169</ele>
        <time>2017-04-16T10:47:01Z</time>
      </trkpt>
      <trkpt lat="43.80075" lon="1.63968">
        <ele>169</ele>
        <time>2017-04-16T10:47:05Z</time>
      </trkpt>
      <trkpt lat="43.80073" lon="1.64">
        <ele>170</ele>
        <time>2017-04-16T10:47:18Z</time>
      </trkpt>
      <trkpt lat="43.80074" lon="1.64039">
        <ele>172</ele>
        <time>2017-04-16T10:47:35Z</time>
      </trkpt>
      <trkpt lat="43.80081" lon="1.64069">
        <ele>172</ele>
        <time>2017-04-16T10:47:50Z</time>
      </trkpt>
      <trkpt lat="43.80082" lon="1.64097">
        <ele>175</ele>
        <time>2017-04-16T10:48:05Z</time>
      </trkpt>
      <trkpt lat="43.80074" lon="1.64123">
        <ele>177</ele>
        <time>2017-04-16T10:48:20Z</time>
      </trkpt>
      <trkpt lat="43.80071" lon="1.64126">
        <ele>177</ele>
        <time>2017-04-16T10:48:29Z</time>
      </trkpt>
      <trkpt lat="43.8006" lon="1.64129">
        <ele>178</ele>
        <time>2017-04-16T10:48:45Z</time>
      </trkpt>
      <trkpt lat="43.80053" lon="1.64131">
        <ele>178</ele>
        <time>2017-04-16T10:49:00Z</time>
      </trkpt>
      <trkpt lat="43.80042" lon="1.64129">
        <ele>179</ele>
        <time>2017-04-16T10:49:13Z</time>
      </trkpt>
      <trkpt lat="43.80028" lon="1.64121">
        <ele>179</ele>
        <time>2017-04-16T10:49:28Z</time>
      </trkpt>
      <trkpt lat="43.80021" lon="1.64128">
        <ele>180</ele>
        <time>2017-04-16T10:49:42Z</time>
      </trkpt>
      <trkpt lat="43.80019" lon="1.64138">
        <ele>181</ele>
        <time>2017-04-16T10:49:59Z</time>
      </trkpt>
      <trkpt lat="43.80019" lon="1.6414">
        <ele>181</ele>
        <time>2017-04-16T10:50:00Z</time>
      </trkpt>
      <trkpt lat="43.80021" lon="1.64152">
        <ele>182</ele>
        <time>2017-04-16T10:50:04Z</time>
      </trkpt>
      <trkpt lat="43.80022" lon="1.64163">
        <ele>182</ele>
        <time>2017-04-16T10:50:07Z</time>
      </trkpt>
      <trkpt lat="43.8002" lon="1.64181">
        <ele>186</ele>
        <time>2017-04-16T10:50:14Z</time>
      </trkpt>
      <trkpt lat="43.80016" lon="1.64207">
        <ele>187</ele>
        <time>2017-04-16T10:50:27Z</time>
      </trkpt>
      <trkpt lat="43.8001" lon="1.64228">
        <ele>189</ele>
        <time>2017-04-16T10:50:38Z</time>
      </trkpt>
      <trkpt lat="43.80001" lon="1.64246">
        <ele>194</ele>
        <time>2017-04-16T10:50:51Z</time>
      </trkpt>
      <trkpt lat="43.79994" lon="1.64274">
        <ele>198</ele>
        <time>2017-04-16T10:51:02Z</time>
      </trkpt>
      <trkpt lat="43.79986" lon="1.64312">
        <ele>198</ele>
        <time>2017-04-16T10:51:09Z</time>
      </trkpt>
      <trkpt lat="43.79979" lon="1.64341">
        <ele>200</ele>
        <time>2017-04-16T10:51:21Z</time>
      </trkpt>
      <trkpt lat="43.79978" lon="1.64359">
        <ele>201</ele>
        <time>2017-04-16T10:51:28Z</time>
      </trkpt>
      <trkpt lat="43.79977" lon="1.64367">
        <ele>201</ele>
        <time>2017-04-16T10:51:31Z</time>
      </trkpt>
      <trkpt lat="43.79975" lon="1.644">
        <ele>201</ele>
        <time>2017-04-16T10:51:40Z</time>
      </trkpt>
      <trkpt lat="43.79973" lon="1.64408">
        <ele>201</ele>
        <time>2017-04-16T10:51:43Z</time>
      </trkpt>
      <trkpt lat="43.79966" lon="1.64435">
        <ele>202</ele>
        <time>2017-04-16T10:51:55Z</time>
      </trkpt>
      <trkpt lat="43.79966" lon="1.64443">
        <ele>202</ele>
        <time>2017-04-16T10:52:09Z</time>
      </trkpt>
      <trkpt lat="43.79966" lon="1.64471">
        <ele>202</ele>
        <time>2017-04-16T10:52:23Z</time>
      </trkpt>
      <trkpt lat="43.79971" lon="1.64502">
        <ele>201</ele>
        <time>2017-04-16T10:52:32Z</time>
      </trkpt>
      <trkpt lat="43.79971" lon="1.64505">
        <ele>201</ele>
        <time>2017-04-16T10:52:33Z</time>
      </trkpt>
      <trkpt lat="43.79973" lon="1.64514">
        <ele>201</ele>
        <time>2017-04-16T10:52:36Z</time>
      </trkpt>
      <trkpt lat="43.79971" lon="1.64535">
        <ele>202</ele>
        <time>2017-04-16T10:52:44Z</time>
      </trkpt>
      <trkpt lat="43.79967" lon="1.64567">
        <ele>202</ele>
        <time>2017-04-16T10:52:55Z</time>
      </trkpt>
      <trkpt lat="43.79968" lon="1.6458">
        <ele>202</ele>
        <time>2017-04-16T10:52:58Z</time>
      </trkpt>
      <trkpt lat="43.79965" lon="1.64614">
        <ele>204</ele>
        <time>2017-04-16T10:53:06Z</time>
      </trkpt>
      <trkpt lat="43.79957" lon="1.64627">
        <ele>205</ele>
        <time>2017-04-16T10:53:14Z</time>
      </trkpt>
      <trkpt lat="43.79955" lon="1.64638">
        <ele>205</ele>
        <time>2017-04-16T10:53:19Z</time>
      </trkpt>
      <trkpt lat="43.79947" lon="1.64659">
        <ele>206</ele>
        <time>2017-04-16T10:53:30Z</time>
      </trkpt>
      <trkpt lat="43.7994" lon="1.64674">
        <ele>207</ele>
        <time>2017-04-16T10:53:37Z</time>
      </trkpt>
      <trkpt lat="43.79938" lon="1.64678">
        <ele>207</ele>
        <time>2017-04-16T10:53:39Z</time>
      </trkpt>
      <trkpt lat="43.79926" lon="1.64703">
        <ele>207</ele>
        <time>2017-04-16T10:53:49Z</time>
      </trkpt>
      <trkpt lat="43.79916" lon="1.6471">
        <ele>215</ele>
        <time>2017-04-16T10:53:55Z</time>
      </trkpt>
      <trkpt lat="43.79913" lon="1.64713">
        <ele>215</ele>
        <time>2017-04-16T10:54:06Z</time>
      </trkpt>
      <trkpt lat="43.79914" lon="1.64714">
        <ele>215</ele>
        <time>2017-04-16T10:54:10Z</time>
      </trkpt>
      <trkpt lat="43.79917" lon="1.64717">
        <ele>206</ele>
        <time>2017-04-16T10:54:15Z</time>
      </trkpt>
      <trkpt lat="43.79913" lon="1.64736">
        <ele>212</ele>
        <time>2017-04-16T10:54:27Z</time>
      </trkpt>
      <trkpt lat="43.79905" lon="1.64754">
        <ele>211</ele>
        <time>2017-04-16T10:54:40Z</time>
      </trkpt>
      <trkpt lat="43.79904" lon="1.64757">
        <ele>212</ele>
        <time>2017-04-16T10:54:42Z</time>
      </trkpt>
      <trkpt lat="43.799" lon="1.64782">
        <ele>214</ele>
        <time>2017-04-16T10:54:57Z</time>
      </trkpt>
      <trkpt lat="43.79896" lon="1.64791">
        <ele>215</ele>
        <time>2017-04-16T10:55:02Z</time>
      </trkpt>
      <trkpt lat="43.79892" lon="1.64807">
        <ele>215</ele>
        <time>2017-04-16T10:55:10Z</time>
      </trkpt>
      <trkpt lat="43.79886" lon="1.64818">
        <ele>216</ele>
        <time>2017-04-16T10:55:17Z</time>
      </trkpt>
      <trkpt lat="43.79884" lon="1.64819">
        <ele>216</ele>
        <time>2017-04-16T10:55:19Z</time>
      </trkpt>
      <trkpt lat="43.79878" lon="1.64819">
        <ele>217</ele>
        <time>2017-04-16T10:55:24Z</time>
      </trkpt>
      <trkpt lat="43.79876" lon="1.64821">
        <ele>217</ele>
        <time>2017-04-16T10:55:26Z</time>
      </trkpt>
      <trkpt lat="43.79873" lon="1.64826">
        <ele>217</ele>
        <time>2017-04-16T10:55:30Z</time>
      </trkpt>
      <trkpt lat="43.79863" lon="1.64844">
        <ele>218</ele>
        <time>2017-04-16T10:55:45Z</time>
      </trkpt>
      <trkpt lat="43.79858" lon="1.64854">
        <ele>218</ele>
        <time>2017-04-16T10:55:56Z</time>
      </trkpt>
      <trkpt lat="43.79849" lon="1.64868">
        <ele>218</ele>
        <time>2017-04-16T10:56:11Z</time>
      </trkpt>
      <trkpt lat="43.7984" lon="1.64887">
        <ele>218</ele>
        <time>2017-04-16T10:56:28Z</time>
      </trkpt>
      <trkpt lat="43.79833" lon="1.64906">
        <ele>222</ele>
        <time>2017-04-16T10:56:45Z</time>
      </trkpt>
      <trkpt lat="43.79825" lon="1.64918">
        <ele>221</ele>
        <time>2017-04-16T10:57:01Z</time>
      </trkpt>
      <trkpt lat="43.79818" lon="1.64928">
        <ele>223</ele>
        <time>2017-04-16T10:57:19Z</time>
      </trkpt>
      <trkpt lat="43.79812" lon="1.64933">
        <ele>224</ele>
        <time>2017-04-16T10:57:25Z</time>
      </trkpt>
      <trkpt lat="43.79807" lon="1.64935">
        <ele>225</ele>
        <time>2017-04-16T10:57:41Z</time>
      </trkpt>
      <trkpt lat="43.79803" lon="1.64935">
        <ele>225</ele>
        <time>2017-04-16T10:57:57Z</time>
      </trkpt>
      <trkpt lat="43.798" lon="1.64936">
        <ele>226</ele>
        <time>2017-04-16T10:58:04Z</time>
      </trkpt>
      <trkpt lat="43.7979" lon="1.64935">
        <ele>227</ele>
        <time>2017-04-16T10:58:19Z</time>
      </trkpt>
      <trkpt lat="43.79791" lon="1.64951">
        <ele>227</ele>
        <time>2017-04-16T10:58:32Z</time>
      </trkpt>
      <trkpt lat="43.79791" lon="1.64952">
        <ele>227</ele>
        <time>2017-04-16T10:58:33Z</time>
      </trkpt>
      <trkpt lat="43.79797" lon="1.64972">
        <ele>226</ele>
        <time>2017-04-16T10:58:47Z</time>
      </trkpt>
      <trkpt lat="43.79795" lon="1.65">
        <ele>226</ele>
        <time>2017-04-16T10:59:03Z</time>
      </trkpt>
      <trkpt lat="43.79793" lon="1.65004">
        <ele>226</ele>
        <time>2017-04-16T10:59:06Z</time>
      </trkpt>
      <trkpt lat="43.79792" lon="1.6501">
        <ele>226</ele>
        <time>2017-04-16T10:59:10Z</time>
      </trkpt>
      <trkpt lat="43.79789" lon="1.65027">
        <ele>226</ele>
        <time>2017-04-16T10:59:21Z</time>
      </trkpt>
      <trkpt lat="43.798" lon="1.65032">
        <ele>225</ele>
      </trkpt>
      <trkpt lat="43.79817" lon="1.65025">
        <ele>223</ele>
        <time>2017-04-16T10:59:35Z</time>
      </trkpt>
      <trkpt lat="43.79865" lon="1.65015">
        <ele>214</ele>
      </trkpt>
      <trkpt lat="43.79941" lon="1.64957">
        <ele>210</ele>
      </trkpt>
      <trkpt lat="43.80026" lon="1.64741">
        <ele>204</ele>
      </trkpt>
      <trkpt lat="43.80148" lon="1.64474">
        <ele>197</ele>
      </trkpt>
      <trkpt lat="43.80192" lon="1.64316">
        <ele>191</ele>
      </trkpt>
      <trkpt lat="43.80218" lon="1.6431">
        <ele>191</ele>
      </trkpt>
      <trkpt lat="43.80221" lon="1.64254">
        <ele>191</ele>
      </trkpt>
      <trkpt lat="43.80255" lon="1.64072">
        <ele>193</ele>
      </trkpt>
      <trkpt lat="43.80357" lon="1.63655">
        <ele>183</ele>
      </trkpt>
      <trkpt lat="43.80434" lon="1.63644">
        <ele>176</ele>
      </trkpt>
      <trkpt lat="43.805" lon="1.63513">
        <ele>162</ele>
      </trkpt>
      <trkpt lat="43.80525" lon="1.63512">
        <ele>159</ele>
      </trkpt>
      <trkpt lat="43.80538" lon="1.63534">
        <ele>158</ele>
      </trkpt>
      <trkpt lat="43.80547" lon="1.63529">
        <ele>158</ele>
      </trkpt>
      <trkpt lat="43.80552" lon="1.63486">
        <ele>157</ele>
      </trkpt>
      <trkpt lat="43.80511" lon="1.63456">
        <ele>156</ele>
      </trkpt>
      <trkpt lat="43.80466" lon="1.63391">
        <ele>150</ele>
      </trkpt>
      <trkpt lat="43.80496" lon="1.63363">
        <ele>150</ele>
      </trkpt>
      <trkpt lat="43.80468" lon="1.63335">
        <ele>151</ele>
      </trkpt>
      <trkpt lat="43.80448" lon="1.63316">
        <ele>156</ele>
      </trkpt>
      <trkpt lat="43.80412" lon="1.63244">
        <ele>167</ele>
      </trkpt>
      <trkpt lat="43.80411" lon="1.63191">
        <ele>171</ele>
      </trkpt>
      <trkpt lat="43.80443" lon="1.63108">
        <ele>176</ele>
      </trkpt>
      <trkpt lat="43.80478" lon="1.63072">
        <ele>182</ele>
      </trkpt>
      <trkpt lat="43.80487" lon="1.63043">
        <ele>185</ele>
      </trkpt>
      <trkpt lat="43.80466" lon="1.63008">
        <ele>188</ele>
      </trkpt>
      <trkpt lat="43.80443" lon="1.62985">
        <ele>195</ele>
      </trkpt>
      <trkpt lat="43.8043" lon="1.62961">
        <ele>196</ele>
      </trkpt>
      <trkpt lat="43.80432" lon="1.62874">
        <ele>199</ele>
      </trkpt>
      <trkpt lat="43.80452" lon="1.62821">
        <ele>199</ele>
      </trkpt>
      <trkpt lat="43.80527" lon="1.62696">
        <ele>195</ele>
      </trkpt>
      <trkpt lat="43.8093" lon="1.62745">
        <ele>209</ele>
      </trkpt>
      <trkpt lat="43.811" lon="1.62737">
        <ele>217</ele>
      </trkpt>
      <trkpt lat="43.8105" lon="1.62917">
        <ele>210</ele>
      </trkpt>
      <trkpt lat="43.81028" lon="1.63041">
        <ele>207</ele>
      </trkpt>
      <trkpt lat="43.81014" lon="1.63143">
        <ele>207</ele>
      </trkpt>
      <trkpt lat="43.8104" lon="1.6316">
        <ele>204</ele>
      </trkpt>
      <trkpt lat="43.8103" lon="1.63197">
        <ele>203</ele>
      </trkpt>
      <trkpt lat="43.81062" lon="1.63236">
        <ele>199</ele>
      </trkpt>
      <trkpt lat="43.81069" lon="1.63254">
        <ele>194</ele>
      </trkpt>
      <trkpt lat="43.81032" lon="1.63349">
        <ele>180</ele>
      </trkpt>
      <trkpt lat="43.80974" lon="1.63392">
        <ele>179</ele>
      </trkpt>
      <trkpt lat="43.80927" lon="1.63404">
        <ele>179</ele>
      </trkpt>
      <trkpt lat="43.80903" lon="1.63441">
        <ele>171</ele>
      </trkpt>
      <trkpt lat="43.80899" lon="1.63486">
        <ele>166</ele>
      </trkpt>
      <trkpt lat="43.8086" lon="1.63447">
        <ele>169</ele>
      </trkpt>
      <trkpt lat="43.8077" lon="1.63447">
        <ele>165</ele>
      </trkpt>
      <trkpt lat="43.80671" lon="1.63395">
        <ele>168</ele>
      </trkpt>
      <trkpt lat="43.80568" lon="1.63349">
        <ele>161</ele>
      </trkpt>
      <trkpt lat="43.80469" lon="1.63349">
        <ele>151</ele>
      </trkpt>
      <trkpt lat="43.80402" lon="1.63323">
        <ele>156</ele>
      </trkpt>
      <trkpt lat="43.80276" lon="1.63343">
        <ele>147</ele>
      </trkpt>
      <trkpt lat="43.8022" lon="1.63325">
        <ele>146</ele>
      </trkpt>
      <trkpt lat="43.80195" lon="1.63265">
        <ele>146</ele>
      </trkpt>
      <trkpt lat="43.80112" lon="1.63192">
        <ele>140</ele>
      </trkpt>
      <trkpt lat="43.80064" lon="1.63132">
        <ele>142</ele>
      </trkpt>
      <trkpt lat="43.80028" lon="1.63074">
        <ele>146</ele>
      </trkpt>
      <trkpt lat="43.80009" lon="1.63033">
        <ele>148</ele>
      </trkpt>
      <trkpt lat="43.79995" lon="1.6307">
        <ele>140</ele>
      </trkpt>
      <trkpt lat="43.79973" lon="1.6308">
        <ele>140</ele>
      </trkpt>
      <trkpt lat="43.79948" lon="1.63065">
        <ele>141</ele>
      </trkpt>
      <trkpt lat="43.7992" lon="1.63019">
        <ele>139</ele>
      </trkpt>
      <trkpt lat="43.79878" lon="1.63">
        <ele>139</ele>
      </trkpt>
      <trkpt lat="43.79863" lon="1.62982">
        <ele>136</ele>
      </trkpt>
      <trkpt lat="43.79843" lon="1.62952">
        <ele>135</ele>
      </trkpt>
      <trkpt lat="43.79822" lon="1.62927">
        <ele>133</ele>
      </trkpt>
      <trkpt lat="43.79786" lon="1.62889">
        <ele>133</ele>
      </trkpt>
      <trkpt lat="43.79759" lon="1.62867">
        <ele>133</ele>
      </trkpt>
      <trkpt lat="43.79705" lon="1.62832">
        <ele>129</ele>
      </trkpt>
      <trkpt lat="43.79669" lon="1.62822">
        <ele>127</ele>
      </trkpt>
      <trkpt lat="43.79637" lon="1.62822">
        <ele>127</ele>
      </trkpt>
      <trkpt lat="43.79621" lon="1.62833">
        <ele>127</ele>
      </trkpt>
      <trkpt lat="43.79598" lon="1.62834">
        <ele>126</ele>
      </trkpt>
      <trkpt lat="43.79575" lon="1.62829">
        <ele>124</ele>
      </trkpt>
      <trkpt lat="43.79544" lon="1.62827">
        <ele>125</ele>
      </trkpt>
      <trkpt lat="43.79517" lon="1.62809">
        <ele>125</ele>
      </trkpt>
      <trkpt lat="43.79496" lon="1.62789">
        <ele>123</ele>
      </trkpt>
      <trkpt lat="43.79474" lon="1.62757">
        <ele>123</ele>
      </trkpt>
      <trkpt lat="43.79421" lon="1.62731">
        <ele>122</ele>
      </trkpt>
      <trkpt lat="43.79399" lon="1.62683">
        <ele>119</ele>
      </trkpt>
      <trkpt lat="43.79391" lon="1.6266">
        <ele>114</ele>
      </trkpt>
      <trkpt lat="43.79377" lon="1.6264">
        <ele>113</ele>
      </trkpt>
      <trkpt lat="43.79352" lon="1.62591">
        <ele>110</ele>
      </trkpt>
      <trkpt lat="43.79317" lon="1.62576">
        <ele>106</ele>
      </trkpt>
      <trkpt lat="43.79228" lon="1.62591">
        <ele>107</ele>
      </trkpt>
      <trkpt lat="43.79165" lon="1.62577">
        <ele>108</ele>
      </trkpt>
      <trkpt lat="43.79061" lon="1.62659">
        <ele>109</ele>
      </trkpt>
      <trkpt lat="43.79035" lon="1.62672">
        <ele>109</ele>
      </trkpt>
      <trkpt lat="43.7901" lon="1.62688">
        <ele>109</ele>
      </trkpt>
      <trkpt lat="43.78978" lon="1.62697">
        <ele>108</ele>
      </trkpt>
      <trkpt lat="43.78949" lon="1.62691">
        <ele>108</ele>
      </trkpt>
      <trkpt lat="43.78909" lon="1.62682">
        <ele>108</ele>
      </trkpt>
      <trkpt lat="43.78907" lon="1.62681">
        <ele>108</ele>
        <time>2017-04-16T08:15:09Z</time>
      </trkpt>
      <trkpt lat="43.78908" lon="1.62687">
        <ele>108</ele>
        <time>2017-04-16T08:15:10Z</time>
      </trkpt>
      <trkpt lat="43.78911" lon="1.62693">
        <ele>108</ele>
        <time>2017-04-16T08:15:11Z</time>
      </trkpt>
      <trkpt lat="43.78914" lon="1.62699">
        <ele>108</ele>
        <time>2017-04-16T08:15:12Z</time>
      </trkpt>
      <trkpt lat="43.78917" lon="1.62705">
        <ele>108</ele>
        <time>2017-04-16T08:15:13Z</time>
      </trkpt>
      <trkpt lat="43.78957" lon="1.62773">
        <ele>109</ele>
        <time>2017-04-16T08:15:27Z</time>
      </trkpt>
      <trkpt lat="43.78983" lon="1.62818">
        <ele>110</ele>
        <time>2017-04-16T08:15:39Z</time>
      </trkpt>
      <trkpt lat="43.79019" lon="1.62878">
        <ele>116</ele>
        <time>2017-04-16T08:15:58Z</time>
      </trkpt>
      <trkpt lat="43.79034" lon="1.62904">
        <ele>118</ele>
        <time>2017-04-16T08:16:12Z</time>
      </trkpt>
      <trkpt lat="43.79044" lon="1.6291">
        <ele>119</ele>
        <time>2017-04-16T08:16:20Z</time>
      </trkpt>
      <trkpt lat="43.79046" lon="1.62911">
        <ele>119</ele>
        <time>2017-04-16T08:16:21Z</time>
      </trkpt>
      <trkpt lat="43.79047" lon="1.62911">
        <ele>119</ele>
        <time>2017-04-16T08:16:22Z</time>
      </trkpt>
      <trkpt lat="43.79048" lon="1.62911">
        <ele>119</ele>
        <time>2017-04-16T08:16:23Z</time>
      </trkpt>
      <trkpt lat="43.79049" lon="1.62911">
        <ele>120</ele>
        <time>2017-04-16T08:16:24Z</time>
      </trkpt>
      <trkpt lat="43.79051" lon="1.62911">
        <ele>120</ele>
        <time>2017-04-16T08:16:25Z</time>
      </trkpt>
      <trkpt lat="43.79052" lon="1.6291">
        <ele>120</ele>
        <time>2017-04-16T08:16:26Z</time>
      </trkpt>
      <trkpt lat="43.79053" lon="1.6291">
        <ele>120</ele>
        <time>2017-04-16T08:16:27Z</time>
      </trkpt>
      <trkpt lat="43.79069" lon="1.62904">
        <ele>122</ele>
        <time>2017-04-16T08:16:40Z</time>
      </trkpt>
      <trkpt lat="43.7907" lon="1.62903">
        <ele>122</ele>
        <time>2017-04-16T08:16:41Z</time>
      </trkpt>
      <trkpt lat="43.79071" lon="1.62902">
        <ele>122</ele>
        <time>2017-04-16T08:16:42Z</time>
      </trkpt>
      <trkpt lat="43.79073" lon="1.62902">
        <ele>122</ele>
        <time>2017-04-16T08:16:43Z</time>
      </trkpt>
      <trkpt lat="43.79074" lon="1.62901">
        <ele>122</ele>
        <time>2017-04-16T08:16:44Z</time>
      </trkpt>
      <trkpt lat="43.79075" lon="1.629">
        <ele>122</ele>
        <time>2017-04-16T08:16:45Z</time>
      </trkpt>
      <trkpt lat="43.79076" lon="1.629">
        <ele>122</ele>
        <time>2017-04-16T08:16:46Z</time>
      </trkpt>
      <trkpt lat="43.79093" lon="1.6289">
        <ele>126</ele>
        <time>2017-04-16T08:17:00Z</time>
      </trkpt>
      <trkpt lat="43.79114" lon="1.6288">
        <ele>126</ele>
        <time>2017-04-16T08:17:18Z</time>
      </trkpt>
      <trkpt lat="43.79133" lon="1.62871">
        <ele>127</ele>
        <time>2017-04-16T08:17:32Z</time>
      </trkpt>
      <trkpt lat="43.79134" lon="1.62871">
        <ele>127</ele>
        <time>2017-04-16T08:17:33Z</time>
      </trkpt>
      <trkpt lat="43.79136" lon="1.62871">
        <ele>127</ele>
        <time>2017-04-16T08:17:34Z</time>
      </trkpt>
      <trkpt lat="43.79137" lon="1.62871">
        <ele>127</ele>
        <time>2017-04-16T08:17:35Z</time>
      </trkpt>
      <trkpt lat="43.79138" lon="1.6287">
        <ele>127</ele>
        <time>2017-04-16T08:17:36Z</time>
      </trkpt>
      <trkpt lat="43.79139" lon="1.62869">
        <ele>127</ele>
        <time>2017-04-16T08:17:37Z</time>
      </trkpt>
      <trkpt lat="43.79141" lon="1.62869">
        <ele>127</ele>
        <time>2017-04-16T08:17:38Z</time>
      </trkpt>
      <trkpt lat="43.79162" lon="1.62857">
        <ele>127</ele>
        <time>2017-04-16T08:17:55Z</time>
      </trkpt>
      <trkpt lat="43.79181" lon="1.62846">
        <ele>132</ele>
        <time>2017-04-16T08:18:11Z</time>
      </trkpt>
      <trkpt lat="43.79209" lon="1.62832">
        <ele>127</ele>
        <time>2017-04-16T08:18:33Z</time>
      </trkpt>
      <trkpt lat="43.79234" lon="1.62818">
        <ele>129</ele>
        <time>2017-04-16T08:18:53Z</time>
      </trkpt>
      <trkpt lat="43.79257" lon="1.62823">
        <ele>133</ele>
        <time>2017-04-16T08:19:08Z</time>
      </trkpt>
      <trkpt lat="43.79269" lon="1.6286">
        <ele>139</ele>
        <time>2017-04-16T08:19:26Z</time>
      </trkpt>
      <trkpt lat="43.79278" lon="1.62886">
        <ele>140</ele>
        <time>2017-04-16T08:19:41Z</time>
      </trkpt>
      <trkpt lat="43.79287" lon="1.62915">
        <ele>141</ele>
        <time>2017-04-16T08:19:59Z</time>
      </trkpt>
      <trkpt lat="43.79295" lon="1.62942">
        <ele>146</ele>
        <time>2017-04-16T08:20:16Z</time>
      </trkpt>
      <trkpt lat="43.79292" lon="1.6297">
        <ele>147</ele>
        <time>2017-04-16T08:20:33Z</time>
      </trkpt>
      <trkpt lat="43.79283" lon="1.62993">
        <ele>148</ele>
        <time>2017-04-16T08:20:48Z</time>
      </trkpt>
      <trkpt lat="43.79276" lon="1.63011">
        <ele>153</ele>
        <time>2017-04-16T08:21:00Z</time>
      </trkpt>
      <trkpt lat="43.79276" lon="1.63013">
        <ele>153</ele>
        <time>2017-04-16T08:21:01Z</time>
      </trkpt>
      <trkpt lat="43.79276" lon="1.63015">
        <ele>153</ele>
        <time>2017-04-16T08:21:02Z</time>
      </trkpt>
      <trkpt lat="43.79276" lon="1.63018">
        <ele>153</ele>
        <time>2017-04-16T08:21:04Z</time>
      </trkpt>
      <trkpt lat="43.79275" lon="1.6302">
        <ele>153</ele>
        <time>2017-04-16T08:21:05Z</time>
      </trkpt>
      <trkpt lat="43.79275" lon="1.63021">
        <ele>153</ele>
        <time>2017-04-16T08:21:06Z</time>
      </trkpt>
      <trkpt lat="43.79274" lon="1.63023">
        <ele>153</ele>
        <time>2017-04-16T08:21:07Z</time>
      </trkpt>
      <trkpt lat="43.79273" lon="1.63024">
        <ele>153</ele>
        <time>2017-04-16T08:21:08Z</time>
      </trkpt>
      <trkpt lat="43.79266" lon="1.63042">
        <ele>154</ele>
        <time>2017-04-16T08:21:20Z</time>
      </trkpt>
      <trkpt lat="43.79257" lon="1.63065">
        <ele>157</ele>
        <time>2017-04-16T08:21:35Z</time>
      </trkpt>
      <trkpt lat="43.79251" lon="1.63084">
        <ele>162</ele>
        <time>2017-04-16T08:21:47Z</time>
      </trkpt>
      <trkpt lat="43.79251" lon="1.63112">
        <ele>162</ele>
        <time>2017-04-16T08:22:04Z</time>
      </trkpt>
      <trkpt lat="43.79254" lon="1.63143">
        <ele>165</ele>
        <time>2017-04-16T08:22:22Z</time>
      </trkpt>
      <trkpt lat="43.79258" lon="1.63175">
        <ele>172</ele>
        <time>2017-04-16T08:22:41Z</time>
      </trkpt>
      <trkpt lat="43.79257" lon="1.6321">
        <ele>171</ele>
        <time>2017-04-16T08:23:01Z</time>
      </trkpt>
      <trkpt lat="43.79254" lon="1.63234">
        <ele>175</ele>
        <time>2017-04-16T08:23:16Z</time>
      </trkpt>
      <trkpt lat="43.79249" lon="1.63263">
        <ele>183</ele>
        <time>2017-04-16T08:23:33Z</time>
      </trkpt>
      <trkpt lat="43.79241" lon="1.63286">
        <ele>186</ele>
        <time>2017-04-16T08:23:47Z</time>
      </trkpt>
      <trkpt lat="43.7924" lon="1.63287">
        <ele>186</ele>
        <time>2017-04-16T08:23:48Z</time>
      </trkpt>
      <trkpt lat="43.79229" lon="1.63303">
        <ele>187</ele>
        <time>2017-04-16T08:24:01Z</time>
      </trkpt>
      <trkpt lat="43.79219" lon="1.63318">
        <ele>188</ele>
        <time>2017-04-16T08:24:13Z</time>
      </trkpt>
      <trkpt lat="43.79212" lon="1.63328">
        <ele>189</ele>
        <time>2017-04-16T08:24:22Z</time>
      </trkpt>
      <trkpt lat="43.79211" lon="1.63329">
        <ele>189</ele>
        <time>2017-04-16T08:24:23Z</time>
      </trkpt>
      <trkpt lat="43.7921" lon="1.6333">
        <ele>189</ele>
        <time>2017-04-16T08:24:24Z</time>
      </trkpt>
      <trkpt lat="43.79209" lon="1.63331">
        <ele>189</ele>
        <time>2017-04-16T08:24:25Z</time>
      </trkpt>
      <trkpt lat="43.79208" lon="1.63333">
        <ele>189</ele>
        <time>2017-04-16T08:24:26Z</time>
      </trkpt>
      <trkpt lat="43.79208" lon="1.63334">
        <ele>195</ele>
        <time>2017-04-16T08:24:27Z</time>
      </trkpt>
      <trkpt lat="43.79207" lon="1.63335">
        <ele>195</ele>
        <time>2017-04-16T08:24:28Z</time>
      </trkpt>
      <trkpt lat="43.79199" lon="1.63352">
        <ele>196</ele>
        <time>2017-04-16T08:24:41Z</time>
      </trkpt>
      <trkpt lat="43.79198" lon="1.63353">
        <ele>196</ele>
        <time>2017-04-16T08:24:42Z</time>
      </trkpt>
      <trkpt lat="43.79198" lon="1.63355">
        <ele>196</ele>
        <time>2017-04-16T08:24:43Z</time>
      </trkpt>
      <trkpt lat="43.79198" lon="1.63357">
        <ele>196</ele>
        <time>2017-04-16T08:24:44Z</time>
      </trkpt>
      <trkpt lat="43.79198" lon="1.63359">
        <ele>196</ele>
        <time>2017-04-16T08:24:45Z</time>
      </trkpt>
      <trkpt lat="43.79197" lon="1.63361">
        <ele>196</ele>
        <time>2017-04-16T08:24:46Z</time>
      </trkpt>
      <trkpt lat="43.79197" lon="1.63362">
        <ele>197</ele>
        <time>2017-04-16T08:24:47Z</time>
      </trkpt>
      <trkpt lat="43.79196" lon="1.63364">
        <ele>197</ele>
        <time>2017-04-16T08:24:48Z</time>
      </trkpt>
      <trkpt lat="43.79196" lon="1.63365">
        <ele>197</ele>
        <time>2017-04-16T08:24:49Z</time>
      </trkpt>
      <trkpt lat="43.79195" lon="1.63367">
        <ele>197</ele>
        <time>2017-04-16T08:24:50Z</time>
      </trkpt>
      <trkpt lat="43.79195" lon="1.63369">
        <ele>197</ele>
        <time>2017-04-16T08:24:51Z</time>
      </trkpt>
      <trkpt lat="43.79195" lon="1.6337">
        <ele>197</ele>
        <time>2017-04-16T08:24:52Z</time>
      </trkpt>
      <trkpt lat="43.79194" lon="1.63372">
        <ele>197</ele>
        <time>2017-04-16T08:24:53Z</time>
      </trkpt>
      <trkpt lat="43.79194" lon="1.63374">
        <ele>197</ele>
        <time>2017-04-16T08:24:54Z</time>
      </trkpt>
      <trkpt lat="43.79187" lon="1.63392">
        <ele>199</ele>
        <time>2017-04-16T08:25:06Z</time>
      </trkpt>
      <trkpt lat="43.79179" lon="1.63414">
        <ele>202</ele>
        <time>2017-04-16T08:25:20Z</time>
      </trkpt>
      <trkpt lat="43.79171" lon="1.63437">
        <ele>205</ele>
        <time>2017-04-16T08:25:34Z</time>
      </trkpt>
      <trkpt lat="43.7917" lon="1.63445">
        <ele>205</ele>
        <time>2017-04-16T08:25:38Z</time>
      </trkpt>
      <trkpt lat="43.79169" lon="1.63448">
        <ele>205</ele>
        <time>2017-04-16T08:25:40Z</time>
      </trkpt>
      <trkpt lat="43.79166" lon="1.63457">
        <ele>206</ele>
        <time>2017-04-16T08:25:45Z</time>
      </trkpt>
      <trkpt lat="43.79166" lon="1.63459">
        <ele>206</ele>
        <time>2017-04-16T08:25:46Z</time>
      </trkpt>
      <trkpt lat="43.79161" lon="1.63498">
        <ele>211</ele>
        <time>2017-04-16T08:26:02Z</time>
      </trkpt>
      <trkpt lat="43.79159" lon="1.63538">
        <ele>207</ele>
        <time>2017-04-16T08:26:16Z</time>
      </trkpt>
      <trkpt lat="43.79161" lon="1.63577">
        <ele>210</ele>
        <time>2017-04-16T08:26:27Z</time>
      </trkpt>
      <trkpt lat="43.79165" lon="1.63618">
        <ele>208</ele>
        <time>2017-04-16T08:26:40Z</time>
      </trkpt>
      <trkpt lat="43.79181" lon="1.63655">
        <ele>213</ele>
        <time>2017-04-16T08:26:53Z</time>
      </trkpt>
      <trkpt lat="43.79207" lon="1.63702">
        <ele>214</ele>
        <time>2017-04-16T08:27:05Z</time>
      </trkpt>
      <trkpt lat="43.79242" lon="1.63749">
        <ele>216</ele>
        <time>2017-04-16T08:27:18Z</time>
      </trkpt>
      <trkpt lat="43.79264" lon="1.63783">
        <ele>216</ele>
        <time>2017-04-16T08:27:29Z</time>
      </trkpt>
      <trkpt lat="43.79299" lon="1.63825">
        <ele>216</ele>
        <time>2017-04-16T08:27:42Z</time>
      </trkpt>
      <trkpt lat="43.79323" lon="1.63847">
        <ele>217</ele>
        <time>2017-04-16T08:27:54Z</time>
      </trkpt>
      <trkpt lat="43.79342" lon="1.6386">
        <ele>220</ele>
        <time>2017-04-16T08:28:08Z</time>
      </trkpt>
      <trkpt lat="43.79358" lon="1.63865">
        <ele>221</ele>
        <time>2017-04-16T08:28:21Z</time>
      </trkpt>
      <trkpt lat="43.7936" lon="1.63866">
        <ele>221</ele>
        <time>2017-04-16T08:28:22Z</time>
      </trkpt>
      <trkpt lat="43.79361" lon="1.63866">
        <ele>221</ele>
        <time>2017-04-16T08:28:23Z</time>
      </trkpt>
      <trkpt lat="43.79362" lon="1.63867">
        <ele>221</ele>
        <time>2017-04-16T08:28:24Z</time>
      </trkpt>
      <trkpt lat="43.79364" lon="1.63868">
        <ele>221</ele>
        <time>2017-04-16T08:28:25Z</time>
      </trkpt>
      <trkpt lat="43.79365" lon="1.63868">
        <ele>221</ele>
        <time>2017-04-16T08:28:26Z</time>
      </trkpt>
      <trkpt lat="43.79374" lon="1.63871">
        <ele>222</ele>
        <time>2017-04-16T08:28:32Z</time>
      </trkpt>
      <trkpt lat="43.79375" lon="1.63871">
        <ele>222</ele>
        <time>2017-04-16T08:28:33Z</time>
      </trkpt>
      <trkpt lat="43.79376" lon="1.63872">
        <ele>222</ele>
        <time>2017-04-16T08:28:34Z</time>
      </trkpt>
      <trkpt lat="43.79378" lon="1.63872">
        <ele>222</ele>
        <time>2017-04-16T08:28:35Z</time>
      </trkpt>
      <trkpt lat="43.79398" lon="1.63877">
        <ele>223</ele>
        <time>2017-04-16T08:28:51Z</time>
      </trkpt>
      <trkpt lat="43.79417" lon="1.63886">
        <ele>232</ele>
        <time>2017-04-16T08:29:06Z</time>
      </trkpt>
      <trkpt lat="43.79429" lon="1.63897">
        <ele>232</ele>
        <time>2017-04-16T08:29:17Z</time>
      </trkpt>
      <trkpt lat="43.7944" lon="1.63908">
        <ele>233</ele>
        <time>2017-04-16T08:29:28Z</time>
      </trkpt>
      <trkpt lat="43.79451" lon="1.63917">
        <ele>236</ele>
        <time>2017-04-16T08:29:39Z</time>
      </trkpt>
      <trkpt lat="43.79465" lon="1.63929">
        <ele>238</ele>
        <time>2017-04-16T08:29:51Z</time>
      </trkpt>
      <trkpt lat="43.79482" lon="1.63943">
        <ele>239</ele>
        <time>2017-04-16T08:30:06Z</time>
      </trkpt>
      <trkpt lat="43.79496" lon="1.63962">
        <ele>240</ele>
        <time>2017-04-16T08:30:21Z</time>
      </trkpt>
      <trkpt lat="43.7951" lon="1.63994">
        <ele>245</ele>
        <time>2017-04-16T08:30:37Z</time>
      </trkpt>
      <trkpt lat="43.79516" lon="1.64005">
        <ele>245</ele>
        <time>2017-04-16T08:33:07Z</time>
      </trkpt>
      <trkpt lat="43.79518" lon="1.64007">
        <ele>245</ele>
        <time>2017-04-16T08:34:09Z</time>
      </trkpt>
      <trkpt lat="43.79519" lon="1.64008">
        <ele>245</ele>
        <time>2017-04-16T08:34:11Z</time>
      </trkpt>
      <trkpt lat="43.79531" lon="1.64034">
        <ele>244</ele>
        <time>2017-04-16T08:34:24Z</time>
      </trkpt>
      <trkpt lat="43.79532" lon="1.64042">
        <ele>244</ele>
        <time>2017-04-16T08:34:28Z</time>
      </trkpt>
      <trkpt lat="43.79532" lon="1.64055">
        <ele>244</ele>
        <time>2017-04-16T08:34:29Z</time>
      </trkpt>
      <trkpt lat="43.79536" lon="1.64077">
        <ele>244</ele>
        <time>2017-04-16T08:34:31Z</time>
      </trkpt>
      <trkpt lat="43.79544" lon="1.64117">
        <ele>244</ele>
        <time>2017-04-16T08:34:41Z</time>
      </trkpt>
      <trkpt lat="43.79552" lon="1.64156">
        <ele>244</ele>
        <time>2017-04-16T08:34:42Z</time>
      </trkpt>
      <trkpt lat="43.79559" lon="1.64184">
        <ele>245</ele>
        <time>2017-04-16T08:34:48Z</time>
      </trkpt>
      <trkpt lat="43.79563" lon="1.6421">
        <ele>245</ele>
        <time>2017-04-16T08:34:49Z</time>
      </trkpt>
      <trkpt lat="43.79566" lon="1.64234">
        <ele>246</ele>
        <time>2017-04-16T08:34:53Z</time>
      </trkpt>
      <trkpt lat="43.79566" lon="1.64251">
        <ele>247</ele>
        <time>2017-04-16T08:34:54Z</time>
      </trkpt>
      <trkpt lat="43.79567" lon="1.64277">
        <ele>247</ele>
        <time>2017-04-16T08:34:56Z</time>
      </trkpt>
      <trkpt lat="43.79569" lon="1.64299">
        <ele>247</ele>
        <time>2017-04-16T08:34:59Z</time>
      </trkpt>
      <trkpt lat="43.79571" lon="1.6433">
        <ele>247</ele>
        <time>2017-04-16T08:35:02Z</time>
      </trkpt>
      <trkpt lat="43.79572" lon="1.64382">
        <ele>247</ele>
        <time>2017-04-16T08:38:36Z</time>
      </trkpt>
      <trkpt lat="43.79566" lon="1.64403">
        <ele>247</ele>
      </trkpt>
      <trkpt lat="43.79539" lon="1.64452">
        <ele>247</ele>
      </trkpt>
      <trkpt lat="43.79553" lon="1.64488">
        <ele>248</ele>
      </trkpt>
      <trkpt lat="43.79564" lon="1.64538">
        <ele>248</ele>
      </trkpt>
      <trkpt lat="43.7957" lon="1.64596">
        <ele>247</ele>
      </trkpt>
      <trkpt lat="43.79586" lon="1.64653">
        <ele>247</ele>
      </trkpt>
      <trkpt lat="43.79599" lon="1.64688">
        <ele>246</ele>
      </trkpt>
      <trkpt lat="43.79629" lon="1.64727">
        <ele>246</ele>
      </trkpt>
      <trkpt lat="43.79661" lon="1.64759">
        <ele>244</ele>
      </trkpt>
      <trkpt lat="43.79684" lon="1.64789">
        <ele>242</ele>
      </trkpt>
      <trkpt lat="43.79701" lon="1.64833">
        <ele>241</ele>
      </trkpt>
      <trkpt lat="43.79716" lon="1.64847">
        <ele>238</ele>
      </trkpt>
      <trkpt lat="43.79749" lon="1.64867">
        <ele>238</ele>
      </trkpt>
      <trkpt lat="43.79759" lon="1.64906">
        <ele>232</ele>
      </trkpt>
      <trkpt lat="43.79782" lon="1.65021">
        <ele>227</ele>
      </trkpt>
      <trkpt lat="43.79782" lon="1.65024">
        <ele>227</ele>
        <time>2017-04-16T10:59:35Z</time>
      </trkpt>
      <trkpt lat="43.79759" lon="1.65043">
        <ele>229</ele>
        <time>2017-04-16T10:59:50Z</time>
      </trkpt>
      <trkpt lat="43.7974" lon="1.65057">
        <ele>237</ele>
        <time>2017-04-16T11:00:07Z</time>
      </trkpt>
      <trkpt lat="43.79738" lon="1.65059">
        <ele>237</ele>
        <time>2017-04-16T11:00:09Z</time>
      </trkpt>
      <trkpt lat="43.79728" lon="1.65066">
        <ele>238</ele>
        <time>2017-04-16T11:00:18Z</time>
      </trkpt>
      <trkpt lat="43.79712" lon="1.65079">
        <ele>239</ele>
        <time>2017-04-16T11:00:32Z</time>
      </trkpt>
      <trkpt lat="43.79692" lon="1.651">
        <ele>240</ele>
        <time>2017-04-16T11:00:47Z</time>
      </trkpt>
      <trkpt lat="43.79684" lon="1.65111">
        <ele>240</ele>
        <time>2017-04-16T11:00:55Z</time>
      </trkpt>
      <trkpt lat="43.79674" lon="1.65125">
        <ele>240</ele>
        <time>2017-04-16T11:01:08Z</time>
      </trkpt>
      <trkpt lat="43.79674" lon="1.6513">
        <ele>240</ele>
        <time>2017-04-16T11:01:23Z</time>
      </trkpt>
      <trkpt lat="43.79675" lon="1.65138">
        <ele>240</ele>
        <time>2017-04-16T11:01:30Z</time>
      </trkpt>
      <trkpt lat="43.79677" lon="1.65147">
        <ele>240</ele>
        <time>2017-04-16T11:01:33Z</time>
      </trkpt>
      <trkpt lat="43.79676" lon="1.65157">
        <ele>241</ele>
        <time>2017-04-16T11:01:39Z</time>
      </trkpt>
      <trkpt lat="43.79677" lon="1.65168">
        <ele>239</ele>
        <time>2017-04-16T11:01:45Z</time>
      </trkpt>
      <trkpt lat="43.79683" lon="1.6518">
        <ele>237</ele>
        <time>2017-04-16T11:01:50Z</time>
      </trkpt>
      <trkpt lat="43.79683" lon="1.65192">
        <ele>235</ele>
        <time>2017-04-16T11:01:55Z</time>
      </trkpt>
      <trkpt lat="43.79673" lon="1.65218">
        <ele>235</ele>
        <time>2017-04-16T11:02:08Z</time>
      </trkpt>
      <trkpt lat="43.79665" lon="1.65228">
        <ele>241</ele>
        <time>2017-04-16T11:02:14Z</time>
      </trkpt>
      <trkpt lat="43.79657" lon="1.65269">
        <ele>239</ele>
        <time>2017-04-16T11:02:26Z</time>
      </trkpt>
      <trkpt lat="43.79654" lon="1.65308">
        <ele>237</ele>
        <time>2017-04-16T11:02:37Z</time>
      </trkpt>
      <trkpt lat="43.79654" lon="1.65313">
        <ele>237</ele>
        <time>2017-04-16T11:02:38Z</time>
      </trkpt>
      <trkpt lat="43.79647" lon="1.65324">
        <ele>237</ele>
        <time>2017-04-16T11:02:43Z</time>
      </trkpt>
      <trkpt lat="43.79635" lon="1.6534">
        <ele>234</ele>
        <time>2017-04-16T11:02:53Z</time>
      </trkpt>
      <trkpt lat="43.79629" lon="1.65349">
        <ele>234</ele>
        <time>2017-04-16T11:02:59Z</time>
      </trkpt>
      <trkpt lat="43.79626" lon="1.65352">
        <ele>235</ele>
        <time>2017-04-16T11:03:02Z</time>
      </trkpt>
      <trkpt lat="43.79623" lon="1.65354">
        <ele>235</ele>
        <time>2017-04-16T11:03:04Z</time>
      </trkpt>
      <trkpt lat="43.79616" lon="1.65369">
        <ele>235</ele>
        <time>2017-04-16T11:03:12Z</time>
      </trkpt>
      <trkpt lat="43.79613" lon="1.65383">
        <ele>234</ele>
        <time>2017-04-16T11:03:16Z</time>
      </trkpt>
      <trkpt lat="43.79599" lon="1.65386">
        <ele>235</ele>
        <time>2017-04-16T11:03:23Z</time>
      </trkpt>
      <trkpt lat="43.79588" lon="1.65398">
        <ele>235</ele>
        <time>2017-04-16T11:03:26Z</time>
      </trkpt>
      <trkpt lat="43.79579" lon="1.6541">
        <ele>237</ele>
        <time>2017-04-16T11:03:29Z</time>
      </trkpt>
      <trkpt lat="43.79573" lon="1.65424">
        <ele>236</ele>
        <time>2017-04-16T11:03:33Z</time>
      </trkpt>
      <trkpt lat="43.79568" lon="1.65432">
        <ele>236</ele>
        <time>2017-04-16T11:03:34Z</time>
      </trkpt>
      <trkpt lat="43.79564" lon="1.65453">
        <ele>235</ele>
        <time>2017-04-16T11:03:38Z</time>
      </trkpt>
      <trkpt lat="43.79559" lon="1.65473">
        <ele>234</ele>
        <time>2017-04-16T11:03:41Z</time>
      </trkpt>
      <trkpt lat="43.79541" lon="1.65521">
        <ele>233</ele>
        <time>2017-04-16T11:03:47Z</time>
      </trkpt>
      <trkpt lat="43.79551" lon="1.65546">
        <ele>232</ele>
        <time>2017-04-16T11:03:51Z</time>
      </trkpt>
      <trkpt lat="43.79559" lon="1.65557">
        <ele>230</ele>
        <time>2017-04-16T11:03:55Z</time>
      </trkpt>
      <trkpt lat="43.7957" lon="1.6557">
        <ele>227</ele>
        <time>2017-04-16T11:03:59Z</time>
      </trkpt>
      <trkpt lat="43.79575" lon="1.65585">
        <ele>224</ele>
        <time>2017-04-16T11:04:03Z</time>
      </trkpt>
      <trkpt lat="43.79591" lon="1.65595">
        <ele>217</ele>
        <time>2017-04-16T11:04:06Z</time>
      </trkpt>
      <trkpt lat="43.79593" lon="1.65582">
        <ele>219</ele>
        <time>2017-04-16T11:04:09Z</time>
      </trkpt>
      <trkpt lat="43.79602" lon="1.65582">
        <ele>217</ele>
        <time>2017-04-16T11:04:13Z</time>
      </trkpt>
      <trkpt lat="43.79605" lon="1.65581">
        <ele>216</ele>
        <time>2017-04-16T11:04:22Z</time>
      </trkpt>
      <trkpt lat="43.79608" lon="1.65579">
        <ele>216</ele>
        <time>2017-04-16T11:04:24Z</time>
      </trkpt>
      <trkpt lat="43.79609" lon="1.65577">
        <ele>215</ele>
        <time>2017-04-16T11:04:25Z</time>
      </trkpt>
      <trkpt lat="43.7961" lon="1.65576">
        <ele>215</ele>
        <time>2017-04-16T11:04:26Z</time>
      </trkpt>
      <trkpt lat="43.79611" lon="1.65575">
        <ele>215</ele>
        <time>2017-04-16T11:04:27Z</time>
      </trkpt>
      <trkpt lat="43.79624" lon="1.65582">
        <ele>213</ele>
        <time>2017-04-16T11:04:36Z</time>
      </trkpt>
      <trkpt lat="43.79635" lon="1.65599">
        <ele>209</ele>
        <time>2017-04-16T11:04:42Z</time>
      </trkpt>
      <trkpt lat="43.79638" lon="1.65602">
        <ele>209</ele>
        <time>2017-04-16T11:04:43Z</time>
      </trkpt>
      <trkpt lat="43.79646" lon="1.65622">
        <ele>208</ele>
        <time>2017-04-16T11:04:48Z</time>
      </trkpt>
      <trkpt lat="43.79654" lon="1.65635">
        <ele>208</ele>
        <time>2017-04-16T11:04:52Z</time>
      </trkpt>
      <trkpt lat="43.79661" lon="1.65654">
        <ele>205</ele>
        <time>2017-04-16T11:04:55Z</time>
      </trkpt>
      <trkpt lat="43.7967" lon="1.65672">
        <ele>199</ele>
        <time>2017-04-16T11:05:02Z</time>
      </trkpt>
      <trkpt lat="43.79686" lon="1.65669">
        <ele>197</ele>
        <time>2017-04-16T11:05:04Z</time>
      </trkpt>
      <trkpt lat="43.79693" lon="1.65676">
        <ele>196</ele>
        <time>2017-04-16T11:05:08Z</time>
      </trkpt>
      <trkpt lat="43.79702" lon="1.65685">
        <ele>194</ele>
        <time>2017-04-16T11:05:10Z</time>
      </trkpt>
      <trkpt lat="43.79705" lon="1.65702">
        <ele>194</ele>
        <time>2017-04-16T11:05:12Z</time>
      </trkpt>
      <trkpt lat="43.79725" lon="1.65715">
        <ele>192</ele>
        <time>2017-04-16T11:05:19Z</time>
      </trkpt>
      <trkpt lat="43.79724" lon="1.65735">
        <ele>192</ele>
        <time>2017-04-16T11:05:26Z</time>
      </trkpt>
      <trkpt lat="43.79723" lon="1.65761">
        <ele>192</ele>
        <time>2017-04-16T11:05:32Z</time>
      </trkpt>
      <trkpt lat="43.79721" lon="1.65768">
        <ele>192</ele>
        <time>2017-04-16T11:05:34Z</time>
      </trkpt>
      <trkpt lat="43.79722" lon="1.65792">
        <ele>192</ele>
        <time>2017-04-16T11:05:39Z</time>
      </trkpt>
      <trkpt lat="43.79723" lon="1.65799">
        <ele>192</ele>
        <time>2017-04-16T11:05:40Z</time>
      </trkpt>
      <trkpt lat="43.79724" lon="1.65805">
        <ele>191</ele>
        <time>2017-04-16T11:05:41Z</time>
      </trkpt>
      <trkpt lat="43.79717" lon="1.65832">
        <ele>191</ele>
        <time>2017-04-16T11:05:48Z</time>
      </trkpt>
      <trkpt lat="43.79732" lon="1.65858">
        <ele>188</ele>
        <time>2017-04-16T11:05:59Z</time>
      </trkpt>
      <trkpt lat="43.79747" lon="1.65863">
        <ele>188</ele>
        <time>2017-04-16T11:06:03Z</time>
      </trkpt>
      <trkpt lat="43.79764" lon="1.65864">
        <ele>177</ele>
        <time>2017-04-16T11:06:05Z</time>
      </trkpt>
      <trkpt lat="43.79786" lon="1.65874">
        <ele>174</ele>
        <time>2017-04-16T11:06:10Z</time>
      </trkpt>
      <trkpt lat="43.7979" lon="1.65893">
        <ele>173</ele>
        <time>2017-04-16T11:06:17Z</time>
      </trkpt>
      <trkpt lat="43.79791" lon="1.65917">
        <ele>172</ele>
        <time>2017-04-16T11:06:22Z</time>
      </trkpt>
      <trkpt lat="43.79785" lon="1.65953">
        <ele>172</ele>
        <time>2017-04-16T11:06:32Z</time>
      </trkpt>
      <trkpt lat="43.79771" lon="1.65994">
        <ele>174</ele>
        <time>2017-04-16T11:06:44Z</time>
      </trkpt>
      <trkpt lat="43.7976" lon="1.66009">
        <ele>174</ele>
        <time>2017-04-16T11:06:50Z</time>
      </trkpt>
      <trkpt lat="43.79746" lon="1.66028">
        <ele>176</ele>
        <time>2017-04-16T11:06:52Z</time>
      </trkpt>
      <trkpt lat="43.79732" lon="1.66043">
        <ele>175</ele>
        <time>2017-04-16T11:06:54Z</time>
      </trkpt>
      <trkpt lat="43.79716" lon="1.66056">
        <ele>175</ele>
        <time>2017-04-16T11:06:59Z</time>
      </trkpt>
      <trkpt lat="43.79697" lon="1.6607">
        <ele>175</ele>
        <time>2017-04-16T11:07:02Z</time>
      </trkpt>
      <trkpt lat="43.79687" lon="1.66083">
        <ele>175</ele>
        <time>2017-04-16T11:07:05Z</time>
      </trkpt>
      <trkpt lat="43.79689" lon="1.66108">
        <ele>174</ele>
        <time>2017-04-16T11:07:13Z</time>
      </trkpt>
      <trkpt lat="43.79697" lon="1.66136">
        <ele>174</ele>
        <time>2017-04-16T11:07:22Z</time>
      </trkpt>
      <trkpt lat="43.79704" lon="1.6616">
        <ele>174</ele>
        <time>2017-04-16T11:07:31Z</time>
      </trkpt>
      <trkpt lat="43.79712" lon="1.66187">
        <ele>175</ele>
        <time>2017-04-16T11:07:38Z</time>
      </trkpt>
      <trkpt lat="43.79724" lon="1.66196">
        <ele>174</ele>
        <time>2017-04-16T11:07:50Z</time>
      </trkpt>
      <trkpt lat="43.79748" lon="1.66197">
        <ele>173</ele>
        <time>2017-04-16T11:08:04Z</time>
      </trkpt>
      <trkpt lat="43.7976" lon="1.66202">
        <ele>163</ele>
        <time>2017-04-16T11:08:07Z</time>
      </trkpt>
      <trkpt lat="43.79767" lon="1.66213">
        <ele>163</ele>
        <time>2017-04-16T11:08:11Z</time>
      </trkpt>
      <trkpt lat="43.79772" lon="1.6623">
        <ele>163</ele>
        <time>2017-04-16T11:08:13Z</time>
      </trkpt>
      <trkpt lat="43.79772" lon="1.66245">
        <ele>164</ele>
        <time>2017-04-16T11:08:22Z</time>
      </trkpt>
      <trkpt lat="43.79766" lon="1.66259">
        <ele>164</ele>
        <time>2017-04-16T11:08:27Z</time>
      </trkpt>
      <trkpt lat="43.79762" lon="1.6627">
        <ele>164</ele>
        <time>2017-04-16T11:08:30Z</time>
      </trkpt>
      <trkpt lat="43.7976" lon="1.66284">
        <ele>163</ele>
        <time>2017-04-16T11:08:37Z</time>
      </trkpt>
      <trkpt lat="43.79754" lon="1.66296">
        <ele>162</ele>
        <time>2017-04-16T11:08:38Z</time>
      </trkpt>
      <trkpt lat="43.79749" lon="1.66312">
        <ele>169</ele>
        <time>2017-04-16T11:08:42Z</time>
      </trkpt>
      <trkpt lat="43.79743" lon="1.66327">
        <ele>167</ele>
        <time>2017-04-16T11:08:52Z</time>
      </trkpt>
      <trkpt lat="43.7974" lon="1.66341">
        <ele>165</ele>
        <time>2017-04-16T11:09:02Z</time>
      </trkpt>
      <trkpt lat="43.79741" lon="1.66362">
        <ele>165</ele>
        <time>2017-04-16T11:09:06Z</time>
      </trkpt>
      <trkpt lat="43.79738" lon="1.66375">
        <ele>165</ele>
        <time>2017-04-16T11:09:13Z</time>
      </trkpt>
      <trkpt lat="43.79734" lon="1.66386">
        <ele>164</ele>
        <time>2017-04-16T11:09:15Z</time>
      </trkpt>
      <trkpt lat="43.79726" lon="1.66404">
        <ele>164</ele>
        <time>2017-04-16T11:09:22Z</time>
      </trkpt>
      <trkpt lat="43.79726" lon="1.66426">
        <ele>160</ele>
        <time>2017-04-16T11:09:25Z</time>
      </trkpt>
      <trkpt lat="43.79719" lon="1.66448">
        <ele>161</ele>
        <time>2017-04-16T11:09:32Z</time>
      </trkpt>
      <trkpt lat="43.79714" lon="1.66475">
        <ele>161</ele>
        <time>2017-04-16T11:09:39Z</time>
      </trkpt>
      <trkpt lat="43.79704" lon="1.66482">
        <ele>161</ele>
        <time>2017-04-16T11:09:51Z</time>
      </trkpt>
      <trkpt lat="43.79675" lon="1.66544">
        <ele>157</ele>
        <time>2017-04-16T11:10:05Z</time>
      </trkpt>
      <trkpt lat="43.79658" lon="1.66585">
        <ele>159</ele>
        <time>2017-04-16T11:10:16Z</time>
      </trkpt>
      <trkpt lat="43.79653" lon="1.66599">
        <ele>160</ele>
        <time>2017-04-16T11:10:17Z</time>
      </trkpt>
      <trkpt lat="43.79643" lon="1.66625">
        <ele>161</ele>
        <time>2017-04-16T11:10:29Z</time>
      </trkpt>
      <trkpt lat="43.79638" lon="1.66666">
        <ele>160</ele>
        <time>2017-04-16T11:10:40Z</time>
      </trkpt>
      <trkpt lat="43.79638" lon="1.66691">
        <ele>157</ele>
        <time>2017-04-16T11:10:46Z</time>
      </trkpt>
      <trkpt lat="43.79636" lon="1.66709">
        <ele>157</ele>
        <time>2017-04-16T11:10:48Z</time>
      </trkpt>
      <trkpt lat="43.79632" lon="1.66737">
        <ele>156</ele>
        <time>2017-04-16T11:10:52Z</time>
      </trkpt>
      <trkpt lat="43.79629" lon="1.66757">
        <ele>152</ele>
        <time>2017-04-16T11:10:54Z</time>
      </trkpt>
      <trkpt lat="43.79623" lon="1.66775">
        <ele>152</ele>
        <time>2017-04-16T11:10:57Z</time>
      </trkpt>
      <trkpt lat="43.79618" lon="1.66792">
        <ele>152</ele>
        <time>2017-04-16T11:11:01Z</time>
      </trkpt>
      <trkpt lat="43.79615" lon="1.66808">
        <ele>151</ele>
        <time>2017-04-16T11:11:08Z</time>
      </trkpt>
      <trkpt lat="43.79618" lon="1.66829">
        <ele>151</ele>
        <time>2017-04-16T11:11:13Z</time>
      </trkpt>
      <trkpt lat="43.79621" lon="1.66847">
        <ele>146</ele>
        <time>2017-04-16T11:11:19Z</time>
      </trkpt>
      <trkpt lat="43.79631" lon="1.66879">
        <ele>144</ele>
        <time>2017-04-16T11:11:20Z</time>
      </trkpt>
      <trkpt lat="43.7965" lon="1.66872">
        <ele>144</ele>
        <time>2017-04-16T11:11:28Z</time>
      </trkpt>
      <trkpt lat="43.7965" lon="1.66903">
        <ele>141</ele>
        <time>2017-04-16T11:11:43Z</time>
      </trkpt>
      <trkpt lat="43.79662" lon="1.66941">
        <ele>136</ele>
        <time>2017-04-16T11:11:56Z</time>
      </trkpt>
      <trkpt lat="43.79689" lon="1.67003">
        <ele>123</ele>
        <time>2017-04-16T11:12:02Z</time>
      </trkpt>
      <trkpt lat="43.79557" lon="1.67081">
        <ele>129</ele>
        <time>2017-04-16T11:12:16Z</time>
      </trkpt>
      <trkpt lat="43.79515" lon="1.67114">
        <ele>126</ele>
        <time>2017-04-16T11:12:21Z</time>
      </trkpt>
      <trkpt lat="43.79468" lon="1.67145">
        <ele>124</ele>
        <time>2017-04-16T11:12:40Z</time>
      </trkpt>
      <trkpt lat="43.79422" lon="1.67116">
        <ele>123</ele>
        <time>2017-04-16T11:12:53Z</time>
      </trkpt>
      <trkpt lat="43.79387" lon="1.67058">
        <ele>122</ele>
        <time>2017-04-16T11:13:00Z</time>
      </trkpt>
      <trkpt lat="43.79353" lon="1.67003">
        <ele>122</ele>
        <time>2017-04-16T11:13:12Z</time>
      </trkpt>
      <trkpt lat="43.7932" lon="1.66977">
        <ele>124</ele>
        <time>2017-04-16T11:13:25Z</time>
      </trkpt>
      <trkpt lat="43.79264" lon="1.66936">
        <ele>125</ele>
      </trkpt>
      <trkpt lat="43.79196" lon="1.66915">
        <ele>126</ele>
      </trkpt>
      <trkpt lat="43.79086" lon="1.66901">
        <ele>125</ele>
        <time>2017-04-16T11:26:59Z</time>
      </trkpt>
      <trkpt lat="43.79047" lon="1.66902">
        <ele>125</ele>
        <time>2017-04-16T11:27:00Z</time>
      </trkpt>
      <trkpt lat="43.79011" lon="1.66898">
        <ele>124</ele>
        <time>2017-04-16T11:27:01Z</time>
      </trkpt>
      <trkpt lat="43.78979" lon="1.669">
        <ele>124</ele>
        <time>2017-04-16T11:27:02Z</time>
      </trkpt>
      <trkpt lat="43.78943" lon="1.66899">
        <ele>124</ele>
        <time>2017-04-16T11:27:15Z</time>
      </trkpt>
      <trkpt lat="43.7894" lon="1.66936">
        <ele>123</ele>
        <time>2017-04-16T11:27:25Z</time>
      </trkpt>
      <trkpt lat="43.78937" lon="1.67042">
        <ele>119</ele>
        <time>2017-04-16T11:27:39Z</time>
      </trkpt>
      <trkpt lat="43.78933" lon="1.6709">
        <ele>116</ele>
        <time>2017-04-16T11:27:45Z</time>
      </trkpt>
      <trkpt lat="43.78932" lon="1.67095">
        <ele>115</ele>
        <time>2017-04-16T11:27:46Z</time>
      </trkpt>
      <trkpt lat="43.78931" lon="1.67099">
        <ele>115</ele>
        <time>2017-04-16T11:27:47Z</time>
      </trkpt>
      <trkpt lat="43.78933" lon="1.67103">
        <ele>115</ele>
        <time>2017-04-16T11:27:48Z</time>
      </trkpt>
      <trkpt lat="43.78936" lon="1.67107">
        <ele>115</ele>
        <time>2017-04-16T11:27:49Z</time>
      </trkpt>
      <trkpt lat="43.7894" lon="1.67112">
        <ele>115</ele>
        <time>2017-04-16T11:27:50Z</time>
      </trkpt>
      <trkpt lat="43.78944" lon="1.67117">
        <ele>114</ele>
        <time>2017-04-16T11:27:51Z</time>
      </trkpt>
      <trkpt lat="43.78947" lon="1.67124">
        <ele>114</ele>
        <time>2017-04-16T11:27:52Z</time>
      </trkpt>
      <trkpt lat="43.7895" lon="1.67132">
        <ele>114</ele>
        <time>2017-04-16T11:27:53Z</time>
      </trkpt>
      <trkpt lat="43.78952" lon="1.67141">
        <ele>113</ele>
        <time>2017-04-16T11:27:54Z</time>
      </trkpt>
      <trkpt lat="43.78954" lon="1.67149">
        <ele>113</ele>
        <time>2017-04-16T11:27:55Z</time>
      </trkpt>
      <trkpt lat="43.78957" lon="1.67157">
        <ele>113</ele>
        <time>2017-04-16T11:27:56Z</time>
      </trkpt>
      <trkpt lat="43.78962" lon="1.67163">
        <ele>113</ele>
        <time>2017-04-16T11:27:57Z</time>
      </trkpt>
      <trkpt lat="43.78967" lon="1.67166">
        <ele>113</ele>
        <time>2017-04-16T11:27:58Z</time>
      </trkpt>
      <trkpt lat="43.78974" lon="1.67168">
        <ele>110</ele>
        <time>2017-04-16T11:27:59Z</time>
      </trkpt>
      <trkpt lat="43.78982" lon="1.67169">
        <ele>110</ele>
        <time>2017-04-16T11:28:00Z</time>
      </trkpt>
      <trkpt lat="43.7899" lon="1.67169">
        <ele>110</ele>
        <time>2017-04-16T11:28:01Z</time>
      </trkpt>
      <trkpt lat="43.79008" lon="1.67166">
        <ele>112</ele>
        <time>2017-04-16T11:28:04Z</time>
      </trkpt>
      <trkpt lat="43.79017" lon="1.67163">
        <ele>112</ele>
        <time>2017-04-16T11:28:06Z</time>
      </trkpt>
    </trkseg>
  </trk>
</gpx>